<?xml version="1.0" encoding="UTF-8" standalone="no" ?>
<gpx xmlns="http://www.topografix.com/GPX/1/1" xmlns:xsi="http://www.w3.org/2001/XMLSchema-instance" xsi:schemaLocation="http://www.topografix.com/GPX/1/1 http://www.topografix.com/GPX/1/1/gpx.xsd" version="1.1" creator="VisuGPX - https://www.visugpx.com">
  <metadata>
    <name>Colletto Verde</name>
    <desc><![CDATA[Claviere - Colletto Verde]]></desc>
  </metadata>
  <trk>
    <name><![CDATA[Colletto_Verde_20 NOV 2019]]></name>
    <trkseg>
      <trkpt lat="44.93744" lon="6.74771">
        <ele>1776.65</ele>
        <time>2019-11-20T07:34:45Z</time>
      </trkpt>
      <trkpt lat="44.93743" lon="6.74766">
        <ele>1776.17</ele>
        <time>2019-11-20T07:34:59Z</time>
      </trkpt>
      <trkpt lat="44.93742" lon="6.74767">
        <ele>1775.69</ele>
        <time>2019-11-20T07:35:32Z</time>
      </trkpt>
      <trkpt lat="44.93744" lon="6.74768">
        <ele>1775.69</ele>
        <time>2019-11-20T07:36:19Z</time>
      </trkpt>
      <trkpt lat="44.93742" lon="6.74767">
        <ele>1775.69</ele>
        <time>2019-11-20T07:37:04Z</time>
      </trkpt>
      <trkpt lat="44.93743" lon="6.7477">
        <ele>1775.69</ele>
        <time>2019-11-20T07:37:57Z</time>
      </trkpt>
      <trkpt lat="44.93741" lon="6.74766">
        <ele>1775.69</ele>
        <time>2019-11-20T07:38:43Z</time>
      </trkpt>
      <trkpt lat="44.93744" lon="6.74763">
        <ele>1775.69</ele>
        <time>2019-11-20T07:39:37Z</time>
      </trkpt>
      <trkpt lat="44.93743" lon="6.74763">
        <ele>1775.21</ele>
        <time>2019-11-20T07:40:20Z</time>
      </trkpt>
      <trkpt lat="44.93744" lon="6.74765">
        <ele>1775.69</ele>
        <time>2019-11-20T07:40:54Z</time>
      </trkpt>
      <trkpt lat="44.93744" lon="6.74764">
        <ele>1775.69</ele>
        <time>2019-11-20T07:41:33Z</time>
      </trkpt>
      <trkpt lat="44.93745" lon="6.74767">
        <ele>1775.69</ele>
        <time>2019-11-20T07:42:14Z</time>
      </trkpt>
      <trkpt lat="44.93743" lon="6.74766">
        <ele>1775.69</ele>
        <time>2019-11-20T07:42:50Z</time>
      </trkpt>
      <trkpt lat="44.93744" lon="6.74768">
        <ele>1775.69</ele>
        <time>2019-11-20T07:43:27Z</time>
      </trkpt>
      <trkpt lat="44.93742" lon="6.74769">
        <ele>1775.69</ele>
        <time>2019-11-20T07:44:01Z</time>
      </trkpt>
      <trkpt lat="44.93744" lon="6.74768">
        <ele>1775.69</ele>
        <time>2019-11-20T07:44:32Z</time>
      </trkpt>
      <trkpt lat="44.93744" lon="6.74769">
        <ele>1777.13</ele>
        <time>2019-11-20T07:44:44Z</time>
      </trkpt>
      <trkpt lat="44.93742" lon="6.74773">
        <ele>1776.65</ele>
        <time>2019-11-20T07:44:57Z</time>
      </trkpt>
      <trkpt lat="44.9374" lon="6.74793">
        <ele>1775.69</ele>
        <time>2019-11-20T07:45:16Z</time>
      </trkpt>
      <trkpt lat="44.93729" lon="6.74801">
        <ele>1775.21</ele>
        <time>2019-11-20T07:45:34Z</time>
      </trkpt>
      <trkpt lat="44.93716" lon="6.74788">
        <ele>1775.21</ele>
        <time>2019-11-20T07:45:52Z</time>
      </trkpt>
      <trkpt lat="44.93704" lon="6.74778">
        <ele>1774.73</ele>
        <time>2019-11-20T07:46:09Z</time>
      </trkpt>
      <trkpt lat="44.93695" lon="6.74757">
        <ele>1774.73</ele>
        <time>2019-11-20T07:46:29Z</time>
      </trkpt>
      <trkpt lat="44.93685" lon="6.74759">
        <ele>1774.73</ele>
        <time>2019-11-20T07:46:46Z</time>
      </trkpt>
      <trkpt lat="44.93688" lon="6.7476">
        <ele>1774.73</ele>
        <time>2019-11-20T07:47:02Z</time>
      </trkpt>
      <trkpt lat="44.93688" lon="6.74759">
        <ele>1774.73</ele>
        <time>2019-11-20T07:47:25Z</time>
      </trkpt>
      <trkpt lat="44.93687" lon="6.74759">
        <ele>1774.73</ele>
        <time>2019-11-20T07:47:42Z</time>
      </trkpt>
      <trkpt lat="44.93688" lon="6.74757">
        <ele>1774.73</ele>
        <time>2019-11-20T07:48:02Z</time>
      </trkpt>
      <trkpt lat="44.93687" lon="6.74761">
        <ele>1774.73</ele>
        <time>2019-11-20T07:48:16Z</time>
      </trkpt>
      <trkpt lat="44.93681" lon="6.74754">
        <ele>1775.21</ele>
        <time>2019-11-20T07:48:30Z</time>
      </trkpt>
      <trkpt lat="44.93671" lon="6.74752">
        <ele>1775.21</ele>
        <time>2019-11-20T07:48:52Z</time>
      </trkpt>
      <trkpt lat="44.93668" lon="6.74747">
        <ele>1775.69</ele>
        <time>2019-11-20T07:49:10Z</time>
      </trkpt>
      <trkpt lat="44.93662" lon="6.74738">
        <ele>1776.65</ele>
        <time>2019-11-20T07:49:30Z</time>
      </trkpt>
      <trkpt lat="44.93652" lon="6.7473">
        <ele>1776.65</ele>
        <time>2019-11-20T07:49:47Z</time>
      </trkpt>
      <trkpt lat="44.93648" lon="6.7472">
        <ele>1776.65</ele>
        <time>2019-11-20T07:50:02Z</time>
      </trkpt>
      <trkpt lat="44.93649" lon="6.7471">
        <ele>1776.65</ele>
        <time>2019-11-20T07:50:15Z</time>
      </trkpt>
      <trkpt lat="44.93642" lon="6.74694">
        <ele>1776.17</ele>
        <time>2019-11-20T07:50:32Z</time>
      </trkpt>
      <trkpt lat="44.93641" lon="6.74692">
        <ele>1776.17</ele>
        <time>2019-11-20T07:50:34Z</time>
      </trkpt>
      <trkpt lat="44.9363" lon="6.74678">
        <ele>1775.69</ele>
        <time>2019-11-20T07:50:52Z</time>
      </trkpt>
      <trkpt lat="44.93633" lon="6.74667">
        <ele>1775.69</ele>
        <time>2019-11-20T07:51:09Z</time>
      </trkpt>
      <trkpt lat="44.93626" lon="6.74648">
        <ele>1775.69</ele>
        <time>2019-11-20T07:51:27Z</time>
      </trkpt>
      <trkpt lat="44.93622" lon="6.74628">
        <ele>1775.69</ele>
        <time>2019-11-20T07:51:45Z</time>
      </trkpt>
      <trkpt lat="44.93617" lon="6.74626">
        <ele>1775.69</ele>
        <time>2019-11-20T07:51:58Z</time>
      </trkpt>
      <trkpt lat="44.93614" lon="6.74614">
        <ele>1775.69</ele>
        <time>2019-11-20T07:52:20Z</time>
      </trkpt>
      <trkpt lat="44.93614" lon="6.74608">
        <ele>1776.17</ele>
        <time>2019-11-20T07:52:25Z</time>
      </trkpt>
      <trkpt lat="44.93597" lon="6.74593">
        <ele>1776.17</ele>
        <time>2019-11-20T07:52:45Z</time>
      </trkpt>
      <trkpt lat="44.9359" lon="6.74579">
        <ele>1777.61</ele>
        <time>2019-11-20T07:53:01Z</time>
      </trkpt>
      <trkpt lat="44.93589" lon="6.74575">
        <ele>1777.61</ele>
        <time>2019-11-20T07:53:04Z</time>
      </trkpt>
      <trkpt lat="44.93578" lon="6.74557">
        <ele>1778.1</ele>
        <time>2019-11-20T07:53:20Z</time>
      </trkpt>
      <trkpt lat="44.93569" lon="6.7454">
        <ele>1778.1</ele>
        <time>2019-11-20T07:53:36Z</time>
      </trkpt>
      <trkpt lat="44.93563" lon="6.74528">
        <ele>1779.06</ele>
        <time>2019-11-20T07:53:50Z</time>
      </trkpt>
      <trkpt lat="44.9356" lon="6.74514">
        <ele>1779.54</ele>
        <time>2019-11-20T07:54:06Z</time>
      </trkpt>
      <trkpt lat="44.93555" lon="6.74501">
        <ele>1780.02</ele>
        <time>2019-11-20T07:54:20Z</time>
      </trkpt>
      <trkpt lat="44.93553" lon="6.7449">
        <ele>1780.5</ele>
        <time>2019-11-20T07:54:30Z</time>
      </trkpt>
      <trkpt lat="44.93552" lon="6.74486">
        <ele>1780.5</ele>
        <time>2019-11-20T07:54:33Z</time>
      </trkpt>
      <trkpt lat="44.93545" lon="6.74467">
        <ele>1780.98</ele>
        <time>2019-11-20T07:54:51Z</time>
      </trkpt>
      <trkpt lat="44.93538" lon="6.74458">
        <ele>1781.46</ele>
        <time>2019-11-20T07:55:08Z</time>
      </trkpt>
      <trkpt lat="44.93534" lon="6.74449">
        <ele>1781.94</ele>
        <time>2019-11-20T07:55:24Z</time>
      </trkpt>
      <trkpt lat="44.93532" lon="6.74445">
        <ele>1781.94</ele>
        <time>2019-11-20T07:55:27Z</time>
      </trkpt>
      <trkpt lat="44.93519" lon="6.74431">
        <ele>1782.9</ele>
        <time>2019-11-20T07:55:43Z</time>
      </trkpt>
      <trkpt lat="44.93516" lon="6.74428">
        <ele>1782.9</ele>
        <time>2019-11-20T07:55:48Z</time>
      </trkpt>
      <trkpt lat="44.93511" lon="6.74409">
        <ele>1783.86</ele>
        <time>2019-11-20T07:56:05Z</time>
      </trkpt>
      <trkpt lat="44.93509" lon="6.74392">
        <ele>1784.34</ele>
        <time>2019-11-20T07:56:21Z</time>
      </trkpt>
      <trkpt lat="44.93507" lon="6.74377">
        <ele>1784.82</ele>
        <time>2019-11-20T07:56:35Z</time>
      </trkpt>
      <trkpt lat="44.93507" lon="6.74375">
        <ele>1785.31</ele>
        <time>2019-11-20T07:56:38Z</time>
      </trkpt>
      <trkpt lat="44.93501" lon="6.74359">
        <ele>1785.79</ele>
        <time>2019-11-20T07:56:54Z</time>
      </trkpt>
      <trkpt lat="44.93494" lon="6.74344">
        <ele>1786.27</ele>
        <time>2019-11-20T07:57:08Z</time>
      </trkpt>
      <trkpt lat="44.93485" lon="6.74328">
        <ele>1786.75</ele>
        <time>2019-11-20T07:57:26Z</time>
      </trkpt>
      <trkpt lat="44.93474" lon="6.74317">
        <ele>1787.23</ele>
        <time>2019-11-20T07:57:41Z</time>
      </trkpt>
      <trkpt lat="44.9347" lon="6.74316">
        <ele>1787.23</ele>
        <time>2019-11-20T07:57:46Z</time>
      </trkpt>
      <trkpt lat="44.93455" lon="6.74318">
        <ele>1788.19</ele>
        <time>2019-11-20T07:58:01Z</time>
      </trkpt>
      <trkpt lat="44.93453" lon="6.74318">
        <ele>1788.19</ele>
        <time>2019-11-20T07:58:03Z</time>
      </trkpt>
      <trkpt lat="44.93443" lon="6.74311">
        <ele>1788.67</ele>
        <time>2019-11-20T07:58:15Z</time>
      </trkpt>
      <trkpt lat="44.93433" lon="6.74298">
        <ele>1789.63</ele>
        <time>2019-11-20T07:58:30Z</time>
      </trkpt>
      <trkpt lat="44.93423" lon="6.74287">
        <ele>1790.11</ele>
        <time>2019-11-20T07:58:45Z</time>
      </trkpt>
      <trkpt lat="44.93412" lon="6.74275">
        <ele>1790.59</ele>
        <time>2019-11-20T07:59:01Z</time>
      </trkpt>
      <trkpt lat="44.93404" lon="6.74262">
        <ele>1791.07</ele>
        <time>2019-11-20T07:59:17Z</time>
      </trkpt>
      <trkpt lat="44.93395" lon="6.74248">
        <ele>1792.03</ele>
        <time>2019-11-20T07:59:31Z</time>
      </trkpt>
      <trkpt lat="44.93387" lon="6.74238">
        <ele>1792.52</ele>
        <time>2019-11-20T07:59:45Z</time>
      </trkpt>
      <trkpt lat="44.93375" lon="6.74233">
        <ele>1793.48</ele>
        <time>2019-11-20T08:00:01Z</time>
      </trkpt>
      <trkpt lat="44.93363" lon="6.74227">
        <ele>1793.96</ele>
        <time>2019-11-20T08:00:17Z</time>
      </trkpt>
      <trkpt lat="44.93357" lon="6.74221">
        <ele>1794.92</ele>
        <time>2019-11-20T08:00:32Z</time>
      </trkpt>
      <trkpt lat="44.93354" lon="6.74206">
        <ele>1795.88</ele>
        <time>2019-11-20T08:00:46Z</time>
      </trkpt>
      <trkpt lat="44.9335" lon="6.74187">
        <ele>1795.4</ele>
        <time>2019-11-20T08:01:00Z</time>
      </trkpt>
      <trkpt lat="44.93348" lon="6.74173">
        <ele>1796.36</ele>
        <time>2019-11-20T08:01:15Z</time>
      </trkpt>
      <trkpt lat="44.93345" lon="6.74157">
        <ele>1796.84</ele>
        <time>2019-11-20T08:01:30Z</time>
      </trkpt>
      <trkpt lat="44.93341" lon="6.74146">
        <ele>1797.8</ele>
        <time>2019-11-20T08:01:43Z</time>
      </trkpt>
      <trkpt lat="44.93338" lon="6.74134">
        <ele>1799.24</ele>
        <time>2019-11-20T08:02:00Z</time>
      </trkpt>
      <trkpt lat="44.93338" lon="6.74123">
        <ele>1801.17</ele>
        <time>2019-11-20T08:02:16Z</time>
      </trkpt>
      <trkpt lat="44.93339" lon="6.74107">
        <ele>1803.09</ele>
        <time>2019-11-20T08:02:33Z</time>
      </trkpt>
      <trkpt lat="44.93341" lon="6.74098">
        <ele>1803.57</ele>
        <time>2019-11-20T08:02:41Z</time>
      </trkpt>
      <trkpt lat="44.93341" lon="6.74093">
        <ele>1803.57</ele>
        <time>2019-11-20T08:02:45Z</time>
      </trkpt>
      <trkpt lat="44.93336" lon="6.7408">
        <ele>1804.53</ele>
        <time>2019-11-20T08:02:57Z</time>
      </trkpt>
      <trkpt lat="44.93335" lon="6.74078">
        <ele>1803.09</ele>
        <time>2019-11-20T08:02:59Z</time>
      </trkpt>
      <trkpt lat="44.93329" lon="6.74065">
        <ele>1802.61</ele>
        <time>2019-11-20T08:03:12Z</time>
      </trkpt>
      <trkpt lat="44.93328" lon="6.74064">
        <ele>1802.61</ele>
        <time>2019-11-20T08:03:14Z</time>
      </trkpt>
      <trkpt lat="44.93317" lon="6.74055">
        <ele>1802.61</ele>
        <time>2019-11-20T08:03:29Z</time>
      </trkpt>
      <trkpt lat="44.93309" lon="6.74046">
        <ele>1803.57</ele>
        <time>2019-11-20T08:03:42Z</time>
      </trkpt>
      <trkpt lat="44.93305" lon="6.74042">
        <ele>1803.57</ele>
        <time>2019-11-20T08:03:49Z</time>
      </trkpt>
      <trkpt lat="44.93294" lon="6.74034">
        <ele>1804.05</ele>
        <time>2019-11-20T08:04:04Z</time>
      </trkpt>
      <trkpt lat="44.93292" lon="6.74026">
        <ele>1804.53</ele>
        <time>2019-11-20T08:04:11Z</time>
      </trkpt>
      <trkpt lat="44.93295" lon="6.74006">
        <ele>1805.01</ele>
        <time>2019-11-20T08:04:28Z</time>
      </trkpt>
      <trkpt lat="44.93298" lon="6.7399">
        <ele>1805.49</ele>
        <time>2019-11-20T08:04:41Z</time>
      </trkpt>
      <trkpt lat="44.93301" lon="6.73972">
        <ele>1805.97</ele>
        <time>2019-11-20T08:04:56Z</time>
      </trkpt>
      <trkpt lat="44.93299" lon="6.73957">
        <ele>1806.45</ele>
        <time>2019-11-20T08:05:09Z</time>
      </trkpt>
      <trkpt lat="44.93293" lon="6.73945">
        <ele>1806.94</ele>
        <time>2019-11-20T08:05:21Z</time>
      </trkpt>
      <trkpt lat="44.93281" lon="6.73937">
        <ele>1807.9</ele>
        <time>2019-11-20T08:05:38Z</time>
      </trkpt>
      <trkpt lat="44.93271" lon="6.7393">
        <ele>1808.38</ele>
        <time>2019-11-20T08:05:52Z</time>
      </trkpt>
      <trkpt lat="44.93262" lon="6.73921">
        <ele>1808.86</ele>
        <time>2019-11-20T08:06:07Z</time>
      </trkpt>
      <trkpt lat="44.93253" lon="6.7391">
        <ele>1809.82</ele>
        <time>2019-11-20T08:06:23Z</time>
      </trkpt>
      <trkpt lat="44.93243" lon="6.73906">
        <ele>1810.78</ele>
        <time>2019-11-20T08:06:39Z</time>
      </trkpt>
      <trkpt lat="44.93242" lon="6.73899">
        <ele>1811.26</ele>
        <time>2019-11-20T08:07:00Z</time>
      </trkpt>
      <trkpt lat="44.93235" lon="6.73895">
        <ele>1811.74</ele>
        <time>2019-11-20T08:07:18Z</time>
      </trkpt>
      <trkpt lat="44.93224" lon="6.73885">
        <ele>1812.22</ele>
        <time>2019-11-20T08:07:33Z</time>
      </trkpt>
      <trkpt lat="44.93213" lon="6.73878">
        <ele>1813.66</ele>
        <time>2019-11-20T08:07:47Z</time>
      </trkpt>
      <trkpt lat="44.93202" lon="6.73871">
        <ele>1814.63</ele>
        <time>2019-11-20T08:08:02Z</time>
      </trkpt>
      <trkpt lat="44.93194" lon="6.73863">
        <ele>1816.07</ele>
        <time>2019-11-20T08:08:16Z</time>
      </trkpt>
      <trkpt lat="44.93186" lon="6.73855">
        <ele>1817.03</ele>
        <time>2019-11-20T08:08:31Z</time>
      </trkpt>
      <trkpt lat="44.93181" lon="6.7385">
        <ele>1818.47</ele>
        <time>2019-11-20T08:08:43Z</time>
      </trkpt>
      <trkpt lat="44.93171" lon="6.73839">
        <ele>1819.43</ele>
        <time>2019-11-20T08:08:59Z</time>
      </trkpt>
      <trkpt lat="44.93163" lon="6.73824">
        <ele>1819.91</ele>
        <time>2019-11-20T08:09:15Z</time>
      </trkpt>
      <trkpt lat="44.93157" lon="6.73812">
        <ele>1820.39</ele>
        <time>2019-11-20T08:09:29Z</time>
      </trkpt>
      <trkpt lat="44.93147" lon="6.738">
        <ele>1821.35</ele>
        <time>2019-11-20T08:09:46Z</time>
      </trkpt>
      <trkpt lat="44.93141" lon="6.73787">
        <ele>1821.35</ele>
        <time>2019-11-20T08:09:59Z</time>
      </trkpt>
      <trkpt lat="44.9314" lon="6.73786">
        <ele>1821.35</ele>
        <time>2019-11-20T08:10:00Z</time>
      </trkpt>
      <trkpt lat="44.93135" lon="6.73773">
        <ele>1821.35</ele>
        <time>2019-11-20T08:10:12Z</time>
      </trkpt>
      <trkpt lat="44.93128" lon="6.73761">
        <ele>1821.35</ele>
        <time>2019-11-20T08:10:28Z</time>
      </trkpt>
      <trkpt lat="44.93121" lon="6.73748">
        <ele>1821.84</ele>
        <time>2019-11-20T08:10:43Z</time>
      </trkpt>
      <trkpt lat="44.93115" lon="6.73737">
        <ele>1822.8</ele>
        <time>2019-11-20T08:10:56Z</time>
      </trkpt>
      <trkpt lat="44.9311" lon="6.73725">
        <ele>1823.28</ele>
        <time>2019-11-20T08:11:09Z</time>
      </trkpt>
      <trkpt lat="44.93105" lon="6.73713">
        <ele>1823.76</ele>
        <time>2019-11-20T08:11:22Z</time>
      </trkpt>
      <trkpt lat="44.93099" lon="6.73699">
        <ele>1824.24</ele>
        <time>2019-11-20T08:11:37Z</time>
      </trkpt>
      <trkpt lat="44.93099" lon="6.73694">
        <ele>1824.24</ele>
        <time>2019-11-20T08:11:43Z</time>
      </trkpt>
      <trkpt lat="44.93093" lon="6.7369">
        <ele>1824.72</ele>
        <time>2019-11-20T08:11:58Z</time>
      </trkpt>
      <trkpt lat="44.93092" lon="6.73687">
        <ele>1824.72</ele>
        <time>2019-11-20T08:12:16Z</time>
      </trkpt>
      <trkpt lat="44.93082" lon="6.7368">
        <ele>1825.2</ele>
        <time>2019-11-20T08:12:33Z</time>
      </trkpt>
      <trkpt lat="44.93073" lon="6.73685">
        <ele>1826.16</ele>
        <time>2019-11-20T08:12:45Z</time>
      </trkpt>
      <trkpt lat="44.9306" lon="6.73682">
        <ele>1827.12</ele>
        <time>2019-11-20T08:13:00Z</time>
      </trkpt>
      <trkpt lat="44.93049" lon="6.73683">
        <ele>1827.6</ele>
        <time>2019-11-20T08:13:15Z</time>
      </trkpt>
      <trkpt lat="44.93043" lon="6.73687">
        <ele>1828.56</ele>
        <time>2019-11-20T08:13:26Z</time>
      </trkpt>
      <trkpt lat="44.93029" lon="6.73687">
        <ele>1830.01</ele>
        <time>2019-11-20T08:13:42Z</time>
      </trkpt>
      <trkpt lat="44.93022" lon="6.73681">
        <ele>1831.45</ele>
        <time>2019-11-20T08:13:56Z</time>
      </trkpt>
      <trkpt lat="44.93016" lon="6.73674">
        <ele>1832.41</ele>
        <time>2019-11-20T08:14:08Z</time>
      </trkpt>
      <trkpt lat="44.93004" lon="6.73661">
        <ele>1833.37</ele>
        <time>2019-11-20T08:14:25Z</time>
      </trkpt>
      <trkpt lat="44.92995" lon="6.73648">
        <ele>1834.81</ele>
        <time>2019-11-20T08:14:41Z</time>
      </trkpt>
      <trkpt lat="44.92985" lon="6.73634">
        <ele>1836.26</ele>
        <time>2019-11-20T08:14:58Z</time>
      </trkpt>
      <trkpt lat="44.92976" lon="6.73622">
        <ele>1838.18</ele>
        <time>2019-11-20T08:15:14Z</time>
      </trkpt>
      <trkpt lat="44.92967" lon="6.73612">
        <ele>1839.62</ele>
        <time>2019-11-20T08:15:30Z</time>
      </trkpt>
      <trkpt lat="44.92958" lon="6.73601">
        <ele>1841.06</ele>
        <time>2019-11-20T08:15:47Z</time>
      </trkpt>
      <trkpt lat="44.92947" lon="6.73589">
        <ele>1842.98</ele>
        <time>2019-11-20T08:16:05Z</time>
      </trkpt>
      <trkpt lat="44.92944" lon="6.73584">
        <ele>1843.47</ele>
        <time>2019-11-20T08:16:11Z</time>
      </trkpt>
      <trkpt lat="44.92933" lon="6.73573">
        <ele>1844.91</ele>
        <time>2019-11-20T08:16:27Z</time>
      </trkpt>
      <trkpt lat="44.92928" lon="6.73567">
        <ele>1845.87</ele>
        <time>2019-11-20T08:16:36Z</time>
      </trkpt>
      <trkpt lat="44.92917" lon="6.73556">
        <ele>1847.79</ele>
        <time>2019-11-20T08:16:53Z</time>
      </trkpt>
      <trkpt lat="44.92905" lon="6.73546">
        <ele>1849.23</ele>
        <time>2019-11-20T08:17:11Z</time>
      </trkpt>
      <trkpt lat="44.92894" lon="6.73535">
        <ele>1850.19</ele>
        <time>2019-11-20T08:17:28Z</time>
      </trkpt>
      <trkpt lat="44.92884" lon="6.73525">
        <ele>1851.16</ele>
        <time>2019-11-20T08:17:43Z</time>
      </trkpt>
      <trkpt lat="44.92873" lon="6.73516">
        <ele>1852.6</ele>
        <time>2019-11-20T08:18:00Z</time>
      </trkpt>
      <trkpt lat="44.92864" lon="6.73506">
        <ele>1853.56</ele>
        <time>2019-11-20T08:18:18Z</time>
      </trkpt>
      <trkpt lat="44.92856" lon="6.73497">
        <ele>1854.52</ele>
        <time>2019-11-20T08:18:32Z</time>
      </trkpt>
      <trkpt lat="44.92849" lon="6.73486">
        <ele>1855.96</ele>
        <time>2019-11-20T08:18:49Z</time>
      </trkpt>
      <trkpt lat="44.92845" lon="6.73475">
        <ele>1857.4</ele>
        <time>2019-11-20T08:19:03Z</time>
      </trkpt>
      <trkpt lat="44.92839" lon="6.73465">
        <ele>1859.33</ele>
        <time>2019-11-20T08:19:20Z</time>
      </trkpt>
      <trkpt lat="44.92834" lon="6.73459">
        <ele>1861.25</ele>
        <time>2019-11-20T08:19:36Z</time>
      </trkpt>
      <trkpt lat="44.92828" lon="6.73451">
        <ele>1863.17</ele>
        <time>2019-11-20T08:19:53Z</time>
      </trkpt>
      <trkpt lat="44.9282" lon="6.73443">
        <ele>1865.09</ele>
        <time>2019-11-20T08:20:12Z</time>
      </trkpt>
      <trkpt lat="44.9281" lon="6.73433">
        <ele>1866.06</ele>
        <time>2019-11-20T08:20:29Z</time>
      </trkpt>
      <trkpt lat="44.92804" lon="6.73427">
        <ele>1867.5</ele>
        <time>2019-11-20T08:20:43Z</time>
      </trkpt>
      <trkpt lat="44.92797" lon="6.7342">
        <ele>1869.42</ele>
        <time>2019-11-20T08:21:01Z</time>
      </trkpt>
      <trkpt lat="44.92786" lon="6.73411">
        <ele>1871.34</ele>
        <time>2019-11-20T08:21:19Z</time>
      </trkpt>
      <trkpt lat="44.92781" lon="6.73404">
        <ele>1873.27</ele>
        <time>2019-11-20T08:21:37Z</time>
      </trkpt>
      <trkpt lat="44.92775" lon="6.73399">
        <ele>1875.19</ele>
        <time>2019-11-20T08:21:54Z</time>
      </trkpt>
      <trkpt lat="44.92765" lon="6.73394">
        <ele>1877.11</ele>
        <time>2019-11-20T08:22:12Z</time>
      </trkpt>
      <trkpt lat="44.92758" lon="6.73391">
        <ele>1879.03</ele>
        <time>2019-11-20T08:22:27Z</time>
      </trkpt>
      <trkpt lat="44.92752" lon="6.73387">
        <ele>1881.44</ele>
        <time>2019-11-20T08:22:44Z</time>
      </trkpt>
      <trkpt lat="44.92745" lon="6.73383">
        <ele>1883.36</ele>
        <time>2019-11-20T08:23:01Z</time>
      </trkpt>
      <trkpt lat="44.92737" lon="6.73379">
        <ele>1885.28</ele>
        <time>2019-11-20T08:23:18Z</time>
      </trkpt>
      <trkpt lat="44.92731" lon="6.73379">
        <ele>1886.24</ele>
        <time>2019-11-20T08:23:33Z</time>
      </trkpt>
      <trkpt lat="44.92719" lon="6.73375">
        <ele>1885.76</ele>
        <time>2019-11-20T08:23:50Z</time>
      </trkpt>
      <trkpt lat="44.92708" lon="6.73371">
        <ele>1885.76</ele>
        <time>2019-11-20T08:24:05Z</time>
      </trkpt>
      <trkpt lat="44.92698" lon="6.73368">
        <ele>1886.24</ele>
        <time>2019-11-20T08:24:17Z</time>
      </trkpt>
      <trkpt lat="44.92687" lon="6.73365">
        <ele>1887.69</ele>
        <time>2019-11-20T08:24:34Z</time>
      </trkpt>
      <trkpt lat="44.92677" lon="6.73362">
        <ele>1889.13</ele>
        <time>2019-11-20T08:24:49Z</time>
      </trkpt>
      <trkpt lat="44.92669" lon="6.73361">
        <ele>1890.57</ele>
        <time>2019-11-20T08:25:03Z</time>
      </trkpt>
      <trkpt lat="44.92659" lon="6.73359">
        <ele>1891.53</ele>
        <time>2019-11-20T08:25:16Z</time>
      </trkpt>
      <trkpt lat="44.92647" lon="6.73355">
        <ele>1893.45</ele>
        <time>2019-11-20T08:25:35Z</time>
      </trkpt>
      <trkpt lat="44.92641" lon="6.73351">
        <ele>1894.9</ele>
        <time>2019-11-20T08:25:48Z</time>
      </trkpt>
      <trkpt lat="44.92634" lon="6.73346">
        <ele>1896.82</ele>
        <time>2019-11-20T08:26:04Z</time>
      </trkpt>
      <trkpt lat="44.92624" lon="6.73336">
        <ele>1898.74</ele>
        <time>2019-11-20T08:26:22Z</time>
      </trkpt>
      <trkpt lat="44.92615" lon="6.73328">
        <ele>1900.18</ele>
        <time>2019-11-20T08:26:38Z</time>
      </trkpt>
      <trkpt lat="44.92606" lon="6.73321">
        <ele>1901.14</ele>
        <time>2019-11-20T08:26:53Z</time>
      </trkpt>
      <trkpt lat="44.92598" lon="6.73315">
        <ele>1903.07</ele>
        <time>2019-11-20T08:27:09Z</time>
      </trkpt>
      <trkpt lat="44.92591" lon="6.73308">
        <ele>1903.55</ele>
        <time>2019-11-20T08:27:23Z</time>
      </trkpt>
      <trkpt lat="44.92583" lon="6.73298">
        <ele>1904.99</ele>
        <time>2019-11-20T08:27:40Z</time>
      </trkpt>
      <trkpt lat="44.92574" lon="6.73288">
        <ele>1906.43</ele>
        <time>2019-11-20T08:27:58Z</time>
      </trkpt>
      <trkpt lat="44.92565" lon="6.73277">
        <ele>1907.87</ele>
        <time>2019-11-20T08:28:15Z</time>
      </trkpt>
      <trkpt lat="44.92565" lon="6.73275">
        <ele>1907.87</ele>
        <time>2019-11-20T08:28:17Z</time>
      </trkpt>
      <trkpt lat="44.92556" lon="6.73266">
        <ele>1908.83</ele>
        <time>2019-11-20T08:28:33Z</time>
      </trkpt>
      <trkpt lat="44.92548" lon="6.73256">
        <ele>1909.8</ele>
        <time>2019-11-20T08:28:49Z</time>
      </trkpt>
      <trkpt lat="44.92541" lon="6.73244">
        <ele>1910.76</ele>
        <time>2019-11-20T08:29:05Z</time>
      </trkpt>
      <trkpt lat="44.92533" lon="6.73232">
        <ele>1911.72</ele>
        <time>2019-11-20T08:29:22Z</time>
      </trkpt>
      <trkpt lat="44.92527" lon="6.73222">
        <ele>1913.16</ele>
        <time>2019-11-20T08:29:37Z</time>
      </trkpt>
      <trkpt lat="44.92521" lon="6.73213">
        <ele>1914.6</ele>
        <time>2019-11-20T08:29:52Z</time>
      </trkpt>
      <trkpt lat="44.92511" lon="6.73201">
        <ele>1915.08</ele>
        <time>2019-11-20T08:30:09Z</time>
      </trkpt>
      <trkpt lat="44.92505" lon="6.73192">
        <ele>1916.53</ele>
        <time>2019-11-20T08:30:24Z</time>
      </trkpt>
      <trkpt lat="44.925" lon="6.73182">
        <ele>1918.45</ele>
        <time>2019-11-20T08:30:39Z</time>
      </trkpt>
      <trkpt lat="44.92494" lon="6.73173">
        <ele>1919.41</ele>
        <time>2019-11-20T08:30:53Z</time>
      </trkpt>
      <trkpt lat="44.92487" lon="6.73162">
        <ele>1921.33</ele>
        <time>2019-11-20T08:31:11Z</time>
      </trkpt>
      <trkpt lat="44.92481" lon="6.73154">
        <ele>1923.25</ele>
        <time>2019-11-20T08:31:27Z</time>
      </trkpt>
      <trkpt lat="44.92473" lon="6.73145">
        <ele>1925.18</ele>
        <time>2019-11-20T08:31:47Z</time>
      </trkpt>
      <trkpt lat="44.92467" lon="6.73137">
        <ele>1926.62</ele>
        <time>2019-11-20T08:32:04Z</time>
      </trkpt>
      <trkpt lat="44.92462" lon="6.73129">
        <ele>1929.02</ele>
        <time>2019-11-20T08:32:21Z</time>
      </trkpt>
      <trkpt lat="44.92455" lon="6.73121">
        <ele>1930.95</ele>
        <time>2019-11-20T08:32:36Z</time>
      </trkpt>
      <trkpt lat="44.92449" lon="6.73111">
        <ele>1931.91</ele>
        <time>2019-11-20T08:32:51Z</time>
      </trkpt>
      <trkpt lat="44.92443" lon="6.73104">
        <ele>1932.87</ele>
        <time>2019-11-20T08:33:07Z</time>
      </trkpt>
      <trkpt lat="44.92435" lon="6.73094">
        <ele>1935.27</ele>
        <time>2019-11-20T08:33:28Z</time>
      </trkpt>
      <trkpt lat="44.92429" lon="6.73087">
        <ele>1936.71</ele>
        <time>2019-11-20T08:33:42Z</time>
      </trkpt>
      <trkpt lat="44.92423" lon="6.7308">
        <ele>1939.12</ele>
        <time>2019-11-20T08:34:01Z</time>
      </trkpt>
      <trkpt lat="44.92417" lon="6.73074">
        <ele>1941.04</ele>
        <time>2019-11-20T08:34:18Z</time>
      </trkpt>
      <trkpt lat="44.92412" lon="6.73068">
        <ele>1942.48</ele>
        <time>2019-11-20T08:34:33Z</time>
      </trkpt>
      <trkpt lat="44.92405" lon="6.73058">
        <ele>1944.4</ele>
        <time>2019-11-20T08:34:51Z</time>
      </trkpt>
      <trkpt lat="44.92398" lon="6.73052">
        <ele>1945.85</ele>
        <time>2019-11-20T08:35:06Z</time>
      </trkpt>
      <trkpt lat="44.92392" lon="6.73045">
        <ele>1947.77</ele>
        <time>2019-11-20T08:35:25Z</time>
      </trkpt>
      <trkpt lat="44.92382" lon="6.73035">
        <ele>1949.69</ele>
        <time>2019-11-20T08:35:44Z</time>
      </trkpt>
      <trkpt lat="44.92373" lon="6.73027">
        <ele>1951.61</ele>
        <time>2019-11-20T08:36:04Z</time>
      </trkpt>
      <trkpt lat="44.92368" lon="6.73021">
        <ele>1953.06</ele>
        <time>2019-11-20T08:36:21Z</time>
      </trkpt>
      <trkpt lat="44.92363" lon="6.73012">
        <ele>1954.5</ele>
        <time>2019-11-20T08:36:37Z</time>
      </trkpt>
      <trkpt lat="44.92358" lon="6.73006">
        <ele>1955.94</ele>
        <time>2019-11-20T08:36:53Z</time>
      </trkpt>
      <trkpt lat="44.92353" lon="6.72997">
        <ele>1957.86</ele>
        <time>2019-11-20T08:37:11Z</time>
      </trkpt>
      <trkpt lat="44.92349" lon="6.7299">
        <ele>1959.78</ele>
        <time>2019-11-20T08:37:26Z</time>
      </trkpt>
      <trkpt lat="44.92347" lon="6.72983">
        <ele>1961.71</ele>
        <time>2019-11-20T08:37:42Z</time>
      </trkpt>
      <trkpt lat="44.92344" lon="6.72977">
        <ele>1963.63</ele>
        <time>2019-11-20T08:37:57Z</time>
      </trkpt>
      <trkpt lat="44.92341" lon="6.72971">
        <ele>1965.07</ele>
        <time>2019-11-20T08:38:13Z</time>
      </trkpt>
      <trkpt lat="44.92338" lon="6.72966">
        <ele>1966.51</ele>
        <time>2019-11-20T08:38:27Z</time>
      </trkpt>
      <trkpt lat="44.92334" lon="6.72959">
        <ele>1968.44</ele>
        <time>2019-11-20T08:38:43Z</time>
      </trkpt>
      <trkpt lat="44.92332" lon="6.72956">
        <ele>1969.4</ele>
        <time>2019-11-20T08:38:55Z</time>
      </trkpt>
      <trkpt lat="44.9233" lon="6.72951">
        <ele>1970.84</ele>
        <time>2019-11-20T08:39:09Z</time>
      </trkpt>
      <trkpt lat="44.9233" lon="6.72946">
        <ele>1973.24</ele>
        <time>2019-11-20T08:39:23Z</time>
      </trkpt>
      <trkpt lat="44.92325" lon="6.72938">
        <ele>1974.69</ele>
        <time>2019-11-20T08:39:39Z</time>
      </trkpt>
      <trkpt lat="44.92323" lon="6.72932">
        <ele>1976.61</ele>
        <time>2019-11-20T08:39:55Z</time>
      </trkpt>
      <trkpt lat="44.92321" lon="6.72923">
        <ele>1978.53</ele>
        <time>2019-11-20T08:40:12Z</time>
      </trkpt>
      <trkpt lat="44.92316" lon="6.72915">
        <ele>1980.45</ele>
        <time>2019-11-20T08:40:30Z</time>
      </trkpt>
      <trkpt lat="44.92312" lon="6.72907">
        <ele>1982.38</ele>
        <time>2019-11-20T08:40:47Z</time>
      </trkpt>
      <trkpt lat="44.92309" lon="6.72901">
        <ele>1984.3</ele>
        <time>2019-11-20T08:41:01Z</time>
      </trkpt>
      <trkpt lat="44.92306" lon="6.72893">
        <ele>1985.74</ele>
        <time>2019-11-20T08:41:18Z</time>
      </trkpt>
      <trkpt lat="44.923" lon="6.72885">
        <ele>1987.66</ele>
        <time>2019-11-20T08:41:34Z</time>
      </trkpt>
      <trkpt lat="44.92295" lon="6.7288">
        <ele>1988.62</ele>
        <time>2019-11-20T08:41:47Z</time>
      </trkpt>
      <trkpt lat="44.9229" lon="6.72872">
        <ele>1990.07</ele>
        <time>2019-11-20T08:42:04Z</time>
      </trkpt>
      <trkpt lat="44.92283" lon="6.72864">
        <ele>1991.99</ele>
        <time>2019-11-20T08:42:22Z</time>
      </trkpt>
      <trkpt lat="44.92274" lon="6.72854">
        <ele>1992.95</ele>
        <time>2019-11-20T08:42:38Z</time>
      </trkpt>
      <trkpt lat="44.92265" lon="6.72847">
        <ele>1993.91</ele>
        <time>2019-11-20T08:42:53Z</time>
      </trkpt>
      <trkpt lat="44.92254" lon="6.72838">
        <ele>1994.39</ele>
        <time>2019-11-20T08:43:09Z</time>
      </trkpt>
      <trkpt lat="44.92245" lon="6.72829">
        <ele>1995.35</ele>
        <time>2019-11-20T08:43:25Z</time>
      </trkpt>
      <trkpt lat="44.92238" lon="6.72819">
        <ele>1995.83</ele>
        <time>2019-11-20T08:43:39Z</time>
      </trkpt>
      <trkpt lat="44.9223" lon="6.7281">
        <ele>1997.76</ele>
        <time>2019-11-20T08:43:58Z</time>
      </trkpt>
      <trkpt lat="44.92225" lon="6.72802">
        <ele>1999.68</ele>
        <time>2019-11-20T08:44:17Z</time>
      </trkpt>
      <trkpt lat="44.92216" lon="6.72788">
        <ele>2002.08</ele>
        <time>2019-11-20T08:44:38Z</time>
      </trkpt>
      <trkpt lat="44.92208" lon="6.7278">
        <ele>2003.04</ele>
        <time>2019-11-20T08:44:53Z</time>
      </trkpt>
      <trkpt lat="44.92199" lon="6.72772">
        <ele>2003.52</ele>
        <time>2019-11-20T08:45:08Z</time>
      </trkpt>
      <trkpt lat="44.92192" lon="6.72761">
        <ele>2004.49</ele>
        <time>2019-11-20T08:45:23Z</time>
      </trkpt>
      <trkpt lat="44.92185" lon="6.72753">
        <ele>2005.45</ele>
        <time>2019-11-20T08:45:39Z</time>
      </trkpt>
      <trkpt lat="44.9218" lon="6.72745">
        <ele>2006.89</ele>
        <time>2019-11-20T08:45:53Z</time>
      </trkpt>
      <trkpt lat="44.92175" lon="6.72736">
        <ele>2008.81</ele>
        <time>2019-11-20T08:46:09Z</time>
      </trkpt>
      <trkpt lat="44.92169" lon="6.72725">
        <ele>2010.73</ele>
        <time>2019-11-20T08:46:30Z</time>
      </trkpt>
      <trkpt lat="44.92161" lon="6.72715">
        <ele>2012.66</ele>
        <time>2019-11-20T08:46:49Z</time>
      </trkpt>
      <trkpt lat="44.92155" lon="6.72705">
        <ele>2013.62</ele>
        <time>2019-11-20T08:47:05Z</time>
      </trkpt>
      <trkpt lat="44.92149" lon="6.72694">
        <ele>2015.06</ele>
        <time>2019-11-20T08:47:22Z</time>
      </trkpt>
      <trkpt lat="44.92143" lon="6.72685">
        <ele>2016.5</ele>
        <time>2019-11-20T08:47:38Z</time>
      </trkpt>
      <trkpt lat="44.92137" lon="6.72675">
        <ele>2017.94</ele>
        <time>2019-11-20T08:47:55Z</time>
      </trkpt>
      <trkpt lat="44.9213" lon="6.72665">
        <ele>2019.39</ele>
        <time>2019-11-20T08:48:08Z</time>
      </trkpt>
      <trkpt lat="44.92122" lon="6.72656">
        <ele>2020.35</ele>
        <time>2019-11-20T08:48:26Z</time>
      </trkpt>
      <trkpt lat="44.92116" lon="6.72647">
        <ele>2021.31</ele>
        <time>2019-11-20T08:48:41Z</time>
      </trkpt>
      <trkpt lat="44.9211" lon="6.72639">
        <ele>2022.75</ele>
        <time>2019-11-20T08:48:57Z</time>
      </trkpt>
      <trkpt lat="44.92101" lon="6.72631">
        <ele>2023.71</ele>
        <time>2019-11-20T08:49:13Z</time>
      </trkpt>
      <trkpt lat="44.9209" lon="6.72625">
        <ele>2025.15</ele>
        <time>2019-11-20T08:49:30Z</time>
      </trkpt>
      <trkpt lat="44.92083" lon="6.72621">
        <ele>2026.12</ele>
        <time>2019-11-20T08:49:46Z</time>
      </trkpt>
      <trkpt lat="44.92077" lon="6.72617">
        <ele>2028.04</ele>
        <time>2019-11-20T08:50:02Z</time>
      </trkpt>
      <trkpt lat="44.92074" lon="6.72621">
        <ele>2028.52</ele>
        <time>2019-11-20T08:50:16Z</time>
      </trkpt>
      <trkpt lat="44.92076" lon="6.72619">
        <ele>2027.56</ele>
        <time>2019-11-20T08:50:33Z</time>
      </trkpt>
      <trkpt lat="44.92078" lon="6.72622">
        <ele>2027.08</ele>
        <time>2019-11-20T08:51:08Z</time>
      </trkpt>
      <trkpt lat="44.92076" lon="6.72621">
        <ele>2027.08</ele>
        <time>2019-11-20T08:51:45Z</time>
      </trkpt>
      <trkpt lat="44.92076" lon="6.72619">
        <ele>2027.56</ele>
        <time>2019-11-20T08:52:24Z</time>
      </trkpt>
      <trkpt lat="44.92076" lon="6.72623">
        <ele>2027.56</ele>
        <time>2019-11-20T08:53:07Z</time>
      </trkpt>
      <trkpt lat="44.92076" lon="6.72627">
        <ele>2027.56</ele>
        <time>2019-11-20T08:53:35Z</time>
      </trkpt>
      <trkpt lat="44.92078" lon="6.72627">
        <ele>2027.56</ele>
        <time>2019-11-20T08:54:03Z</time>
      </trkpt>
      <trkpt lat="44.92077" lon="6.72625">
        <ele>2027.56</ele>
        <time>2019-11-20T08:54:33Z</time>
      </trkpt>
      <trkpt lat="44.92074" lon="6.72622">
        <ele>2029</ele>
        <time>2019-11-20T08:54:50Z</time>
      </trkpt>
      <trkpt lat="44.92074" lon="6.72621">
        <ele>2029</ele>
        <time>2019-11-20T08:55:10Z</time>
      </trkpt>
      <trkpt lat="44.92073" lon="6.72619">
        <ele>2029</ele>
        <time>2019-11-20T08:55:26Z</time>
      </trkpt>
      <trkpt lat="44.92074" lon="6.72628">
        <ele>2029</ele>
        <time>2019-11-20T08:55:37Z</time>
      </trkpt>
      <trkpt lat="44.92073" lon="6.72632">
        <ele>2029</ele>
        <time>2019-11-20T08:56:07Z</time>
      </trkpt>
      <trkpt lat="44.92072" lon="6.72627">
        <ele>2029</ele>
        <time>2019-11-20T08:56:14Z</time>
      </trkpt>
      <trkpt lat="44.92066" lon="6.72626">
        <ele>2030.44</ele>
        <time>2019-11-20T08:56:27Z</time>
      </trkpt>
      <trkpt lat="44.92059" lon="6.72632">
        <ele>2032.36</ele>
        <time>2019-11-20T08:56:41Z</time>
      </trkpt>
      <trkpt lat="44.92053" lon="6.72639">
        <ele>2033.81</ele>
        <time>2019-11-20T08:56:56Z</time>
      </trkpt>
      <trkpt lat="44.92048" lon="6.72643">
        <ele>2035.25</ele>
        <time>2019-11-20T08:57:08Z</time>
      </trkpt>
      <trkpt lat="44.92043" lon="6.72646">
        <ele>2037.17</ele>
        <time>2019-11-20T08:57:23Z</time>
      </trkpt>
      <trkpt lat="44.92039" lon="6.72653">
        <ele>2039.09</ele>
        <time>2019-11-20T08:57:40Z</time>
      </trkpt>
      <trkpt lat="44.92034" lon="6.72658">
        <ele>2041.02</ele>
        <time>2019-11-20T08:57:55Z</time>
      </trkpt>
      <trkpt lat="44.92029" lon="6.72662">
        <ele>2042.46</ele>
        <time>2019-11-20T08:58:10Z</time>
      </trkpt>
      <trkpt lat="44.92025" lon="6.72667">
        <ele>2044.38</ele>
        <time>2019-11-20T08:58:25Z</time>
      </trkpt>
      <trkpt lat="44.92022" lon="6.72668">
        <ele>2045.82</ele>
        <time>2019-11-20T08:58:39Z</time>
      </trkpt>
      <trkpt lat="44.92018" lon="6.72671">
        <ele>2046.78</ele>
        <time>2019-11-20T08:58:53Z</time>
      </trkpt>
      <trkpt lat="44.92015" lon="6.72677">
        <ele>2047.75</ele>
        <time>2019-11-20T08:59:07Z</time>
      </trkpt>
      <trkpt lat="44.92012" lon="6.7268">
        <ele>2048.71</ele>
        <time>2019-11-20T08:59:21Z</time>
      </trkpt>
      <trkpt lat="44.92007" lon="6.72686">
        <ele>2049.67</ele>
        <time>2019-11-20T08:59:36Z</time>
      </trkpt>
      <trkpt lat="44.92002" lon="6.72691">
        <ele>2050.63</ele>
        <time>2019-11-20T08:59:50Z</time>
      </trkpt>
      <trkpt lat="44.91998" lon="6.72694">
        <ele>2052.07</ele>
        <time>2019-11-20T09:00:04Z</time>
      </trkpt>
      <trkpt lat="44.91996" lon="6.72693">
        <ele>2052.07</ele>
        <time>2019-11-20T09:00:20Z</time>
      </trkpt>
      <trkpt lat="44.91996" lon="6.72689">
        <ele>2052.07</ele>
        <time>2019-11-20T09:00:49Z</time>
      </trkpt>
      <trkpt lat="44.91994" lon="6.72693">
        <ele>2052.55</ele>
        <time>2019-11-20T09:01:01Z</time>
      </trkpt>
      <trkpt lat="44.91991" lon="6.72701">
        <ele>2053.99</ele>
        <time>2019-11-20T09:01:14Z</time>
      </trkpt>
      <trkpt lat="44.91986" lon="6.72705">
        <ele>2055.92</ele>
        <time>2019-11-20T09:01:27Z</time>
      </trkpt>
      <trkpt lat="44.91979" lon="6.72711">
        <ele>2058.32</ele>
        <time>2019-11-20T09:01:46Z</time>
      </trkpt>
      <trkpt lat="44.91972" lon="6.72716">
        <ele>2060.24</ele>
        <time>2019-11-20T09:02:03Z</time>
      </trkpt>
      <trkpt lat="44.91967" lon="6.72719">
        <ele>2061.68</ele>
        <time>2019-11-20T09:02:17Z</time>
      </trkpt>
      <trkpt lat="44.9196" lon="6.72727">
        <ele>2063.61</ele>
        <time>2019-11-20T09:02:33Z</time>
      </trkpt>
      <trkpt lat="44.91954" lon="6.72732">
        <ele>2064.57</ele>
        <time>2019-11-20T09:02:47Z</time>
      </trkpt>
      <trkpt lat="44.91948" lon="6.72735">
        <ele>2065.53</ele>
        <time>2019-11-20T09:03:00Z</time>
      </trkpt>
      <trkpt lat="44.91943" lon="6.7274">
        <ele>2066.01</ele>
        <time>2019-11-20T09:03:13Z</time>
      </trkpt>
      <trkpt lat="44.91936" lon="6.72745">
        <ele>2067.45</ele>
        <time>2019-11-20T09:03:27Z</time>
      </trkpt>
      <trkpt lat="44.91933" lon="6.7275">
        <ele>2068.41</ele>
        <time>2019-11-20T09:03:39Z</time>
      </trkpt>
      <trkpt lat="44.91926" lon="6.72756">
        <ele>2069.86</ele>
        <time>2019-11-20T09:03:55Z</time>
      </trkpt>
      <trkpt lat="44.91922" lon="6.72764">
        <ele>2071.3</ele>
        <time>2019-11-20T09:04:10Z</time>
      </trkpt>
      <trkpt lat="44.91916" lon="6.72769">
        <ele>2072.74</ele>
        <time>2019-11-20T09:04:25Z</time>
      </trkpt>
      <trkpt lat="44.91912" lon="6.72777">
        <ele>2073.7</ele>
        <time>2019-11-20T09:04:40Z</time>
      </trkpt>
      <trkpt lat="44.91909" lon="6.72783">
        <ele>2075.62</ele>
        <time>2019-11-20T09:04:55Z</time>
      </trkpt>
      <trkpt lat="44.91908" lon="6.72786">
        <ele>2077.07</ele>
        <time>2019-11-20T09:05:09Z</time>
      </trkpt>
      <trkpt lat="44.91904" lon="6.72786">
        <ele>2078.99</ele>
        <time>2019-11-20T09:05:23Z</time>
      </trkpt>
      <trkpt lat="44.919" lon="6.72789">
        <ele>2079.95</ele>
        <time>2019-11-20T09:05:36Z</time>
      </trkpt>
      <trkpt lat="44.91897" lon="6.72791">
        <ele>2081.39</ele>
        <time>2019-11-20T09:05:50Z</time>
      </trkpt>
      <trkpt lat="44.91893" lon="6.72791">
        <ele>2082.35</ele>
        <time>2019-11-20T09:06:03Z</time>
      </trkpt>
      <trkpt lat="44.9189" lon="6.72793">
        <ele>2083.79</ele>
        <time>2019-11-20T09:06:18Z</time>
      </trkpt>
      <trkpt lat="44.91885" lon="6.72793">
        <ele>2085.24</ele>
        <time>2019-11-20T09:06:32Z</time>
      </trkpt>
      <trkpt lat="44.91879" lon="6.72794">
        <ele>2086.2</ele>
        <time>2019-11-20T09:06:46Z</time>
      </trkpt>
      <trkpt lat="44.91874" lon="6.72798">
        <ele>2087.64</ele>
        <time>2019-11-20T09:07:00Z</time>
      </trkpt>
      <trkpt lat="44.91872" lon="6.72805">
        <ele>2089.08</ele>
        <time>2019-11-20T09:07:14Z</time>
      </trkpt>
      <trkpt lat="44.91876" lon="6.72811">
        <ele>2090.52</ele>
        <time>2019-11-20T09:07:29Z</time>
      </trkpt>
      <trkpt lat="44.91881" lon="6.72817">
        <ele>2091.97</ele>
        <time>2019-11-20T09:07:46Z</time>
      </trkpt>
      <trkpt lat="44.91883" lon="6.72817">
        <ele>2093.41</ele>
        <time>2019-11-20T09:08:01Z</time>
      </trkpt>
      <trkpt lat="44.91881" lon="6.72818">
        <ele>2093.89</ele>
        <time>2019-11-20T09:08:23Z</time>
      </trkpt>
      <trkpt lat="44.91879" lon="6.72822">
        <ele>2095.33</ele>
        <time>2019-11-20T09:08:35Z</time>
      </trkpt>
      <trkpt lat="44.91872" lon="6.72825">
        <ele>2096.77</ele>
        <time>2019-11-20T09:08:51Z</time>
      </trkpt>
      <trkpt lat="44.91868" lon="6.72828">
        <ele>2097.73</ele>
        <time>2019-11-20T09:09:05Z</time>
      </trkpt>
      <trkpt lat="44.91865" lon="6.72833">
        <ele>2098.21</ele>
        <time>2019-11-20T09:09:23Z</time>
      </trkpt>
      <trkpt lat="44.91866" lon="6.72835">
        <ele>2098.21</ele>
        <time>2019-11-20T09:09:52Z</time>
      </trkpt>
      <trkpt lat="44.91865" lon="6.72833">
        <ele>2098.21</ele>
        <time>2019-11-20T09:10:20Z</time>
      </trkpt>
      <trkpt lat="44.91867" lon="6.72839">
        <ele>2099.18</ele>
        <time>2019-11-20T09:10:42Z</time>
      </trkpt>
      <trkpt lat="44.9187" lon="6.72848">
        <ele>2101.1</ele>
        <time>2019-11-20T09:10:57Z</time>
      </trkpt>
      <trkpt lat="44.91875" lon="6.72856">
        <ele>2103.02</ele>
        <time>2019-11-20T09:11:13Z</time>
      </trkpt>
      <trkpt lat="44.91884" lon="6.72859">
        <ele>2103.98</ele>
        <time>2019-11-20T09:11:31Z</time>
      </trkpt>
      <trkpt lat="44.91889" lon="6.72862">
        <ele>2105.91</ele>
        <time>2019-11-20T09:11:47Z</time>
      </trkpt>
      <trkpt lat="44.91895" lon="6.72867">
        <ele>2107.83</ele>
        <time>2019-11-20T09:12:05Z</time>
      </trkpt>
      <trkpt lat="44.91899" lon="6.72871">
        <ele>2109.27</ele>
        <time>2019-11-20T09:12:20Z</time>
      </trkpt>
      <trkpt lat="44.91904" lon="6.72876">
        <ele>2111.67</ele>
        <time>2019-11-20T09:12:36Z</time>
      </trkpt>
      <trkpt lat="44.91909" lon="6.7288">
        <ele>2113.12</ele>
        <time>2019-11-20T09:12:52Z</time>
      </trkpt>
      <trkpt lat="44.91913" lon="6.72886">
        <ele>2114.56</ele>
        <time>2019-11-20T09:13:07Z</time>
      </trkpt>
      <trkpt lat="44.91917" lon="6.72891">
        <ele>2116</ele>
        <time>2019-11-20T09:13:22Z</time>
      </trkpt>
      <trkpt lat="44.91921" lon="6.72895">
        <ele>2117.44</ele>
        <time>2019-11-20T09:13:37Z</time>
      </trkpt>
      <trkpt lat="44.91923" lon="6.72902">
        <ele>2118.88</ele>
        <time>2019-11-20T09:13:51Z</time>
      </trkpt>
      <trkpt lat="44.91922" lon="6.7291">
        <ele>2120.81</ele>
        <time>2019-11-20T09:14:05Z</time>
      </trkpt>
      <trkpt lat="44.9192" lon="6.72914">
        <ele>2120.81</ele>
        <time>2019-11-20T09:14:23Z</time>
      </trkpt>
      <trkpt lat="44.91919" lon="6.72923">
        <ele>2120.32</ele>
        <time>2019-11-20T09:14:40Z</time>
      </trkpt>
      <trkpt lat="44.91918" lon="6.72928">
        <ele>2120.32</ele>
        <time>2019-11-20T09:14:44Z</time>
      </trkpt>
      <trkpt lat="44.91912" lon="6.72947">
        <ele>2119.36</ele>
        <time>2019-11-20T09:14:56Z</time>
      </trkpt>
      <trkpt lat="44.91901" lon="6.72955">
        <ele>2120.32</ele>
        <time>2019-11-20T09:15:12Z</time>
      </trkpt>
      <trkpt lat="44.91891" lon="6.72959">
        <ele>2120.81</ele>
        <time>2019-11-20T09:15:27Z</time>
      </trkpt>
      <trkpt lat="44.91885" lon="6.72962">
        <ele>2121.77</ele>
        <time>2019-11-20T09:15:40Z</time>
      </trkpt>
      <trkpt lat="44.9188" lon="6.72972">
        <ele>2122.25</ele>
        <time>2019-11-20T09:15:52Z</time>
      </trkpt>
      <trkpt lat="44.91873" lon="6.72984">
        <ele>2124.17</ele>
        <time>2019-11-20T09:16:08Z</time>
      </trkpt>
      <trkpt lat="44.91867" lon="6.72995">
        <ele>2125.61</ele>
        <time>2019-11-20T09:16:24Z</time>
      </trkpt>
      <trkpt lat="44.91857" lon="6.73006">
        <ele>2125.61</ele>
        <time>2019-11-20T09:16:37Z</time>
      </trkpt>
      <trkpt lat="44.91838" lon="6.73013">
        <ele>2123.69</ele>
        <time>2019-11-20T09:16:50Z</time>
      </trkpt>
      <trkpt lat="44.91822" lon="6.73019">
        <ele>2122.25</ele>
        <time>2019-11-20T09:17:01Z</time>
      </trkpt>
      <trkpt lat="44.91816" lon="6.73029">
        <ele>2123.69</ele>
        <time>2019-11-20T09:17:14Z</time>
      </trkpt>
      <trkpt lat="44.91812" lon="6.73039">
        <ele>2124.65</ele>
        <time>2019-11-20T09:17:29Z</time>
      </trkpt>
      <trkpt lat="44.91806" lon="6.73047">
        <ele>2126.57</ele>
        <time>2019-11-20T09:17:46Z</time>
      </trkpt>
      <trkpt lat="44.91801" lon="6.73052">
        <ele>2128.02</ele>
        <time>2019-11-20T09:18:02Z</time>
      </trkpt>
      <trkpt lat="44.91796" lon="6.73055">
        <ele>2130.42</ele>
        <time>2019-11-20T09:18:16Z</time>
      </trkpt>
      <trkpt lat="44.91788" lon="6.73058">
        <ele>2131.86</ele>
        <time>2019-11-20T09:18:32Z</time>
      </trkpt>
      <trkpt lat="44.9178" lon="6.73061">
        <ele>2132.82</ele>
        <time>2019-11-20T09:18:48Z</time>
      </trkpt>
      <trkpt lat="44.91773" lon="6.73065">
        <ele>2134.26</ele>
        <time>2019-11-20T09:19:04Z</time>
      </trkpt>
      <trkpt lat="44.91767" lon="6.73072">
        <ele>2135.71</ele>
        <time>2019-11-20T09:19:19Z</time>
      </trkpt>
      <trkpt lat="44.91759" lon="6.73077">
        <ele>2136.67</ele>
        <time>2019-11-20T09:19:33Z</time>
      </trkpt>
      <trkpt lat="44.91749" lon="6.73081">
        <ele>2137.63</ele>
        <time>2019-11-20T09:19:50Z</time>
      </trkpt>
      <trkpt lat="44.91748" lon="6.7308">
        <ele>2137.63</ele>
        <time>2019-11-20T09:20:12Z</time>
      </trkpt>
      <trkpt lat="44.91749" lon="6.73083">
        <ele>2137.63</ele>
        <time>2019-11-20T09:20:31Z</time>
      </trkpt>
      <trkpt lat="44.91749" lon="6.73083">
        <ele>2137.63</ele>
        <time>2019-11-20T09:20:50Z</time>
      </trkpt>
      <trkpt lat="44.91743" lon="6.73084">
        <ele>2137.15</ele>
        <time>2019-11-20T09:21:03Z</time>
      </trkpt>
      <trkpt lat="44.91738" lon="6.73086">
        <ele>2137.15</ele>
        <time>2019-11-20T09:21:12Z</time>
      </trkpt>
      <trkpt lat="44.91718" lon="6.73086">
        <ele>2135.71</ele>
        <time>2019-11-20T09:21:29Z</time>
      </trkpt>
      <trkpt lat="44.91707" lon="6.73086">
        <ele>2136.19</ele>
        <time>2019-11-20T09:21:44Z</time>
      </trkpt>
      <trkpt lat="44.91697" lon="6.73085">
        <ele>2138.11</ele>
        <time>2019-11-20T09:22:01Z</time>
      </trkpt>
      <trkpt lat="44.91686" lon="6.73085">
        <ele>2140.03</ele>
        <time>2019-11-20T09:22:17Z</time>
      </trkpt>
      <trkpt lat="44.91676" lon="6.73083">
        <ele>2141.47</ele>
        <time>2019-11-20T09:22:33Z</time>
      </trkpt>
      <trkpt lat="44.91667" lon="6.73081">
        <ele>2143.4</ele>
        <time>2019-11-20T09:22:49Z</time>
      </trkpt>
      <trkpt lat="44.9166" lon="6.73078">
        <ele>2144.84</ele>
        <time>2019-11-20T09:23:05Z</time>
      </trkpt>
      <trkpt lat="44.91651" lon="6.73075">
        <ele>2146.28</ele>
        <time>2019-11-20T09:23:21Z</time>
      </trkpt>
      <trkpt lat="44.91645" lon="6.73076">
        <ele>2147.24</ele>
        <time>2019-11-20T09:23:33Z</time>
      </trkpt>
      <trkpt lat="44.91637" lon="6.73076">
        <ele>2148.68</ele>
        <time>2019-11-20T09:23:48Z</time>
      </trkpt>
      <trkpt lat="44.91627" lon="6.73072">
        <ele>2150.13</ele>
        <time>2019-11-20T09:24:07Z</time>
      </trkpt>
      <trkpt lat="44.91619" lon="6.7307">
        <ele>2151.09</ele>
        <time>2019-11-20T09:24:22Z</time>
      </trkpt>
      <trkpt lat="44.91608" lon="6.73067">
        <ele>2152.05</ele>
        <time>2019-11-20T09:24:40Z</time>
      </trkpt>
      <trkpt lat="44.91597" lon="6.73069">
        <ele>2153.01</ele>
        <time>2019-11-20T09:24:55Z</time>
      </trkpt>
      <trkpt lat="44.91589" lon="6.73068">
        <ele>2154.45</ele>
        <time>2019-11-20T09:25:10Z</time>
      </trkpt>
      <trkpt lat="44.91579" lon="6.73068">
        <ele>2155.41</ele>
        <time>2019-11-20T09:25:25Z</time>
      </trkpt>
      <trkpt lat="44.91571" lon="6.73069">
        <ele>2157.34</ele>
        <time>2019-11-20T09:25:44Z</time>
      </trkpt>
      <trkpt lat="44.91563" lon="6.73068">
        <ele>2158.78</ele>
        <time>2019-11-20T09:26:01Z</time>
      </trkpt>
      <trkpt lat="44.91556" lon="6.73063">
        <ele>2160.22</ele>
        <time>2019-11-20T09:26:15Z</time>
      </trkpt>
      <trkpt lat="44.9155" lon="6.73069">
        <ele>2161.66</ele>
        <time>2019-11-20T09:26:32Z</time>
      </trkpt>
      <trkpt lat="44.91551" lon="6.73069">
        <ele>2162.14</ele>
        <time>2019-11-20T09:26:55Z</time>
      </trkpt>
      <trkpt lat="44.91553" lon="6.73068">
        <ele>2161.18</ele>
        <time>2019-11-20T09:27:13Z</time>
      </trkpt>
      <trkpt lat="44.9155" lon="6.73071">
        <ele>2162.14</ele>
        <time>2019-11-20T09:27:38Z</time>
      </trkpt>
      <trkpt lat="44.91551" lon="6.7307">
        <ele>2162.14</ele>
        <time>2019-11-20T09:27:59Z</time>
      </trkpt>
      <trkpt lat="44.91547" lon="6.73075">
        <ele>2162.62</ele>
        <time>2019-11-20T09:28:12Z</time>
      </trkpt>
      <trkpt lat="44.91536" lon="6.73085">
        <ele>2163.58</ele>
        <time>2019-11-20T09:28:28Z</time>
      </trkpt>
      <trkpt lat="44.91526" lon="6.73096">
        <ele>2164.06</ele>
        <time>2019-11-20T09:28:43Z</time>
      </trkpt>
      <trkpt lat="44.91517" lon="6.73106">
        <ele>2164.55</ele>
        <time>2019-11-20T09:28:57Z</time>
      </trkpt>
      <trkpt lat="44.91507" lon="6.73115">
        <ele>2165.51</ele>
        <time>2019-11-20T09:29:14Z</time>
      </trkpt>
      <trkpt lat="44.91502" lon="6.7312">
        <ele>2166.47</ele>
        <time>2019-11-20T09:29:27Z</time>
      </trkpt>
      <trkpt lat="44.91495" lon="6.73129">
        <ele>2168.39</ele>
        <time>2019-11-20T09:29:47Z</time>
      </trkpt>
      <trkpt lat="44.91491" lon="6.73135">
        <ele>2169.83</ele>
        <time>2019-11-20T09:30:02Z</time>
      </trkpt>
      <trkpt lat="44.91487" lon="6.7314">
        <ele>2171.27</ele>
        <time>2019-11-20T09:30:18Z</time>
      </trkpt>
      <trkpt lat="44.91484" lon="6.73145">
        <ele>2172.72</ele>
        <time>2019-11-20T09:30:32Z</time>
      </trkpt>
      <trkpt lat="44.9148" lon="6.73149">
        <ele>2174.16</ele>
        <time>2019-11-20T09:30:48Z</time>
      </trkpt>
      <trkpt lat="44.91476" lon="6.73154">
        <ele>2175.6</ele>
        <time>2019-11-20T09:31:03Z</time>
      </trkpt>
      <trkpt lat="44.91473" lon="6.7316">
        <ele>2177.04</ele>
        <time>2019-11-20T09:31:19Z</time>
      </trkpt>
      <trkpt lat="44.91469" lon="6.73164">
        <ele>2178.48</ele>
        <time>2019-11-20T09:31:34Z</time>
      </trkpt>
      <trkpt lat="44.91466" lon="6.73168">
        <ele>2179.93</ele>
        <time>2019-11-20T09:31:49Z</time>
      </trkpt>
      <trkpt lat="44.91462" lon="6.73176">
        <ele>2180.89</ele>
        <time>2019-11-20T09:32:05Z</time>
      </trkpt>
      <trkpt lat="44.9146" lon="6.73179">
        <ele>2181.85</ele>
        <time>2019-11-20T09:32:18Z</time>
      </trkpt>
      <trkpt lat="44.91455" lon="6.73183">
        <ele>2183.29</ele>
        <time>2019-11-20T09:32:33Z</time>
      </trkpt>
      <trkpt lat="44.91452" lon="6.73186">
        <ele>2184.73</ele>
        <time>2019-11-20T09:32:47Z</time>
      </trkpt>
      <trkpt lat="44.91447" lon="6.73189">
        <ele>2186.18</ele>
        <time>2019-11-20T09:33:02Z</time>
      </trkpt>
      <trkpt lat="44.91442" lon="6.73192">
        <ele>2187.14</ele>
        <time>2019-11-20T09:33:16Z</time>
      </trkpt>
      <trkpt lat="44.91436" lon="6.73194">
        <ele>2188.58</ele>
        <time>2019-11-20T09:33:32Z</time>
      </trkpt>
      <trkpt lat="44.91433" lon="6.73196">
        <ele>2190.02</ele>
        <time>2019-11-20T09:33:45Z</time>
      </trkpt>
      <trkpt lat="44.91428" lon="6.73198">
        <ele>2191.46</ele>
        <time>2019-11-20T09:34:00Z</time>
      </trkpt>
      <trkpt lat="44.91423" lon="6.732">
        <ele>2192.42</ele>
        <time>2019-11-20T09:34:14Z</time>
      </trkpt>
      <trkpt lat="44.91416" lon="6.73205">
        <ele>2193.87</ele>
        <time>2019-11-20T09:34:30Z</time>
      </trkpt>
      <trkpt lat="44.91408" lon="6.73208">
        <ele>2194.83</ele>
        <time>2019-11-20T09:34:43Z</time>
      </trkpt>
      <trkpt lat="44.91404" lon="6.73212">
        <ele>2195.79</ele>
        <time>2019-11-20T09:34:56Z</time>
      </trkpt>
      <trkpt lat="44.91397" lon="6.73219">
        <ele>2195.31</ele>
        <time>2019-11-20T09:35:09Z</time>
      </trkpt>
      <trkpt lat="44.91387" lon="6.73228">
        <ele>2196.75</ele>
        <time>2019-11-20T09:35:25Z</time>
      </trkpt>
      <trkpt lat="44.9138" lon="6.73233">
        <ele>2198.19</ele>
        <time>2019-11-20T09:35:43Z</time>
      </trkpt>
      <trkpt lat="44.91371" lon="6.7324">
        <ele>2200.11</ele>
        <time>2019-11-20T09:36:01Z</time>
      </trkpt>
      <trkpt lat="44.91364" lon="6.73248">
        <ele>2201.56</ele>
        <time>2019-11-20T09:36:19Z</time>
      </trkpt>
      <trkpt lat="44.91356" lon="6.73256">
        <ele>2203</ele>
        <time>2019-11-20T09:36:39Z</time>
      </trkpt>
      <trkpt lat="44.91349" lon="6.73262">
        <ele>2204.44</ele>
        <time>2019-11-20T09:36:55Z</time>
      </trkpt>
      <trkpt lat="44.9134" lon="6.73273">
        <ele>2206.36</ele>
        <time>2019-11-20T09:37:17Z</time>
      </trkpt>
      <trkpt lat="44.91334" lon="6.73278">
        <ele>2208.29</ele>
        <time>2019-11-20T09:37:35Z</time>
      </trkpt>
      <trkpt lat="44.91329" lon="6.73284">
        <ele>2209.25</ele>
        <time>2019-11-20T09:37:50Z</time>
      </trkpt>
      <trkpt lat="44.91323" lon="6.7329">
        <ele>2210.69</ele>
        <time>2019-11-20T09:38:05Z</time>
      </trkpt>
      <trkpt lat="44.91318" lon="6.73296">
        <ele>2212.13</ele>
        <time>2019-11-20T09:38:21Z</time>
      </trkpt>
      <trkpt lat="44.91308" lon="6.73308">
        <ele>2213.09</ele>
        <time>2019-11-20T09:38:43Z</time>
      </trkpt>
      <trkpt lat="44.91301" lon="6.73316">
        <ele>2214.53</ele>
        <time>2019-11-20T09:38:59Z</time>
      </trkpt>
      <trkpt lat="44.91294" lon="6.73325">
        <ele>2215.98</ele>
        <time>2019-11-20T09:39:15Z</time>
      </trkpt>
      <trkpt lat="44.91287" lon="6.73332">
        <ele>2217.42</ele>
        <time>2019-11-20T09:39:32Z</time>
      </trkpt>
      <trkpt lat="44.91282" lon="6.73338">
        <ele>2218.86</ele>
        <time>2019-11-20T09:39:48Z</time>
      </trkpt>
      <trkpt lat="44.91276" lon="6.73348">
        <ele>2220.3</ele>
        <time>2019-11-20T09:40:07Z</time>
      </trkpt>
      <trkpt lat="44.91278" lon="6.7335">
        <ele>2220.3</ele>
        <time>2019-11-20T09:40:18Z</time>
      </trkpt>
      <trkpt lat="44.91278" lon="6.73351">
        <ele>2219.82</ele>
        <time>2019-11-20T09:40:57Z</time>
      </trkpt>
      <trkpt lat="44.91278" lon="6.73354">
        <ele>2220.3</ele>
        <time>2019-11-20T09:41:42Z</time>
      </trkpt>
      <trkpt lat="44.91277" lon="6.73353">
        <ele>2221.26</ele>
        <time>2019-11-20T09:42:11Z</time>
      </trkpt>
      <trkpt lat="44.91278" lon="6.73351">
        <ele>2221.26</ele>
        <time>2019-11-20T09:42:34Z</time>
      </trkpt>
      <trkpt lat="44.91276" lon="6.7335">
        <ele>2220.78</ele>
        <time>2019-11-20T09:42:55Z</time>
      </trkpt>
      <trkpt lat="44.91276" lon="6.73351">
        <ele>2220.3</ele>
        <time>2019-11-20T09:43:13Z</time>
      </trkpt>
      <trkpt lat="44.91273" lon="6.73348">
        <ele>2221.74</ele>
        <time>2019-11-20T09:43:41Z</time>
      </trkpt>
      <trkpt lat="44.91277" lon="6.73354">
        <ele>2222.71</ele>
        <time>2019-11-20T09:43:56Z</time>
      </trkpt>
      <trkpt lat="44.91267" lon="6.73358">
        <ele>2222.22</ele>
        <time>2019-11-20T09:44:12Z</time>
      </trkpt>
      <trkpt lat="44.91261" lon="6.73366">
        <ele>2224.15</ele>
        <time>2019-11-20T09:44:27Z</time>
      </trkpt>
      <trkpt lat="44.91258" lon="6.73372">
        <ele>2225.59</ele>
        <time>2019-11-20T09:44:41Z</time>
      </trkpt>
      <trkpt lat="44.91253" lon="6.73378">
        <ele>2226.55</ele>
        <time>2019-11-20T09:44:56Z</time>
      </trkpt>
      <trkpt lat="44.9125" lon="6.73386">
        <ele>2227.51</ele>
        <time>2019-11-20T09:45:12Z</time>
      </trkpt>
      <trkpt lat="44.91245" lon="6.73391">
        <ele>2228.95</ele>
        <time>2019-11-20T09:45:27Z</time>
      </trkpt>
      <trkpt lat="44.91241" lon="6.73396">
        <ele>2230.4</ele>
        <time>2019-11-20T09:45:43Z</time>
      </trkpt>
      <trkpt lat="44.91237" lon="6.73401">
        <ele>2232.32</ele>
        <time>2019-11-20T09:45:58Z</time>
      </trkpt>
      <trkpt lat="44.91233" lon="6.73405">
        <ele>2233.76</ele>
        <time>2019-11-20T09:46:13Z</time>
      </trkpt>
      <trkpt lat="44.91229" lon="6.73409">
        <ele>2234.72</ele>
        <time>2019-11-20T09:46:29Z</time>
      </trkpt>
      <trkpt lat="44.91227" lon="6.73413">
        <ele>2236.16</ele>
        <time>2019-11-20T09:46:42Z</time>
      </trkpt>
      <trkpt lat="44.91224" lon="6.73417">
        <ele>2237.61</ele>
        <time>2019-11-20T09:46:57Z</time>
      </trkpt>
      <trkpt lat="44.9122" lon="6.73422">
        <ele>2239.05</ele>
        <time>2019-11-20T09:47:10Z</time>
      </trkpt>
      <trkpt lat="44.91216" lon="6.73427">
        <ele>2240.97</ele>
        <time>2019-11-20T09:47:27Z</time>
      </trkpt>
      <trkpt lat="44.91214" lon="6.73431">
        <ele>2242.41</ele>
        <time>2019-11-20T09:47:43Z</time>
      </trkpt>
      <trkpt lat="44.91212" lon="6.73435">
        <ele>2245.3</ele>
        <time>2019-11-20T09:47:55Z</time>
      </trkpt>
      <trkpt lat="44.91209" lon="6.73439">
        <ele>2244.82</ele>
        <time>2019-11-20T09:48:10Z</time>
      </trkpt>
      <trkpt lat="44.91206" lon="6.73443">
        <ele>2246.26</ele>
        <time>2019-11-20T09:48:24Z</time>
      </trkpt>
      <trkpt lat="44.91203" lon="6.73445">
        <ele>2247.22</ele>
        <time>2019-11-20T09:48:37Z</time>
      </trkpt>
      <trkpt lat="44.91199" lon="6.73448">
        <ele>2248.66</ele>
        <time>2019-11-20T09:48:50Z</time>
      </trkpt>
      <trkpt lat="44.91196" lon="6.73452">
        <ele>2250.1</ele>
        <time>2019-11-20T09:49:02Z</time>
      </trkpt>
      <trkpt lat="44.91192" lon="6.73454">
        <ele>2251.06</ele>
        <time>2019-11-20T09:49:14Z</time>
      </trkpt>
      <trkpt lat="44.91189" lon="6.73458">
        <ele>2252.51</ele>
        <time>2019-11-20T09:49:27Z</time>
      </trkpt>
      <trkpt lat="44.91186" lon="6.73462">
        <ele>2253.95</ele>
        <time>2019-11-20T09:49:41Z</time>
      </trkpt>
      <trkpt lat="44.91183" lon="6.73466">
        <ele>2255.39</ele>
        <time>2019-11-20T09:49:55Z</time>
      </trkpt>
      <trkpt lat="44.9118" lon="6.73471">
        <ele>2256.83</ele>
        <time>2019-11-20T09:50:09Z</time>
      </trkpt>
      <trkpt lat="44.91177" lon="6.73475">
        <ele>2258.75</ele>
        <time>2019-11-20T09:50:23Z</time>
      </trkpt>
      <trkpt lat="44.91173" lon="6.73476">
        <ele>2260.2</ele>
        <time>2019-11-20T09:50:37Z</time>
      </trkpt>
      <trkpt lat="44.91172" lon="6.73481">
        <ele>2261.64</ele>
        <time>2019-11-20T09:50:50Z</time>
      </trkpt>
      <trkpt lat="44.91169" lon="6.73487">
        <ele>2263.08</ele>
        <time>2019-11-20T09:51:05Z</time>
      </trkpt>
      <trkpt lat="44.91167" lon="6.73493">
        <ele>2265</ele>
        <time>2019-11-20T09:51:19Z</time>
      </trkpt>
      <trkpt lat="44.91164" lon="6.73494">
        <ele>2266.45</ele>
        <time>2019-11-20T09:51:34Z</time>
      </trkpt>
      <trkpt lat="44.9116" lon="6.73494">
        <ele>2267.89</ele>
        <time>2019-11-20T09:51:47Z</time>
      </trkpt>
      <trkpt lat="44.91158" lon="6.73499">
        <ele>2268.85</ele>
        <time>2019-11-20T09:52:01Z</time>
      </trkpt>
      <trkpt lat="44.91159" lon="6.73507">
        <ele>2271.25</ele>
        <time>2019-11-20T09:52:18Z</time>
      </trkpt>
      <trkpt lat="44.91156" lon="6.73511">
        <ele>2272.69</ele>
        <time>2019-11-20T09:52:32Z</time>
      </trkpt>
      <trkpt lat="44.91153" lon="6.73512">
        <ele>2274.62</ele>
        <time>2019-11-20T09:52:46Z</time>
      </trkpt>
      <trkpt lat="44.91151" lon="6.73517">
        <ele>2276.06</ele>
        <time>2019-11-20T09:53:01Z</time>
      </trkpt>
      <trkpt lat="44.91151" lon="6.73516">
        <ele>2276.06</ele>
        <time>2019-11-20T09:53:19Z</time>
      </trkpt>
      <trkpt lat="44.91147" lon="6.73519">
        <ele>2277.5</ele>
        <time>2019-11-20T09:53:36Z</time>
      </trkpt>
      <trkpt lat="44.91139" lon="6.73523">
        <ele>2278.94</ele>
        <time>2019-11-20T09:53:55Z</time>
      </trkpt>
      <trkpt lat="44.91135" lon="6.73527">
        <ele>2279.9</ele>
        <time>2019-11-20T09:54:11Z</time>
      </trkpt>
      <trkpt lat="44.9113" lon="6.73533">
        <ele>2281.83</ele>
        <time>2019-11-20T09:54:28Z</time>
      </trkpt>
      <trkpt lat="44.91125" lon="6.73537">
        <ele>2283.27</ele>
        <time>2019-11-20T09:54:44Z</time>
      </trkpt>
      <trkpt lat="44.91121" lon="6.73541">
        <ele>2283.27</ele>
        <time>2019-11-20T09:54:57Z</time>
      </trkpt>
      <trkpt lat="44.91117" lon="6.73546">
        <ele>2284.71</ele>
        <time>2019-11-20T09:55:13Z</time>
      </trkpt>
      <trkpt lat="44.91111" lon="6.73549">
        <ele>2287.11</ele>
        <time>2019-11-20T09:55:29Z</time>
      </trkpt>
      <trkpt lat="44.91107" lon="6.73552">
        <ele>2287.59</ele>
        <time>2019-11-20T09:55:44Z</time>
      </trkpt>
      <trkpt lat="44.91103" lon="6.73555">
        <ele>2288.56</ele>
        <time>2019-11-20T09:55:59Z</time>
      </trkpt>
      <trkpt lat="44.91098" lon="6.73558">
        <ele>2290.48</ele>
        <time>2019-11-20T09:56:13Z</time>
      </trkpt>
      <trkpt lat="44.91094" lon="6.7356">
        <ele>2292.4</ele>
        <time>2019-11-20T09:56:27Z</time>
      </trkpt>
      <trkpt lat="44.91089" lon="6.73563">
        <ele>2293.36</ele>
        <time>2019-11-20T09:56:44Z</time>
      </trkpt>
      <trkpt lat="44.91083" lon="6.73563">
        <ele>2294.32</ele>
        <time>2019-11-20T09:57:00Z</time>
      </trkpt>
      <trkpt lat="44.91076" lon="6.73565">
        <ele>2295.28</ele>
        <time>2019-11-20T09:57:15Z</time>
      </trkpt>
      <trkpt lat="44.91067" lon="6.73567">
        <ele>2297.21</ele>
        <time>2019-11-20T09:57:33Z</time>
      </trkpt>
      <trkpt lat="44.91059" lon="6.7357">
        <ele>2298.17</ele>
        <time>2019-11-20T09:57:50Z</time>
      </trkpt>
      <trkpt lat="44.91053" lon="6.73572">
        <ele>2299.61</ele>
        <time>2019-11-20T09:58:04Z</time>
      </trkpt>
      <trkpt lat="44.91046" lon="6.73576">
        <ele>2300.09</ele>
        <time>2019-11-20T09:58:20Z</time>
      </trkpt>
      <trkpt lat="44.91036" lon="6.73579">
        <ele>2301.05</ele>
        <time>2019-11-20T09:58:38Z</time>
      </trkpt>
      <trkpt lat="44.91026" lon="6.73583">
        <ele>2301.05</ele>
        <time>2019-11-20T09:58:53Z</time>
      </trkpt>
      <trkpt lat="44.91016" lon="6.73584">
        <ele>2302.01</ele>
        <time>2019-11-20T09:59:09Z</time>
      </trkpt>
      <trkpt lat="44.91008" lon="6.73587">
        <ele>2303.46</ele>
        <time>2019-11-20T09:59:25Z</time>
      </trkpt>
      <trkpt lat="44.91005" lon="6.7359">
        <ele>2303.94</ele>
        <time>2019-11-20T09:59:39Z</time>
      </trkpt>
      <trkpt lat="44.91003" lon="6.7359">
        <ele>2304.42</ele>
        <time>2019-11-20T09:59:53Z</time>
      </trkpt>
      <trkpt lat="44.91002" lon="6.73589">
        <ele>2304.42</ele>
        <time>2019-11-20T10:00:07Z</time>
      </trkpt>
      <trkpt lat="44.91003" lon="6.73587">
        <ele>2303.46</ele>
        <time>2019-11-20T10:00:23Z</time>
      </trkpt>
      <trkpt lat="44.91004" lon="6.73587">
        <ele>2303.94</ele>
        <time>2019-11-20T10:01:00Z</time>
      </trkpt>
      <trkpt lat="44.91004" lon="6.73589">
        <ele>2303.46</ele>
        <time>2019-11-20T10:01:34Z</time>
      </trkpt>
      <trkpt lat="44.91004" lon="6.73589">
        <ele>2304.9</ele>
        <time>2019-11-20T10:02:11Z</time>
      </trkpt>
      <trkpt lat="44.91002" lon="6.73592">
        <ele>2304.9</ele>
        <time>2019-11-20T10:02:26Z</time>
      </trkpt>
      <trkpt lat="44.90996" lon="6.73612">
        <ele>2304.9</ele>
        <time>2019-11-20T10:02:42Z</time>
      </trkpt>
      <trkpt lat="44.90987" lon="6.73624">
        <ele>2305.38</ele>
        <time>2019-11-20T10:02:57Z</time>
      </trkpt>
      <trkpt lat="44.90981" lon="6.7364">
        <ele>2304.9</ele>
        <time>2019-11-20T10:03:15Z</time>
      </trkpt>
      <trkpt lat="44.90973" lon="6.73644">
        <ele>2305.86</ele>
        <time>2019-11-20T10:03:29Z</time>
      </trkpt>
      <trkpt lat="44.90968" lon="6.73647">
        <ele>2306.82</ele>
        <time>2019-11-20T10:03:44Z</time>
      </trkpt>
      <trkpt lat="44.90963" lon="6.73648">
        <ele>2307.3</ele>
        <time>2019-11-20T10:03:56Z</time>
      </trkpt>
      <trkpt lat="44.90955" lon="6.73653">
        <ele>2308.26</ele>
        <time>2019-11-20T10:04:11Z</time>
      </trkpt>
      <trkpt lat="44.90955" lon="6.73652">
        <ele>2308.26</ele>
        <time>2019-11-20T10:04:23Z</time>
      </trkpt>
      <trkpt lat="44.90955" lon="6.73654">
        <ele>2307.3</ele>
        <time>2019-11-20T10:04:27Z</time>
      </trkpt>
      <trkpt lat="44.90954" lon="6.73652">
        <ele>2307.3</ele>
        <time>2019-11-20T10:05:12Z</time>
      </trkpt>
      <trkpt lat="44.90954" lon="6.73652">
        <ele>2307.3</ele>
        <time>2019-11-20T10:05:43Z</time>
      </trkpt>
      <trkpt lat="44.90955" lon="6.73652">
        <ele>2306.82</ele>
        <time>2019-11-20T10:06:15Z</time>
      </trkpt>
      <trkpt lat="44.90954" lon="6.73652">
        <ele>2307.3</ele>
        <time>2019-11-20T10:06:44Z</time>
      </trkpt>
      <trkpt lat="44.90954" lon="6.73652">
        <ele>2307.3</ele>
        <time>2019-11-20T10:07:28Z</time>
      </trkpt>
      <trkpt lat="44.90955" lon="6.73652">
        <ele>2307.3</ele>
        <time>2019-11-20T10:08:01Z</time>
      </trkpt>
      <trkpt lat="44.90954" lon="6.73651">
        <ele>2308.26</ele>
        <time>2019-11-20T10:08:16Z</time>
      </trkpt>
      <trkpt lat="44.90953" lon="6.73651">
        <ele>2308.26</ele>
        <time>2019-11-20T10:08:39Z</time>
      </trkpt>
      <trkpt lat="44.90956" lon="6.73648">
        <ele>2308.26</ele>
        <time>2019-11-20T10:08:53Z</time>
      </trkpt>
      <trkpt lat="44.90959" lon="6.73644">
        <ele>2308.74</ele>
        <time>2019-11-20T10:09:05Z</time>
      </trkpt>
      <trkpt lat="44.90961" lon="6.73638">
        <ele>2309.22</ele>
        <time>2019-11-20T10:09:17Z</time>
      </trkpt>
      <trkpt lat="44.90964" lon="6.73631">
        <ele>2309.7</ele>
        <time>2019-11-20T10:09:30Z</time>
      </trkpt>
      <trkpt lat="44.90964" lon="6.73624">
        <ele>2310.67</ele>
        <time>2019-11-20T10:09:43Z</time>
      </trkpt>
      <trkpt lat="44.90963" lon="6.73618">
        <ele>2311.63</ele>
        <time>2019-11-20T10:09:56Z</time>
      </trkpt>
      <trkpt lat="44.90956" lon="6.73617">
        <ele>2314.99</ele>
        <time>2019-11-20T10:10:08Z</time>
      </trkpt>
      <trkpt lat="44.90951" lon="6.73619">
        <ele>2314.03</ele>
        <time>2019-11-20T10:10:21Z</time>
      </trkpt>
      <trkpt lat="44.90946" lon="6.7362">
        <ele>2314.99</ele>
        <time>2019-11-20T10:10:34Z</time>
      </trkpt>
      <trkpt lat="44.90941" lon="6.73621">
        <ele>2315.95</ele>
        <time>2019-11-20T10:10:47Z</time>
      </trkpt>
      <trkpt lat="44.90936" lon="6.73622">
        <ele>2316.91</ele>
        <time>2019-11-20T10:11:01Z</time>
      </trkpt>
      <trkpt lat="44.90931" lon="6.73621">
        <ele>2318.36</ele>
        <time>2019-11-20T10:11:14Z</time>
      </trkpt>
      <trkpt lat="44.90926" lon="6.73621">
        <ele>2319.32</ele>
        <time>2019-11-20T10:11:29Z</time>
      </trkpt>
      <trkpt lat="44.90921" lon="6.7362">
        <ele>2320.28</ele>
        <time>2019-11-20T10:11:42Z</time>
      </trkpt>
      <trkpt lat="44.90916" lon="6.7362">
        <ele>2321.72</ele>
        <time>2019-11-20T10:11:56Z</time>
      </trkpt>
      <trkpt lat="44.90911" lon="6.7362">
        <ele>2322.68</ele>
        <time>2019-11-20T10:12:09Z</time>
      </trkpt>
      <trkpt lat="44.90906" lon="6.73622">
        <ele>2324.12</ele>
        <time>2019-11-20T10:12:24Z</time>
      </trkpt>
      <trkpt lat="44.90902" lon="6.73623">
        <ele>2325.09</ele>
        <time>2019-11-20T10:12:38Z</time>
      </trkpt>
      <trkpt lat="44.90897" lon="6.73624">
        <ele>2327.01</ele>
        <time>2019-11-20T10:12:53Z</time>
      </trkpt>
      <trkpt lat="44.90893" lon="6.73626">
        <ele>2327.97</ele>
        <time>2019-11-20T10:13:08Z</time>
      </trkpt>
      <trkpt lat="44.90888" lon="6.73628">
        <ele>2329.89</ele>
        <time>2019-11-20T10:13:24Z</time>
      </trkpt>
      <trkpt lat="44.90884" lon="6.73631">
        <ele>2331.33</ele>
        <time>2019-11-20T10:13:38Z</time>
      </trkpt>
      <trkpt lat="44.9088" lon="6.73633">
        <ele>2332.78</ele>
        <time>2019-11-20T10:13:52Z</time>
      </trkpt>
      <trkpt lat="44.90876" lon="6.73635">
        <ele>2334.22</ele>
        <time>2019-11-20T10:14:07Z</time>
      </trkpt>
      <trkpt lat="44.90873" lon="6.73637">
        <ele>2336.14</ele>
        <time>2019-11-20T10:14:22Z</time>
      </trkpt>
      <trkpt lat="44.90869" lon="6.73638">
        <ele>2337.58</ele>
        <time>2019-11-20T10:14:35Z</time>
      </trkpt>
      <trkpt lat="44.90866" lon="6.73641">
        <ele>2339.02</ele>
        <time>2019-11-20T10:14:48Z</time>
      </trkpt>
      <trkpt lat="44.90862" lon="6.73644">
        <ele>2340.95</ele>
        <time>2019-11-20T10:15:03Z</time>
      </trkpt>
      <trkpt lat="44.9086" lon="6.73649">
        <ele>2342.39</ele>
        <time>2019-11-20T10:15:17Z</time>
      </trkpt>
      <trkpt lat="44.90858" lon="6.73655">
        <ele>2343.83</ele>
        <time>2019-11-20T10:15:32Z</time>
      </trkpt>
      <trkpt lat="44.90855" lon="6.7366">
        <ele>2345.75</ele>
        <time>2019-11-20T10:15:45Z</time>
      </trkpt>
      <trkpt lat="44.90853" lon="6.73666">
        <ele>2347.2</ele>
        <time>2019-11-20T10:16:00Z</time>
      </trkpt>
      <trkpt lat="44.9085" lon="6.73674">
        <ele>2348.16</ele>
        <time>2019-11-20T10:16:17Z</time>
      </trkpt>
      <trkpt lat="44.90847" lon="6.7368">
        <ele>2349.6</ele>
        <time>2019-11-20T10:16:32Z</time>
      </trkpt>
      <trkpt lat="44.90845" lon="6.73687">
        <ele>2350.56</ele>
        <time>2019-11-20T10:16:45Z</time>
      </trkpt>
      <trkpt lat="44.90843" lon="6.73694">
        <ele>2352</ele>
        <time>2019-11-20T10:17:00Z</time>
      </trkpt>
      <trkpt lat="44.90838" lon="6.73699">
        <ele>2352.96</ele>
        <time>2019-11-20T10:17:13Z</time>
      </trkpt>
      <trkpt lat="44.90837" lon="6.73705">
        <ele>2353.93</ele>
        <time>2019-11-20T10:17:26Z</time>
      </trkpt>
      <trkpt lat="44.90837" lon="6.73713">
        <ele>2355.37</ele>
        <time>2019-11-20T10:17:41Z</time>
      </trkpt>
      <trkpt lat="44.90836" lon="6.73721">
        <ele>2356.81</ele>
        <time>2019-11-20T10:17:54Z</time>
      </trkpt>
      <trkpt lat="44.90834" lon="6.73728">
        <ele>2358.25</ele>
        <time>2019-11-20T10:18:09Z</time>
      </trkpt>
      <trkpt lat="44.90832" lon="6.73735">
        <ele>2359.69</ele>
        <time>2019-11-20T10:18:25Z</time>
      </trkpt>
      <trkpt lat="44.9083" lon="6.7374">
        <ele>2361.14</ele>
        <time>2019-11-20T10:18:40Z</time>
      </trkpt>
      <trkpt lat="44.90829" lon="6.73745">
        <ele>2363.06</ele>
        <time>2019-11-20T10:18:55Z</time>
      </trkpt>
      <trkpt lat="44.90826" lon="6.7375">
        <ele>2364.5</ele>
        <time>2019-11-20T10:19:10Z</time>
      </trkpt>
      <trkpt lat="44.90823" lon="6.73756">
        <ele>2365.46</ele>
        <time>2019-11-20T10:19:24Z</time>
      </trkpt>
      <trkpt lat="44.9082" lon="6.7376">
        <ele>2366.42</ele>
        <time>2019-11-20T10:19:37Z</time>
      </trkpt>
      <trkpt lat="44.90815" lon="6.73765">
        <ele>2367.38</ele>
        <time>2019-11-20T10:19:52Z</time>
      </trkpt>
      <trkpt lat="44.90815" lon="6.73765">
        <ele>2366.42</ele>
        <time>2019-11-20T10:20:09Z</time>
      </trkpt>
      <trkpt lat="44.90816" lon="6.73766">
        <ele>2366.9</ele>
        <time>2019-11-20T10:20:45Z</time>
      </trkpt>
      <trkpt lat="44.90815" lon="6.73764">
        <ele>2367.86</ele>
        <time>2019-11-20T10:21:13Z</time>
      </trkpt>
      <trkpt lat="44.90815" lon="6.73767">
        <ele>2367.86</ele>
        <time>2019-11-20T10:21:32Z</time>
      </trkpt>
      <trkpt lat="44.90808" lon="6.73772">
        <ele>2368.83</ele>
        <time>2019-11-20T10:21:46Z</time>
      </trkpt>
      <trkpt lat="44.90804" lon="6.73777">
        <ele>2370.75</ele>
        <time>2019-11-20T10:21:59Z</time>
      </trkpt>
      <trkpt lat="44.90798" lon="6.73783">
        <ele>2372.19</ele>
        <time>2019-11-20T10:22:14Z</time>
      </trkpt>
      <trkpt lat="44.90794" lon="6.73788">
        <ele>2374.59</ele>
        <time>2019-11-20T10:22:30Z</time>
      </trkpt>
      <trkpt lat="44.90792" lon="6.73793">
        <ele>2375.55</ele>
        <time>2019-11-20T10:22:43Z</time>
      </trkpt>
      <trkpt lat="44.9079" lon="6.73797">
        <ele>2377</ele>
        <time>2019-11-20T10:22:58Z</time>
      </trkpt>
      <trkpt lat="44.90787" lon="6.73801">
        <ele>2378.44</ele>
        <time>2019-11-20T10:23:11Z</time>
      </trkpt>
      <trkpt lat="44.90784" lon="6.73805">
        <ele>2379.88</ele>
        <time>2019-11-20T10:23:25Z</time>
      </trkpt>
      <trkpt lat="44.90782" lon="6.73809">
        <ele>2381.32</ele>
        <time>2019-11-20T10:23:39Z</time>
      </trkpt>
      <trkpt lat="44.90778" lon="6.73813">
        <ele>2382.76</ele>
        <time>2019-11-20T10:23:52Z</time>
      </trkpt>
      <trkpt lat="44.90775" lon="6.73817">
        <ele>2383.73</ele>
        <time>2019-11-20T10:24:05Z</time>
      </trkpt>
      <trkpt lat="44.90774" lon="6.73821">
        <ele>2385.65</ele>
        <time>2019-11-20T10:24:17Z</time>
      </trkpt>
      <trkpt lat="44.90772" lon="6.73824">
        <ele>2386.61</ele>
        <time>2019-11-20T10:24:29Z</time>
      </trkpt>
      <trkpt lat="44.90769" lon="6.73827">
        <ele>2387.57</ele>
        <time>2019-11-20T10:24:41Z</time>
      </trkpt>
      <trkpt lat="44.90765" lon="6.73831">
        <ele>2389.49</ele>
        <time>2019-11-20T10:24:55Z</time>
      </trkpt>
      <trkpt lat="44.90762" lon="6.73834">
        <ele>2390.46</ele>
        <time>2019-11-20T10:25:08Z</time>
      </trkpt>
      <trkpt lat="44.90757" lon="6.73837">
        <ele>2391.9</ele>
        <time>2019-11-20T10:25:22Z</time>
      </trkpt>
      <trkpt lat="44.90751" lon="6.73842">
        <ele>2392.86</ele>
        <time>2019-11-20T10:25:36Z</time>
      </trkpt>
      <trkpt lat="44.90745" lon="6.73844">
        <ele>2394.3</ele>
        <time>2019-11-20T10:25:51Z</time>
      </trkpt>
      <trkpt lat="44.90736" lon="6.73849">
        <ele>2395.26</ele>
        <time>2019-11-20T10:26:10Z</time>
      </trkpt>
      <trkpt lat="44.90728" lon="6.73856">
        <ele>2395.74</ele>
        <time>2019-11-20T10:26:25Z</time>
      </trkpt>
      <trkpt lat="44.90721" lon="6.7386">
        <ele>2396.7</ele>
        <time>2019-11-20T10:26:39Z</time>
      </trkpt>
      <trkpt lat="44.90714" lon="6.73863">
        <ele>2397.67</ele>
        <time>2019-11-20T10:26:55Z</time>
      </trkpt>
      <trkpt lat="44.90711" lon="6.73864">
        <ele>2398.15</ele>
        <time>2019-11-20T10:27:09Z</time>
      </trkpt>
      <trkpt lat="44.90705" lon="6.73868">
        <ele>2399.11</ele>
        <time>2019-11-20T10:27:25Z</time>
      </trkpt>
      <trkpt lat="44.90699" lon="6.7387">
        <ele>2400.55</ele>
        <time>2019-11-20T10:27:41Z</time>
      </trkpt>
      <trkpt lat="44.90694" lon="6.73874">
        <ele>2401.51</ele>
        <time>2019-11-20T10:27:57Z</time>
      </trkpt>
      <trkpt lat="44.9069" lon="6.73876">
        <ele>2403.43</ele>
        <time>2019-11-20T10:28:12Z</time>
      </trkpt>
      <trkpt lat="44.90687" lon="6.73879">
        <ele>2404.88</ele>
        <time>2019-11-20T10:28:26Z</time>
      </trkpt>
      <trkpt lat="44.90684" lon="6.73881">
        <ele>2406.32</ele>
        <time>2019-11-20T10:28:39Z</time>
      </trkpt>
      <trkpt lat="44.9068" lon="6.73883">
        <ele>2406.8</ele>
        <time>2019-11-20T10:28:53Z</time>
      </trkpt>
      <trkpt lat="44.90677" lon="6.73886">
        <ele>2408.72</ele>
        <time>2019-11-20T10:29:08Z</time>
      </trkpt>
      <trkpt lat="44.90673" lon="6.7389">
        <ele>2410.16</ele>
        <time>2019-11-20T10:29:24Z</time>
      </trkpt>
      <trkpt lat="44.90669" lon="6.73893">
        <ele>2411.6</ele>
        <time>2019-11-20T10:29:38Z</time>
      </trkpt>
      <trkpt lat="44.90666" lon="6.73896">
        <ele>2413.05</ele>
        <time>2019-11-20T10:29:54Z</time>
      </trkpt>
      <trkpt lat="44.90662" lon="6.73897">
        <ele>2414.49</ele>
        <time>2019-11-20T10:30:08Z</time>
      </trkpt>
      <trkpt lat="44.90659" lon="6.73901">
        <ele>2415.93</ele>
        <time>2019-11-20T10:30:24Z</time>
      </trkpt>
      <trkpt lat="44.90656" lon="6.73904">
        <ele>2417.37</ele>
        <time>2019-11-20T10:30:39Z</time>
      </trkpt>
      <trkpt lat="44.90653" lon="6.73905">
        <ele>2418.81</ele>
        <time>2019-11-20T10:30:52Z</time>
      </trkpt>
      <trkpt lat="44.90651" lon="6.73908">
        <ele>2420.26</ele>
        <time>2019-11-20T10:31:05Z</time>
      </trkpt>
      <trkpt lat="44.90647" lon="6.73912">
        <ele>2421.7</ele>
        <time>2019-11-20T10:31:21Z</time>
      </trkpt>
      <trkpt lat="44.90644" lon="6.73915">
        <ele>2423.14</ele>
        <time>2019-11-20T10:31:36Z</time>
      </trkpt>
      <trkpt lat="44.90642" lon="6.73918">
        <ele>2425.06</ele>
        <time>2019-11-20T10:31:51Z</time>
      </trkpt>
      <trkpt lat="44.90639" lon="6.73921">
        <ele>2426.5</ele>
        <time>2019-11-20T10:32:04Z</time>
      </trkpt>
      <trkpt lat="44.90636" lon="6.73923">
        <ele>2427.47</ele>
        <time>2019-11-20T10:32:17Z</time>
      </trkpt>
      <trkpt lat="44.90634" lon="6.73927">
        <ele>2428.91</ele>
        <time>2019-11-20T10:32:30Z</time>
      </trkpt>
      <trkpt lat="44.90632" lon="6.7393">
        <ele>2430.35</ele>
        <time>2019-11-20T10:32:44Z</time>
      </trkpt>
      <trkpt lat="44.9063" lon="6.73934">
        <ele>2432.27</ele>
        <time>2019-11-20T10:32:57Z</time>
      </trkpt>
      <trkpt lat="44.90628" lon="6.73937">
        <ele>2433.71</ele>
        <time>2019-11-20T10:33:13Z</time>
      </trkpt>
      <trkpt lat="44.90627" lon="6.7394">
        <ele>2435.16</ele>
        <time>2019-11-20T10:33:26Z</time>
      </trkpt>
      <trkpt lat="44.90626" lon="6.73944">
        <ele>2436.12</ele>
        <time>2019-11-20T10:33:38Z</time>
      </trkpt>
      <trkpt lat="44.90622" lon="6.73949">
        <ele>2437.56</ele>
        <time>2019-11-20T10:33:53Z</time>
      </trkpt>
      <trkpt lat="44.9062" lon="6.73952">
        <ele>2439</ele>
        <time>2019-11-20T10:34:06Z</time>
      </trkpt>
      <trkpt lat="44.90619" lon="6.73956">
        <ele>2439.96</ele>
        <time>2019-11-20T10:34:20Z</time>
      </trkpt>
      <trkpt lat="44.90617" lon="6.73961">
        <ele>2441.41</ele>
        <time>2019-11-20T10:34:34Z</time>
      </trkpt>
      <trkpt lat="44.90615" lon="6.73966">
        <ele>2442.85</ele>
        <time>2019-11-20T10:34:47Z</time>
      </trkpt>
      <trkpt lat="44.90615" lon="6.7397">
        <ele>2443.81</ele>
        <time>2019-11-20T10:35:00Z</time>
      </trkpt>
      <trkpt lat="44.90614" lon="6.73974">
        <ele>2445.25</ele>
        <time>2019-11-20T10:35:12Z</time>
      </trkpt>
      <trkpt lat="44.90611" lon="6.73979">
        <ele>2446.21</ele>
        <time>2019-11-20T10:35:26Z</time>
      </trkpt>
      <trkpt lat="44.90607" lon="6.73984">
        <ele>2447.17</ele>
        <time>2019-11-20T10:35:41Z</time>
      </trkpt>
      <trkpt lat="44.90603" lon="6.7399">
        <ele>2449.1</ele>
        <time>2019-11-20T10:35:56Z</time>
      </trkpt>
      <trkpt lat="44.90599" lon="6.73997">
        <ele>2450.06</ele>
        <time>2019-11-20T10:36:13Z</time>
      </trkpt>
      <trkpt lat="44.9059" lon="6.74004">
        <ele>2451.02</ele>
        <time>2019-11-20T10:36:29Z</time>
      </trkpt>
      <trkpt lat="44.90583" lon="6.7401">
        <ele>2451.98</ele>
        <time>2019-11-20T10:36:44Z</time>
      </trkpt>
      <trkpt lat="44.90577" lon="6.74016">
        <ele>2452.94</ele>
        <time>2019-11-20T10:37:00Z</time>
      </trkpt>
      <trkpt lat="44.90569" lon="6.74021">
        <ele>2453.9</ele>
        <time>2019-11-20T10:37:16Z</time>
      </trkpt>
      <trkpt lat="44.90563" lon="6.74032">
        <ele>2454.38</ele>
        <time>2019-11-20T10:37:34Z</time>
      </trkpt>
      <trkpt lat="44.9056" lon="6.74042">
        <ele>2455.82</ele>
        <time>2019-11-20T10:37:48Z</time>
      </trkpt>
      <trkpt lat="44.90559" lon="6.74052">
        <ele>2457.75</ele>
        <time>2019-11-20T10:38:04Z</time>
      </trkpt>
      <trkpt lat="44.90558" lon="6.74058">
        <ele>2458.23</ele>
        <time>2019-11-20T10:38:18Z</time>
      </trkpt>
      <trkpt lat="44.90557" lon="6.74065">
        <ele>2459.67</ele>
        <time>2019-11-20T10:38:30Z</time>
      </trkpt>
      <trkpt lat="44.90555" lon="6.74069">
        <ele>2460.63</ele>
        <time>2019-11-20T10:38:42Z</time>
      </trkpt>
      <trkpt lat="44.90553" lon="6.74076">
        <ele>2461.59</ele>
        <time>2019-11-20T10:38:55Z</time>
      </trkpt>
      <trkpt lat="44.90551" lon="6.74082">
        <ele>2463.04</ele>
        <time>2019-11-20T10:39:07Z</time>
      </trkpt>
      <trkpt lat="44.90548" lon="6.74092">
        <ele>2464</ele>
        <time>2019-11-20T10:39:25Z</time>
      </trkpt>
      <trkpt lat="44.90545" lon="6.741">
        <ele>2465.44</ele>
        <time>2019-11-20T10:39:39Z</time>
      </trkpt>
      <trkpt lat="44.90544" lon="6.74105">
        <ele>2466.4</ele>
        <time>2019-11-20T10:39:51Z</time>
      </trkpt>
      <trkpt lat="44.90541" lon="6.74115">
        <ele>2466.88</ele>
        <time>2019-11-20T10:40:05Z</time>
      </trkpt>
      <trkpt lat="44.9054" lon="6.74124">
        <ele>2467.36</ele>
        <time>2019-11-20T10:40:20Z</time>
      </trkpt>
      <trkpt lat="44.90538" lon="6.74135">
        <ele>2468.32</ele>
        <time>2019-11-20T10:40:38Z</time>
      </trkpt>
      <trkpt lat="44.90537" lon="6.74142">
        <ele>2469.76</ele>
        <time>2019-11-20T10:40:50Z</time>
      </trkpt>
      <trkpt lat="44.90537" lon="6.74145">
        <ele>2469.76</ele>
        <time>2019-11-20T10:40:53Z</time>
      </trkpt>
      <trkpt lat="44.90535" lon="6.74151">
        <ele>2470.73</ele>
        <time>2019-11-20T10:41:07Z</time>
      </trkpt>
      <trkpt lat="44.90533" lon="6.74158">
        <ele>2471.69</ele>
        <time>2019-11-20T10:41:19Z</time>
      </trkpt>
      <trkpt lat="44.9053" lon="6.74166">
        <ele>2473.61</ele>
        <time>2019-11-20T10:41:32Z</time>
      </trkpt>
      <trkpt lat="44.90529" lon="6.74174">
        <ele>2473.61</ele>
        <time>2019-11-20T10:41:45Z</time>
      </trkpt>
      <trkpt lat="44.90527" lon="6.74182">
        <ele>2475.53</ele>
        <time>2019-11-20T10:42:05Z</time>
      </trkpt>
      <trkpt lat="44.90528" lon="6.74195">
        <ele>2476.49</ele>
        <time>2019-11-20T10:42:20Z</time>
      </trkpt>
      <trkpt lat="44.90527" lon="6.74204">
        <ele>2476.97</ele>
        <time>2019-11-20T10:42:33Z</time>
      </trkpt>
      <trkpt lat="44.90527" lon="6.74206">
        <ele>2476.97</ele>
        <time>2019-11-20T10:42:35Z</time>
      </trkpt>
      <trkpt lat="44.90529" lon="6.74208">
        <ele>2477.45</ele>
        <time>2019-11-20T10:42:37Z</time>
      </trkpt>
      <trkpt lat="44.90532" lon="6.74217">
        <ele>2478.9</ele>
        <time>2019-11-20T10:42:50Z</time>
      </trkpt>
      <trkpt lat="44.90534" lon="6.74225">
        <ele>2477.45</ele>
        <time>2019-11-20T10:43:00Z</time>
      </trkpt>
      <trkpt lat="44.9054" lon="6.74244">
        <ele>2477.94</ele>
        <time>2019-11-20T10:43:16Z</time>
      </trkpt>
      <trkpt lat="44.90545" lon="6.74253">
        <ele>2477.94</ele>
        <time>2019-11-20T10:43:29Z</time>
      </trkpt>
      <trkpt lat="44.90547" lon="6.7426">
        <ele>2477.45</ele>
        <time>2019-11-20T10:43:36Z</time>
      </trkpt>
      <trkpt lat="44.9055" lon="6.74274">
        <ele>2477.45</ele>
        <time>2019-11-20T10:43:50Z</time>
      </trkpt>
      <trkpt lat="44.90552" lon="6.74287">
        <ele>2478.42</ele>
        <time>2019-11-20T10:44:06Z</time>
      </trkpt>
      <trkpt lat="44.90555" lon="6.74295">
        <ele>2478.9</ele>
        <time>2019-11-20T10:44:19Z</time>
      </trkpt>
      <trkpt lat="44.90557" lon="6.74303">
        <ele>2480.34</ele>
        <time>2019-11-20T10:44:31Z</time>
      </trkpt>
      <trkpt lat="44.9056" lon="6.74309">
        <ele>2480.82</ele>
        <time>2019-11-20T10:44:45Z</time>
      </trkpt>
      <trkpt lat="44.9056" lon="6.74318">
        <ele>2482.26</ele>
        <time>2019-11-20T10:45:00Z</time>
      </trkpt>
      <trkpt lat="44.90561" lon="6.74327">
        <ele>2484.18</ele>
        <time>2019-11-20T10:45:13Z</time>
      </trkpt>
      <trkpt lat="44.90561" lon="6.74332">
        <ele>2484.66</ele>
        <time>2019-11-20T10:45:26Z</time>
      </trkpt>
      <trkpt lat="44.90563" lon="6.74339">
        <ele>2486.59</ele>
        <time>2019-11-20T10:45:40Z</time>
      </trkpt>
      <trkpt lat="44.90566" lon="6.74346">
        <ele>2486.59</ele>
        <time>2019-11-20T10:45:53Z</time>
      </trkpt>
      <trkpt lat="44.9057" lon="6.74355">
        <ele>2487.07</ele>
        <time>2019-11-20T10:46:08Z</time>
      </trkpt>
      <trkpt lat="44.9057" lon="6.74362">
        <ele>2488.51</ele>
        <time>2019-11-20T10:46:22Z</time>
      </trkpt>
      <trkpt lat="44.90573" lon="6.74372">
        <ele>2488.51</ele>
        <time>2019-11-20T10:46:36Z</time>
      </trkpt>
      <trkpt lat="44.9058" lon="6.74383">
        <ele>2488.51</ele>
        <time>2019-11-20T10:46:48Z</time>
      </trkpt>
      <trkpt lat="44.90584" lon="6.7439">
        <ele>2488.99</ele>
        <time>2019-11-20T10:46:57Z</time>
      </trkpt>
      <trkpt lat="44.90589" lon="6.74398">
        <ele>2489.47</ele>
        <time>2019-11-20T10:47:10Z</time>
      </trkpt>
      <trkpt lat="44.90591" lon="6.74407">
        <ele>2490.43</ele>
        <time>2019-11-20T10:47:24Z</time>
      </trkpt>
      <trkpt lat="44.90591" lon="6.74415">
        <ele>2491.87</ele>
        <time>2019-11-20T10:47:40Z</time>
      </trkpt>
      <trkpt lat="44.90592" lon="6.7442">
        <ele>2493.32</ele>
        <time>2019-11-20T10:47:54Z</time>
      </trkpt>
      <trkpt lat="44.90594" lon="6.74425">
        <ele>2494.28</ele>
        <time>2019-11-20T10:48:06Z</time>
      </trkpt>
      <trkpt lat="44.90595" lon="6.74429">
        <ele>2495.72</ele>
        <time>2019-11-20T10:48:21Z</time>
      </trkpt>
      <trkpt lat="44.90598" lon="6.74432">
        <ele>2497.64</ele>
        <time>2019-11-20T10:48:35Z</time>
      </trkpt>
      <trkpt lat="44.90599" lon="6.74435">
        <ele>2498.6</ele>
        <time>2019-11-20T10:48:48Z</time>
      </trkpt>
      <trkpt lat="44.90599" lon="6.74439">
        <ele>2499.57</ele>
        <time>2019-11-20T10:49:00Z</time>
      </trkpt>
      <trkpt lat="44.90598" lon="6.74443">
        <ele>2501.01</ele>
        <time>2019-11-20T10:49:13Z</time>
      </trkpt>
      <trkpt lat="44.90599" lon="6.74447">
        <ele>2501.97</ele>
        <time>2019-11-20T10:49:26Z</time>
      </trkpt>
      <trkpt lat="44.90601" lon="6.7445">
        <ele>2503.41</ele>
        <time>2019-11-20T10:49:40Z</time>
      </trkpt>
      <trkpt lat="44.90605" lon="6.74452">
        <ele>2504.37</ele>
        <time>2019-11-20T10:49:52Z</time>
      </trkpt>
      <trkpt lat="44.90608" lon="6.74457">
        <ele>2505.81</ele>
        <time>2019-11-20T10:50:05Z</time>
      </trkpt>
      <trkpt lat="44.9061" lon="6.7446">
        <ele>2506.77</ele>
        <time>2019-11-20T10:50:17Z</time>
      </trkpt>
      <trkpt lat="44.90611" lon="6.74464">
        <ele>2507.74</ele>
        <time>2019-11-20T10:50:29Z</time>
      </trkpt>
      <trkpt lat="44.90611" lon="6.7447">
        <ele>2507.74</ele>
        <time>2019-11-20T10:50:42Z</time>
      </trkpt>
      <trkpt lat="44.90612" lon="6.74474">
        <ele>2508.7</ele>
        <time>2019-11-20T10:50:54Z</time>
      </trkpt>
      <trkpt lat="44.90613" lon="6.7448">
        <ele>2509.18</ele>
        <time>2019-11-20T10:51:06Z</time>
      </trkpt>
      <trkpt lat="44.90613" lon="6.74482">
        <ele>2509.66</ele>
        <time>2019-11-20T10:51:22Z</time>
      </trkpt>
      <trkpt lat="44.90614" lon="6.74486">
        <ele>2510.14</ele>
        <time>2019-11-20T10:51:40Z</time>
      </trkpt>
      <trkpt lat="44.90616" lon="6.74494">
        <ele>2510.62</ele>
        <time>2019-11-20T10:51:52Z</time>
      </trkpt>
      <trkpt lat="44.90616" lon="6.745">
        <ele>2511.58</ele>
        <time>2019-11-20T10:52:06Z</time>
      </trkpt>
      <trkpt lat="44.90618" lon="6.74507">
        <ele>2513.5</ele>
        <time>2019-11-20T10:52:22Z</time>
      </trkpt>
      <trkpt lat="44.90621" lon="6.74513">
        <ele>2514.47</ele>
        <time>2019-11-20T10:52:37Z</time>
      </trkpt>
      <trkpt lat="44.90622" lon="6.74518">
        <ele>2515.91</ele>
        <time>2019-11-20T10:52:50Z</time>
      </trkpt>
      <trkpt lat="44.90624" lon="6.74523">
        <ele>2516.39</ele>
        <time>2019-11-20T10:53:02Z</time>
      </trkpt>
      <trkpt lat="44.90626" lon="6.74529">
        <ele>2518.31</ele>
        <time>2019-11-20T10:53:16Z</time>
      </trkpt>
      <trkpt lat="44.90626" lon="6.74535">
        <ele>2519.27</ele>
        <time>2019-11-20T10:53:29Z</time>
      </trkpt>
      <trkpt lat="44.90628" lon="6.74542">
        <ele>2520.23</ele>
        <time>2019-11-20T10:53:42Z</time>
      </trkpt>
      <trkpt lat="44.9063" lon="6.74547">
        <ele>2521.19</ele>
        <time>2019-11-20T10:53:53Z</time>
      </trkpt>
      <trkpt lat="44.90632" lon="6.74555">
        <ele>2521.68</ele>
        <time>2019-11-20T10:54:07Z</time>
      </trkpt>
      <trkpt lat="44.90634" lon="6.74565">
        <ele>2522.64</ele>
        <time>2019-11-20T10:54:23Z</time>
      </trkpt>
      <trkpt lat="44.90636" lon="6.74575">
        <ele>2523.6</ele>
        <time>2019-11-20T10:54:38Z</time>
      </trkpt>
      <trkpt lat="44.90637" lon="6.74582">
        <ele>2525.04</ele>
        <time>2019-11-20T10:54:51Z</time>
      </trkpt>
      <trkpt lat="44.9064" lon="6.74594">
        <ele>2525.52</ele>
        <time>2019-11-20T10:55:07Z</time>
      </trkpt>
      <trkpt lat="44.90644" lon="6.74606">
        <ele>2526</ele>
        <time>2019-11-20T10:55:22Z</time>
      </trkpt>
      <trkpt lat="44.90646" lon="6.74615">
        <ele>2526.96</ele>
        <time>2019-11-20T10:55:38Z</time>
      </trkpt>
      <trkpt lat="44.90648" lon="6.74622">
        <ele>2527.92</ele>
        <time>2019-11-20T10:55:50Z</time>
      </trkpt>
      <trkpt lat="44.90651" lon="6.74629">
        <ele>2528.89</ele>
        <time>2019-11-20T10:56:02Z</time>
      </trkpt>
      <trkpt lat="44.90652" lon="6.74636">
        <ele>2529.85</ele>
        <time>2019-11-20T10:56:18Z</time>
      </trkpt>
      <trkpt lat="44.90655" lon="6.74641">
        <ele>2531.29</ele>
        <time>2019-11-20T10:56:37Z</time>
      </trkpt>
      <trkpt lat="44.90657" lon="6.74648">
        <ele>2531.29</ele>
        <time>2019-11-20T10:56:53Z</time>
      </trkpt>
      <trkpt lat="44.90658" lon="6.74659">
        <ele>2531.77</ele>
        <time>2019-11-20T10:57:06Z</time>
      </trkpt>
      <trkpt lat="44.90662" lon="6.74672">
        <ele>2532.73</ele>
        <time>2019-11-20T10:57:22Z</time>
      </trkpt>
      <trkpt lat="44.90665" lon="6.74681">
        <ele>2533.69</ele>
        <time>2019-11-20T10:57:37Z</time>
      </trkpt>
      <trkpt lat="44.90667" lon="6.7469">
        <ele>2534.65</ele>
        <time>2019-11-20T10:57:51Z</time>
      </trkpt>
      <trkpt lat="44.90669" lon="6.74701">
        <ele>2535.61</ele>
        <time>2019-11-20T10:58:07Z</time>
      </trkpt>
      <trkpt lat="44.90669" lon="6.74718">
        <ele>2536.1</ele>
        <time>2019-11-20T10:58:22Z</time>
      </trkpt>
      <trkpt lat="44.90669" lon="6.74722">
        <ele>2536.1</ele>
        <time>2019-11-20T10:58:25Z</time>
      </trkpt>
      <trkpt lat="44.9067" lon="6.74728">
        <ele>2535.61</ele>
        <time>2019-11-20T10:58:29Z</time>
      </trkpt>
      <trkpt lat="44.90674" lon="6.74748">
        <ele>2535.61</ele>
        <time>2019-11-20T10:58:46Z</time>
      </trkpt>
      <trkpt lat="44.90679" lon="6.74758">
        <ele>2536.58</ele>
        <time>2019-11-20T10:59:01Z</time>
      </trkpt>
      <trkpt lat="44.90682" lon="6.74768">
        <ele>2537.54</ele>
        <time>2019-11-20T10:59:15Z</time>
      </trkpt>
      <trkpt lat="44.90684" lon="6.74775">
        <ele>2538.5</ele>
        <time>2019-11-20T10:59:29Z</time>
      </trkpt>
      <trkpt lat="44.90683" lon="6.74781">
        <ele>2539.94</ele>
        <time>2019-11-20T10:59:43Z</time>
      </trkpt>
      <trkpt lat="44.90683" lon="6.74789">
        <ele>2540.9</ele>
        <time>2019-11-20T10:59:55Z</time>
      </trkpt>
      <trkpt lat="44.90685" lon="6.74797">
        <ele>2541.38</ele>
        <time>2019-11-20T11:00:06Z</time>
      </trkpt>
      <trkpt lat="44.90684" lon="6.74803">
        <ele>2542.34</ele>
        <time>2019-11-20T11:00:20Z</time>
      </trkpt>
      <trkpt lat="44.90685" lon="6.74809">
        <ele>2543.31</ele>
        <time>2019-11-20T11:00:32Z</time>
      </trkpt>
      <trkpt lat="44.90684" lon="6.74813">
        <ele>2544.27</ele>
        <time>2019-11-20T11:00:45Z</time>
      </trkpt>
      <trkpt lat="44.90683" lon="6.74819">
        <ele>2545.71</ele>
        <time>2019-11-20T11:00:59Z</time>
      </trkpt>
      <trkpt lat="44.90682" lon="6.74823">
        <ele>2546.67</ele>
        <time>2019-11-20T11:01:10Z</time>
      </trkpt>
      <trkpt lat="44.90681" lon="6.74826">
        <ele>2547.63</ele>
        <time>2019-11-20T11:01:20Z</time>
      </trkpt>
      <trkpt lat="44.9068" lon="6.7483">
        <ele>2548.59</ele>
        <time>2019-11-20T11:01:31Z</time>
      </trkpt>
      <trkpt lat="44.90679" lon="6.74834">
        <ele>2549.55</ele>
        <time>2019-11-20T11:01:42Z</time>
      </trkpt>
      <trkpt lat="44.90679" lon="6.74834">
        <ele>2550.51</ele>
        <time>2019-11-20T11:01:55Z</time>
      </trkpt>
      <trkpt lat="44.90677" lon="6.74836">
        <ele>2551.48</ele>
        <time>2019-11-20T11:02:07Z</time>
      </trkpt>
      <trkpt lat="44.90674" lon="6.74839">
        <ele>2552.92</ele>
        <time>2019-11-20T11:02:21Z</time>
      </trkpt>
      <trkpt lat="44.90673" lon="6.74843">
        <ele>2553.88</ele>
        <time>2019-11-20T11:02:34Z</time>
      </trkpt>
      <trkpt lat="44.90672" lon="6.74847">
        <ele>2555.32</ele>
        <time>2019-11-20T11:02:46Z</time>
      </trkpt>
      <trkpt lat="44.90671" lon="6.7485">
        <ele>2555.8</ele>
        <time>2019-11-20T11:02:59Z</time>
      </trkpt>
      <trkpt lat="44.90671" lon="6.74855">
        <ele>2557.73</ele>
        <time>2019-11-20T11:03:14Z</time>
      </trkpt>
      <trkpt lat="44.9067" lon="6.7486">
        <ele>2558.69</ele>
        <time>2019-11-20T11:03:30Z</time>
      </trkpt>
      <trkpt lat="44.90671" lon="6.74864">
        <ele>2559.65</ele>
        <time>2019-11-20T11:03:43Z</time>
      </trkpt>
      <trkpt lat="44.90671" lon="6.74869">
        <ele>2561.09</ele>
        <time>2019-11-20T11:03:56Z</time>
      </trkpt>
      <trkpt lat="44.90671" lon="6.74873">
        <ele>2562.05</ele>
        <time>2019-11-20T11:04:10Z</time>
      </trkpt>
      <trkpt lat="44.90672" lon="6.74879">
        <ele>2563.49</ele>
        <time>2019-11-20T11:04:25Z</time>
      </trkpt>
      <trkpt lat="44.90672" lon="6.74884">
        <ele>2564.45</ele>
        <time>2019-11-20T11:04:37Z</time>
      </trkpt>
      <trkpt lat="44.90672" lon="6.74888">
        <ele>2565.42</ele>
        <time>2019-11-20T11:04:51Z</time>
      </trkpt>
      <trkpt lat="44.90668" lon="6.74887">
        <ele>2566.86</ele>
        <time>2019-11-20T11:05:04Z</time>
      </trkpt>
      <trkpt lat="44.90665" lon="6.74887">
        <ele>2567.34</ele>
        <time>2019-11-20T11:05:18Z</time>
      </trkpt>
      <trkpt lat="44.90662" lon="6.74887">
        <ele>2570.22</ele>
        <time>2019-11-20T11:05:30Z</time>
      </trkpt>
      <trkpt lat="44.90658" lon="6.74888">
        <ele>2569.74</ele>
        <time>2019-11-20T11:05:44Z</time>
      </trkpt>
      <trkpt lat="44.90657" lon="6.74893">
        <ele>2571.18</ele>
        <time>2019-11-20T11:05:57Z</time>
      </trkpt>
      <trkpt lat="44.90655" lon="6.74897">
        <ele>2572.63</ele>
        <time>2019-11-20T11:06:11Z</time>
      </trkpt>
      <trkpt lat="44.90653" lon="6.74903">
        <ele>2573.59</ele>
        <time>2019-11-20T11:06:26Z</time>
      </trkpt>
      <trkpt lat="44.90653" lon="6.7491">
        <ele>2574.55</ele>
        <time>2019-11-20T11:06:41Z</time>
      </trkpt>
      <trkpt lat="44.90653" lon="6.74917">
        <ele>2575.51</ele>
        <time>2019-11-20T11:06:55Z</time>
      </trkpt>
      <trkpt lat="44.90653" lon="6.74923">
        <ele>2575.99</ele>
        <time>2019-11-20T11:07:09Z</time>
      </trkpt>
      <trkpt lat="44.90654" lon="6.74929">
        <ele>2577.43</ele>
        <time>2019-11-20T11:07:23Z</time>
      </trkpt>
      <trkpt lat="44.90655" lon="6.74934">
        <ele>2577.91</ele>
        <time>2019-11-20T11:07:35Z</time>
      </trkpt>
      <trkpt lat="44.90656" lon="6.7494">
        <ele>2578.87</ele>
        <time>2019-11-20T11:07:47Z</time>
      </trkpt>
      <trkpt lat="44.90657" lon="6.74947">
        <ele>2579.84</ele>
        <time>2019-11-20T11:08:01Z</time>
      </trkpt>
      <trkpt lat="44.90657" lon="6.74953">
        <ele>2580.8</ele>
        <time>2019-11-20T11:08:15Z</time>
      </trkpt>
      <trkpt lat="44.9066" lon="6.74959">
        <ele>2581.76</ele>
        <time>2019-11-20T11:08:29Z</time>
      </trkpt>
      <trkpt lat="44.90663" lon="6.74966">
        <ele>2583.68</ele>
        <time>2019-11-20T11:08:44Z</time>
      </trkpt>
      <trkpt lat="44.90664" lon="6.74973">
        <ele>2584.64</ele>
        <time>2019-11-20T11:08:57Z</time>
      </trkpt>
      <trkpt lat="44.90666" lon="6.74978">
        <ele>2585.6</ele>
        <time>2019-11-20T11:09:10Z</time>
      </trkpt>
      <trkpt lat="44.90666" lon="6.7498">
        <ele>2585.6</ele>
        <time>2019-11-20T11:09:28Z</time>
      </trkpt>
      <trkpt lat="44.90666" lon="6.7498">
        <ele>2585.6</ele>
        <time>2019-11-20T11:09:43Z</time>
      </trkpt>
      <trkpt lat="44.90665" lon="6.74982">
        <ele>2586.08</ele>
        <time>2019-11-20T11:10:02Z</time>
      </trkpt>
      <trkpt lat="44.90666" lon="6.74985">
        <ele>2586.56</ele>
        <time>2019-11-20T11:10:19Z</time>
      </trkpt>
      <trkpt lat="44.90672" lon="6.74981">
        <ele>2586.08</ele>
        <time>2019-11-20T11:10:35Z</time>
      </trkpt>
      <trkpt lat="44.9067" lon="6.74983">
        <ele>2586.08</ele>
        <time>2019-11-20T11:10:50Z</time>
      </trkpt>
      <trkpt lat="44.90668" lon="6.74981">
        <ele>2586.56</ele>
        <time>2019-11-20T11:11:05Z</time>
      </trkpt>
      <trkpt lat="44.90668" lon="6.74978">
        <ele>2585.6</ele>
        <time>2019-11-20T11:11:23Z</time>
      </trkpt>
      <trkpt lat="44.9067" lon="6.74976">
        <ele>2585.6</ele>
        <time>2019-11-20T11:12:03Z</time>
      </trkpt>
      <trkpt lat="44.90672" lon="6.74977">
        <ele>2585.6</ele>
        <time>2019-11-20T11:12:36Z</time>
      </trkpt>
      <trkpt lat="44.90671" lon="6.74976">
        <ele>2585.6</ele>
        <time>2019-11-20T11:13:18Z</time>
      </trkpt>
      <trkpt lat="44.90671" lon="6.74977">
        <ele>2586.08</ele>
        <time>2019-11-20T11:13:57Z</time>
      </trkpt>
      <trkpt lat="44.90669" lon="6.74978">
        <ele>2586.08</ele>
        <time>2019-11-20T11:14:32Z</time>
      </trkpt>
      <trkpt lat="44.90671" lon="6.74976">
        <ele>2586.56</ele>
        <time>2019-11-20T11:15:04Z</time>
      </trkpt>
      <trkpt lat="44.90669" lon="6.74977">
        <ele>2586.56</ele>
        <time>2019-11-20T11:15:39Z</time>
      </trkpt>
      <trkpt lat="44.90671" lon="6.74982">
        <ele>2587.04</ele>
        <time>2019-11-20T11:16:17Z</time>
      </trkpt>
      <trkpt lat="44.90669" lon="6.74984">
        <ele>2587.04</ele>
        <time>2019-11-20T11:16:41Z</time>
      </trkpt>
      <trkpt lat="44.90669" lon="6.74985">
        <ele>2587.04</ele>
        <time>2019-11-20T11:17:04Z</time>
      </trkpt>
      <trkpt lat="44.90669" lon="6.74982">
        <ele>2587.04</ele>
        <time>2019-11-20T11:17:39Z</time>
      </trkpt>
      <trkpt lat="44.90669" lon="6.74983">
        <ele>2587.04</ele>
        <time>2019-11-20T11:18:08Z</time>
      </trkpt>
      <trkpt lat="44.90671" lon="6.7498">
        <ele>2587.04</ele>
        <time>2019-11-20T11:18:41Z</time>
      </trkpt>
      <trkpt lat="44.9067" lon="6.74979">
        <ele>2587.53</ele>
        <time>2019-11-20T11:19:09Z</time>
      </trkpt>
      <trkpt lat="44.90669" lon="6.74979">
        <ele>2587.53</ele>
        <time>2019-11-20T11:19:36Z</time>
      </trkpt>
      <trkpt lat="44.90671" lon="6.74981">
        <ele>2587.53</ele>
        <time>2019-11-20T11:20:11Z</time>
      </trkpt>
      <trkpt lat="44.90672" lon="6.74979">
        <ele>2587.53</ele>
        <time>2019-11-20T11:20:38Z</time>
      </trkpt>
      <trkpt lat="44.9067" lon="6.74979">
        <ele>2587.53</ele>
        <time>2019-11-20T11:21:24Z</time>
      </trkpt>
      <trkpt lat="44.90671" lon="6.74981">
        <ele>2588.01</ele>
        <time>2019-11-20T11:21:56Z</time>
      </trkpt>
      <trkpt lat="44.9067" lon="6.74978">
        <ele>2588.01</ele>
        <time>2019-11-20T11:22:42Z</time>
      </trkpt>
      <trkpt lat="44.90669" lon="6.7498">
        <ele>2588.49</ele>
        <time>2019-11-20T11:23:33Z</time>
      </trkpt>
      <trkpt lat="44.9067" lon="6.7498">
        <ele>2588.49</ele>
        <time>2019-11-20T11:24:06Z</time>
      </trkpt>
      <trkpt lat="44.9067" lon="6.74979">
        <ele>2588.49</ele>
        <time>2019-11-20T11:24:53Z</time>
      </trkpt>
      <trkpt lat="44.90667" lon="6.74982">
        <ele>2588.49</ele>
        <time>2019-11-20T11:25:40Z</time>
      </trkpt>
      <trkpt lat="44.90669" lon="6.74981">
        <ele>2588.49</ele>
        <time>2019-11-20T11:26:16Z</time>
      </trkpt>
      <trkpt lat="44.90667" lon="6.7498">
        <ele>2588.49</ele>
        <time>2019-11-20T11:27:00Z</time>
      </trkpt>
      <trkpt lat="44.90667" lon="6.7498">
        <ele>2588.49</ele>
        <time>2019-11-20T11:27:41Z</time>
      </trkpt>
      <trkpt lat="44.90669" lon="6.74981">
        <ele>2588.49</ele>
        <time>2019-11-20T11:28:17Z</time>
      </trkpt>
      <trkpt lat="44.90669" lon="6.74981">
        <ele>2588.49</ele>
        <time>2019-11-20T11:29:06Z</time>
      </trkpt>
      <trkpt lat="44.90672" lon="6.74979">
        <ele>2588.97</ele>
        <time>2019-11-20T11:29:51Z</time>
      </trkpt>
      <trkpt lat="44.90672" lon="6.74979">
        <ele>2588.97</ele>
        <time>2019-11-20T11:30:26Z</time>
      </trkpt>
      <trkpt lat="44.90669" lon="6.74979">
        <ele>2588.49</ele>
        <time>2019-11-20T11:31:00Z</time>
      </trkpt>
      <trkpt lat="44.9067" lon="6.74981">
        <ele>2588.49</ele>
        <time>2019-11-20T11:31:32Z</time>
      </trkpt>
      <trkpt lat="44.90668" lon="6.74981">
        <ele>2588.01</ele>
        <time>2019-11-20T11:32:12Z</time>
      </trkpt>
      <trkpt lat="44.90671" lon="6.7498">
        <ele>2588.01</ele>
        <time>2019-11-20T11:32:54Z</time>
      </trkpt>
      <trkpt lat="44.90671" lon="6.7498">
        <ele>2588.01</ele>
        <time>2019-11-20T11:33:23Z</time>
      </trkpt>
      <trkpt lat="44.90674" lon="6.74986">
        <ele>2587.53</ele>
        <time>2019-11-20T11:34:01Z</time>
      </trkpt>
      <trkpt lat="44.90674" lon="6.74981">
        <ele>2588.01</ele>
        <time>2019-11-20T11:34:32Z</time>
      </trkpt>
      <trkpt lat="44.90672" lon="6.74983">
        <ele>2588.01</ele>
        <time>2019-11-20T11:35:00Z</time>
      </trkpt>
      <trkpt lat="44.90673" lon="6.74981">
        <ele>2588.01</ele>
        <time>2019-11-20T11:35:35Z</time>
      </trkpt>
      <trkpt lat="44.90672" lon="6.74983">
        <ele>2588.01</ele>
        <time>2019-11-20T11:36:00Z</time>
      </trkpt>
      <trkpt lat="44.90675" lon="6.74983">
        <ele>2588.49</ele>
        <time>2019-11-20T11:36:31Z</time>
      </trkpt>
      <trkpt lat="44.9067" lon="6.74985">
        <ele>2588.49</ele>
        <time>2019-11-20T11:36:46Z</time>
      </trkpt>
      <trkpt lat="44.90666" lon="6.74985">
        <ele>2588.01</ele>
        <time>2019-11-20T11:37:02Z</time>
      </trkpt>
      <trkpt lat="44.90672" lon="6.74984">
        <ele>2588.01</ele>
        <time>2019-11-20T11:37:23Z</time>
      </trkpt>
      <trkpt lat="44.90672" lon="6.74984">
        <ele>2588.49</ele>
        <time>2019-11-20T11:37:41Z</time>
      </trkpt>
      <trkpt lat="44.90671" lon="6.74985">
        <ele>2588.01</ele>
        <time>2019-11-20T11:38:03Z</time>
      </trkpt>
      <trkpt lat="44.90675" lon="6.74981">
        <ele>2588.01</ele>
        <time>2019-11-20T11:38:17Z</time>
      </trkpt>
      <trkpt lat="44.90673" lon="6.74982">
        <ele>2587.53</ele>
        <time>2019-11-20T11:38:31Z</time>
      </trkpt>
      <trkpt lat="44.90673" lon="6.74982">
        <ele>2587.53</ele>
        <time>2019-11-20T11:38:49Z</time>
      </trkpt>
      <trkpt lat="44.90673" lon="6.74981">
        <ele>2587.04</ele>
        <time>2019-11-20T11:39:06Z</time>
      </trkpt>
      <trkpt lat="44.90673" lon="6.74979">
        <ele>2587.04</ele>
        <time>2019-11-20T11:39:26Z</time>
      </trkpt>
      <trkpt lat="44.90673" lon="6.7498">
        <ele>2587.04</ele>
        <time>2019-11-20T11:39:47Z</time>
      </trkpt>
      <trkpt lat="44.90671" lon="6.74979">
        <ele>2587.04</ele>
        <time>2019-11-20T11:40:07Z</time>
      </trkpt>
      <trkpt lat="44.90671" lon="6.74978">
        <ele>2586.56</ele>
        <time>2019-11-20T11:40:17Z</time>
      </trkpt>
      <trkpt lat="44.90664" lon="6.7497">
        <ele>2585.12</ele>
        <time>2019-11-20T11:40:22Z</time>
      </trkpt>
      <trkpt lat="44.90662" lon="6.7497">
        <ele>2585.12</ele>
        <time>2019-11-20T11:40:23Z</time>
      </trkpt>
      <trkpt lat="44.90663" lon="6.7497">
        <ele>2585.12</ele>
        <time>2019-11-20T11:40:38Z</time>
      </trkpt>
      <trkpt lat="44.90663" lon="6.74973">
        <ele>2584.64</ele>
        <time>2019-11-20T11:40:56Z</time>
      </trkpt>
      <trkpt lat="44.90662" lon="6.74969">
        <ele>2584.64</ele>
        <time>2019-11-20T11:41:11Z</time>
      </trkpt>
      <trkpt lat="44.90663" lon="6.74966">
        <ele>2584.16</ele>
        <time>2019-11-20T11:41:14Z</time>
      </trkpt>
      <trkpt lat="44.90664" lon="6.74964">
        <ele>2583.68</ele>
        <time>2019-11-20T11:41:15Z</time>
      </trkpt>
      <trkpt lat="44.90666" lon="6.74963">
        <ele>2583.68</ele>
        <time>2019-11-20T11:41:16Z</time>
      </trkpt>
      <trkpt lat="44.90667" lon="6.74962">
        <ele>2583.2</ele>
        <time>2019-11-20T11:41:17Z</time>
      </trkpt>
      <trkpt lat="44.90669" lon="6.7496">
        <ele>2583.2</ele>
        <time>2019-11-20T11:41:18Z</time>
      </trkpt>
      <trkpt lat="44.9067" lon="6.74956">
        <ele>2582.72</ele>
        <time>2019-11-20T11:41:19Z</time>
      </trkpt>
      <trkpt lat="44.9067" lon="6.74941">
        <ele>2579.35</ele>
        <time>2019-11-20T11:41:22Z</time>
      </trkpt>
      <trkpt lat="44.90672" lon="6.74931">
        <ele>2578.39</ele>
        <time>2019-11-20T11:41:24Z</time>
      </trkpt>
      <trkpt lat="44.90672" lon="6.74927">
        <ele>2578.39</ele>
        <time>2019-11-20T11:41:25Z</time>
      </trkpt>
      <trkpt lat="44.90668" lon="6.7492">
        <ele>2576.47</ele>
        <time>2019-11-20T11:41:34Z</time>
      </trkpt>
      <trkpt lat="44.90669" lon="6.74921">
        <ele>2575.99</ele>
        <time>2019-11-20T11:42:00Z</time>
      </trkpt>
      <trkpt lat="44.90665" lon="6.7492">
        <ele>2575.51</ele>
        <time>2019-11-20T11:42:17Z</time>
      </trkpt>
      <trkpt lat="44.90666" lon="6.7492">
        <ele>2575.03</ele>
        <time>2019-11-20T11:42:44Z</time>
      </trkpt>
      <trkpt lat="44.90666" lon="6.74922">
        <ele>2575.03</ele>
        <time>2019-11-20T11:43:10Z</time>
      </trkpt>
      <trkpt lat="44.90665" lon="6.74922">
        <ele>2575.03</ele>
        <time>2019-11-20T11:43:31Z</time>
      </trkpt>
      <trkpt lat="44.90665" lon="6.74919">
        <ele>2574.55</ele>
        <time>2019-11-20T11:43:55Z</time>
      </trkpt>
      <trkpt lat="44.90664" lon="6.74919">
        <ele>2574.55</ele>
        <time>2019-11-20T11:44:10Z</time>
      </trkpt>
      <trkpt lat="44.90661" lon="6.749">
        <ele>2571.18</ele>
        <time>2019-11-20T11:44:15Z</time>
      </trkpt>
      <trkpt lat="44.90665" lon="6.74892">
        <ele>2568.3</ele>
        <time>2019-11-20T11:44:17Z</time>
      </trkpt>
      <trkpt lat="44.90673" lon="6.74879">
        <ele>2563.01</ele>
        <time>2019-11-20T11:44:21Z</time>
      </trkpt>
      <trkpt lat="44.90678" lon="6.74861">
        <ele>2558.21</ele>
        <time>2019-11-20T11:44:24Z</time>
      </trkpt>
      <trkpt lat="44.90684" lon="6.74854">
        <ele>2554.36</ele>
        <time>2019-11-20T11:44:26Z</time>
      </trkpt>
      <trkpt lat="44.90686" lon="6.74841">
        <ele>2550.51</ele>
        <time>2019-11-20T11:44:28Z</time>
      </trkpt>
      <trkpt lat="44.90689" lon="6.74834">
        <ele>2547.15</ele>
        <time>2019-11-20T11:44:29Z</time>
      </trkpt>
      <trkpt lat="44.9069" lon="6.7482">
        <ele>2543.31</ele>
        <time>2019-11-20T11:44:31Z</time>
      </trkpt>
      <trkpt lat="44.90686" lon="6.74799">
        <ele>2540.42</ele>
        <time>2019-11-20T11:44:34Z</time>
      </trkpt>
      <trkpt lat="44.90689" lon="6.74778">
        <ele>2538.02</ele>
        <time>2019-11-20T11:44:37Z</time>
      </trkpt>
      <trkpt lat="44.90682" lon="6.7474">
        <ele>2532.25</ele>
        <time>2019-11-20T11:44:42Z</time>
      </trkpt>
      <trkpt lat="44.90677" lon="6.74724">
        <ele>2531.29</ele>
        <time>2019-11-20T11:44:44Z</time>
      </trkpt>
      <trkpt lat="44.9067" lon="6.74709">
        <ele>2533.69</ele>
        <time>2019-11-20T11:44:48Z</time>
      </trkpt>
      <trkpt lat="44.9067" lon="6.74706">
        <ele>2534.17</ele>
        <time>2019-11-20T11:45:02Z</time>
      </trkpt>
      <trkpt lat="44.9067" lon="6.747">
        <ele>2534.17</ele>
        <time>2019-11-20T11:45:19Z</time>
      </trkpt>
      <trkpt lat="44.9067" lon="6.747">
        <ele>2534.17</ele>
        <time>2019-11-20T11:45:40Z</time>
      </trkpt>
      <trkpt lat="44.90669" lon="6.74701">
        <ele>2534.17</ele>
        <time>2019-11-20T11:46:09Z</time>
      </trkpt>
      <trkpt lat="44.9067" lon="6.74699">
        <ele>2533.69</ele>
        <time>2019-11-20T11:46:22Z</time>
      </trkpt>
      <trkpt lat="44.9066" lon="6.74672">
        <ele>2530.33</ele>
        <time>2019-11-20T11:46:28Z</time>
      </trkpt>
      <trkpt lat="44.90659" lon="6.74664">
        <ele>2529.37</ele>
        <time>2019-11-20T11:46:29Z</time>
      </trkpt>
      <trkpt lat="44.90652" lon="6.74636">
        <ele>2528.4</ele>
        <time>2019-11-20T11:46:34Z</time>
      </trkpt>
      <trkpt lat="44.90646" lon="6.74613">
        <ele>2523.6</ele>
        <time>2019-11-20T11:46:37Z</time>
      </trkpt>
      <trkpt lat="44.90643" lon="6.74596">
        <ele>2522.64</ele>
        <time>2019-11-20T11:46:39Z</time>
      </trkpt>
      <trkpt lat="44.90631" lon="6.74559">
        <ele>2520.23</ele>
        <time>2019-11-20T11:46:45Z</time>
      </trkpt>
      <trkpt lat="44.90624" lon="6.74535">
        <ele>2517.35</ele>
        <time>2019-11-20T11:46:50Z</time>
      </trkpt>
      <trkpt lat="44.90618" lon="6.74532">
        <ele>2516.39</ele>
        <time>2019-11-20T11:46:52Z</time>
      </trkpt>
      <trkpt lat="44.90611" lon="6.7453">
        <ele>2515.91</ele>
        <time>2019-11-20T11:46:54Z</time>
      </trkpt>
      <trkpt lat="44.90607" lon="6.74512">
        <ele>2512.54</ele>
        <time>2019-11-20T11:46:58Z</time>
      </trkpt>
      <trkpt lat="44.90604" lon="6.74492">
        <ele>2509.18</ele>
        <time>2019-11-20T11:47:02Z</time>
      </trkpt>
      <trkpt lat="44.90604" lon="6.74481">
        <ele>2509.18</ele>
        <time>2019-11-20T11:47:08Z</time>
      </trkpt>
      <trkpt lat="44.90605" lon="6.7448">
        <ele>2508.7</ele>
        <time>2019-11-20T11:47:17Z</time>
      </trkpt>
      <trkpt lat="44.9059" lon="6.74468">
        <ele>2504.85</ele>
        <time>2019-11-20T11:47:23Z</time>
      </trkpt>
      <trkpt lat="44.90589" lon="6.74461">
        <ele>2501.97</ele>
        <time>2019-11-20T11:47:24Z</time>
      </trkpt>
      <trkpt lat="44.90585" lon="6.74443">
        <ele>2497.16</ele>
        <time>2019-11-20T11:47:27Z</time>
      </trkpt>
      <trkpt lat="44.90579" lon="6.74428">
        <ele>2491.39</ele>
        <time>2019-11-20T11:47:30Z</time>
      </trkpt>
      <trkpt lat="44.90577" lon="6.74413">
        <ele>2487.07</ele>
        <time>2019-11-20T11:47:33Z</time>
      </trkpt>
      <trkpt lat="44.9057" lon="6.74397">
        <ele>2485.15</ele>
        <time>2019-11-20T11:47:36Z</time>
      </trkpt>
      <trkpt lat="44.9057" lon="6.74379">
        <ele>2485.63</ele>
        <time>2019-11-20T11:47:40Z</time>
      </trkpt>
      <trkpt lat="44.90572" lon="6.74374">
        <ele>2486.11</ele>
        <time>2019-11-20T11:47:52Z</time>
      </trkpt>
      <trkpt lat="44.9057" lon="6.74374">
        <ele>2486.11</ele>
        <time>2019-11-20T11:48:07Z</time>
      </trkpt>
      <trkpt lat="44.90571" lon="6.74375">
        <ele>2486.11</ele>
        <time>2019-11-20T11:48:33Z</time>
      </trkpt>
      <trkpt lat="44.90572" lon="6.74375">
        <ele>2486.11</ele>
        <time>2019-11-20T11:48:50Z</time>
      </trkpt>
      <trkpt lat="44.90572" lon="6.74374">
        <ele>2486.11</ele>
        <time>2019-11-20T11:48:58Z</time>
      </trkpt>
      <trkpt lat="44.90567" lon="6.74352">
        <ele>2483.7</ele>
        <time>2019-11-20T11:49:04Z</time>
      </trkpt>
      <trkpt lat="44.90562" lon="6.74329">
        <ele>2480.34</ele>
        <time>2019-11-20T11:49:08Z</time>
      </trkpt>
      <trkpt lat="44.9056" lon="6.74302">
        <ele>2476.01</ele>
        <time>2019-11-20T11:49:12Z</time>
      </trkpt>
      <trkpt lat="44.90551" lon="6.74273">
        <ele>2472.65</ele>
        <time>2019-11-20T11:49:16Z</time>
      </trkpt>
      <trkpt lat="44.90537" lon="6.74226">
        <ele>2472.65</ele>
        <time>2019-11-20T11:49:28Z</time>
      </trkpt>
      <trkpt lat="44.90528" lon="6.74195">
        <ele>2471.21</ele>
        <time>2019-11-20T11:49:39Z</time>
      </trkpt>
      <trkpt lat="44.90529" lon="6.74179">
        <ele>2470.24</ele>
        <time>2019-11-20T11:49:42Z</time>
      </trkpt>
      <trkpt lat="44.90532" lon="6.74146">
        <ele>2466.4</ele>
        <time>2019-11-20T11:49:47Z</time>
      </trkpt>
      <trkpt lat="44.90538" lon="6.74118">
        <ele>2463.04</ele>
        <time>2019-11-20T11:49:51Z</time>
      </trkpt>
      <trkpt lat="44.90547" lon="6.74082">
        <ele>2459.67</ele>
        <time>2019-11-20T11:49:57Z</time>
      </trkpt>
      <trkpt lat="44.90559" lon="6.74053">
        <ele>2455.34</ele>
        <time>2019-11-20T11:50:02Z</time>
      </trkpt>
      <trkpt lat="44.90563" lon="6.74039">
        <ele>2451.98</ele>
        <time>2019-11-20T11:50:04Z</time>
      </trkpt>
      <trkpt lat="44.90567" lon="6.74033">
        <ele>2448.62</ele>
        <time>2019-11-20T11:50:05Z</time>
      </trkpt>
      <trkpt lat="44.90589" lon="6.73999">
        <ele>2446.69</ele>
        <time>2019-11-20T11:50:11Z</time>
      </trkpt>
      <trkpt lat="44.90597" lon="6.73991">
        <ele>2445.25</ele>
        <time>2019-11-20T11:50:16Z</time>
      </trkpt>
      <trkpt lat="44.90595" lon="6.73991">
        <ele>2445.73</ele>
        <time>2019-11-20T11:50:34Z</time>
      </trkpt>
      <trkpt lat="44.90597" lon="6.7399">
        <ele>2445.25</ele>
        <time>2019-11-20T11:50:45Z</time>
      </trkpt>
      <trkpt lat="44.906" lon="6.73981">
        <ele>2444.77</ele>
        <time>2019-11-20T11:50:49Z</time>
      </trkpt>
      <trkpt lat="44.90608" lon="6.73979">
        <ele>2442.85</ele>
        <time>2019-11-20T11:51:00Z</time>
      </trkpt>
      <trkpt lat="44.90609" lon="6.73979">
        <ele>2442.85</ele>
        <time>2019-11-20T11:51:12Z</time>
      </trkpt>
      <trkpt lat="44.90615" lon="6.73956">
        <ele>2438.04</ele>
        <time>2019-11-20T11:51:18Z</time>
      </trkpt>
      <trkpt lat="44.90622" lon="6.73941">
        <ele>2434.2</ele>
        <time>2019-11-20T11:51:22Z</time>
      </trkpt>
      <trkpt lat="44.90627" lon="6.73933">
        <ele>2431.31</ele>
        <time>2019-11-20T11:51:24Z</time>
      </trkpt>
      <trkpt lat="44.90631" lon="6.73919">
        <ele>2426.5</ele>
        <time>2019-11-20T11:51:28Z</time>
      </trkpt>
      <trkpt lat="44.90636" lon="6.73916">
        <ele>2423.14</ele>
        <time>2019-11-20T11:51:30Z</time>
      </trkpt>
      <trkpt lat="44.90638" lon="6.73918">
        <ele>2422.66</ele>
        <time>2019-11-20T11:51:32Z</time>
      </trkpt>
      <trkpt lat="44.90638" lon="6.73921">
        <ele>2423.14</ele>
        <time>2019-11-20T11:51:45Z</time>
      </trkpt>
      <trkpt lat="44.90642" lon="6.73903">
        <ele>2418.81</ele>
        <time>2019-11-20T11:51:49Z</time>
      </trkpt>
      <trkpt lat="44.90651" lon="6.73898">
        <ele>2414.97</ele>
        <time>2019-11-20T11:51:51Z</time>
      </trkpt>
      <trkpt lat="44.90664" lon="6.7388">
        <ele>2409.68</ele>
        <time>2019-11-20T11:51:55Z</time>
      </trkpt>
      <trkpt lat="44.90677" lon="6.73872">
        <ele>2405.36</ele>
        <time>2019-11-20T11:51:58Z</time>
      </trkpt>
      <trkpt lat="44.90689" lon="6.73857">
        <ele>2401.03</ele>
        <time>2019-11-20T11:52:01Z</time>
      </trkpt>
      <trkpt lat="44.907" lon="6.73855">
        <ele>2396.7</ele>
        <time>2019-11-20T11:52:03Z</time>
      </trkpt>
      <trkpt lat="44.90719" lon="6.73845">
        <ele>2393.82</ele>
        <time>2019-11-20T11:52:06Z</time>
      </trkpt>
      <trkpt lat="44.9073" lon="6.73841">
        <ele>2392.86</ele>
        <time>2019-11-20T11:52:08Z</time>
      </trkpt>
      <trkpt lat="44.90742" lon="6.73833">
        <ele>2392.38</ele>
        <time>2019-11-20T11:52:11Z</time>
      </trkpt>
      <trkpt lat="44.90747" lon="6.73826">
        <ele>2391.42</ele>
        <time>2019-11-20T11:52:18Z</time>
      </trkpt>
      <trkpt lat="44.90746" lon="6.73827">
        <ele>2391.42</ele>
        <time>2019-11-20T11:52:38Z</time>
      </trkpt>
      <trkpt lat="44.90745" lon="6.73827">
        <ele>2391.9</ele>
        <time>2019-11-20T11:53:08Z</time>
      </trkpt>
      <trkpt lat="44.90747" lon="6.73827">
        <ele>2391.9</ele>
        <time>2019-11-20T11:53:36Z</time>
      </trkpt>
      <trkpt lat="44.90749" lon="6.73825">
        <ele>2391.9</ele>
        <time>2019-11-20T11:53:55Z</time>
      </trkpt>
      <trkpt lat="44.90763" lon="6.73818">
        <ele>2389.01</ele>
        <time>2019-11-20T11:54:02Z</time>
      </trkpt>
      <trkpt lat="44.90771" lon="6.73804">
        <ele>2385.65</ele>
        <time>2019-11-20T11:54:06Z</time>
      </trkpt>
      <trkpt lat="44.90779" lon="6.73808">
        <ele>2382.28</ele>
        <time>2019-11-20T11:54:08Z</time>
      </trkpt>
      <trkpt lat="44.90787" lon="6.73802">
        <ele>2378.44</ele>
        <time>2019-11-20T11:54:10Z</time>
      </trkpt>
      <trkpt lat="44.90792" lon="6.7379">
        <ele>2375.55</ele>
        <time>2019-11-20T11:54:12Z</time>
      </trkpt>
      <trkpt lat="44.908" lon="6.73776">
        <ele>2371.23</ele>
        <time>2019-11-20T11:54:15Z</time>
      </trkpt>
      <trkpt lat="44.90809" lon="6.73771">
        <ele>2367.38</ele>
        <time>2019-11-20T11:54:17Z</time>
      </trkpt>
      <trkpt lat="44.90814" lon="6.73764">
        <ele>2365.94</ele>
        <time>2019-11-20T11:54:18Z</time>
      </trkpt>
      <trkpt lat="44.90818" lon="6.73758">
        <ele>2365.46</ele>
        <time>2019-11-20T11:54:19Z</time>
      </trkpt>
      <trkpt lat="44.90833" lon="6.73735">
        <ele>2360.65</ele>
        <time>2019-11-20T11:54:24Z</time>
      </trkpt>
      <trkpt lat="44.9084" lon="6.73737">
        <ele>2359.21</ele>
        <time>2019-11-20T11:54:26Z</time>
      </trkpt>
      <trkpt lat="44.90843" lon="6.73739">
        <ele>2359.21</ele>
        <time>2019-11-20T11:54:27Z</time>
      </trkpt>
      <trkpt lat="44.90849" lon="6.73742">
        <ele>2358.73</ele>
        <time>2019-11-20T11:54:29Z</time>
      </trkpt>
      <trkpt lat="44.90852" lon="6.73736">
        <ele>2357.29</ele>
        <time>2019-11-20T11:54:32Z</time>
      </trkpt>
      <trkpt lat="44.90844" lon="6.73739">
        <ele>2358.25</ele>
        <time>2019-11-20T11:54:58Z</time>
      </trkpt>
      <trkpt lat="44.90843" lon="6.73736">
        <ele>2357.77</ele>
        <time>2019-11-20T11:55:25Z</time>
      </trkpt>
      <trkpt lat="44.90839" lon="6.73719">
        <ele>2354.89</ele>
        <time>2019-11-20T11:55:29Z</time>
      </trkpt>
      <trkpt lat="44.90842" lon="6.73691">
        <ele>2350.56</ele>
        <time>2019-11-20T11:55:33Z</time>
      </trkpt>
      <trkpt lat="44.90847" lon="6.73673">
        <ele>2348.16</ele>
        <time>2019-11-20T11:55:36Z</time>
      </trkpt>
      <trkpt lat="44.90857" lon="6.73655">
        <ele>2344.31</ele>
        <time>2019-11-20T11:55:40Z</time>
      </trkpt>
      <trkpt lat="44.90868" lon="6.73642">
        <ele>2338.54</ele>
        <time>2019-11-20T11:55:44Z</time>
      </trkpt>
      <trkpt lat="44.90879" lon="6.73636">
        <ele>2333.74</ele>
        <time>2019-11-20T11:55:47Z</time>
      </trkpt>
      <trkpt lat="44.90887" lon="6.73629">
        <ele>2330.37</ele>
        <time>2019-11-20T11:55:49Z</time>
      </trkpt>
      <trkpt lat="44.909" lon="6.73626">
        <ele>2325.57</ele>
        <time>2019-11-20T11:55:52Z</time>
      </trkpt>
      <trkpt lat="44.90912" lon="6.73619">
        <ele>2320.76</ele>
        <time>2019-11-20T11:55:55Z</time>
      </trkpt>
      <trkpt lat="44.90927" lon="6.73614">
        <ele>2317.4</ele>
        <time>2019-11-20T11:55:58Z</time>
      </trkpt>
      <trkpt lat="44.90936" lon="6.7361">
        <ele>2315.47</ele>
        <time>2019-11-20T11:56:00Z</time>
      </trkpt>
      <trkpt lat="44.90963" lon="6.73604">
        <ele>2309.22</ele>
        <time>2019-11-20T11:56:05Z</time>
      </trkpt>
      <trkpt lat="44.9098" lon="6.73597">
        <ele>2305.38</ele>
        <time>2019-11-20T11:56:08Z</time>
      </trkpt>
      <trkpt lat="44.90999" lon="6.73593">
        <ele>2301.05</ele>
        <time>2019-11-20T11:56:11Z</time>
      </trkpt>
      <trkpt lat="44.9103" lon="6.73582">
        <ele>2297.69</ele>
        <time>2019-11-20T11:56:16Z</time>
      </trkpt>
      <trkpt lat="44.9104" lon="6.73575">
        <ele>2297.21</ele>
        <time>2019-11-20T11:56:18Z</time>
      </trkpt>
      <trkpt lat="44.91061" lon="6.73572">
        <ele>2294.32</ele>
        <time>2019-11-20T11:56:22Z</time>
      </trkpt>
      <trkpt lat="44.91079" lon="6.73581">
        <ele>2294.32</ele>
        <time>2019-11-20T11:56:32Z</time>
      </trkpt>
      <trkpt lat="44.91087" lon="6.73585">
        <ele>2293.36</ele>
        <time>2019-11-20T11:56:46Z</time>
      </trkpt>
      <trkpt lat="44.9109" lon="6.73586">
        <ele>2293.36</ele>
        <time>2019-11-20T11:57:05Z</time>
      </trkpt>
      <trkpt lat="44.91096" lon="6.73587">
        <ele>2292.4</ele>
        <time>2019-11-20T11:57:09Z</time>
      </trkpt>
      <trkpt lat="44.911" lon="6.73589">
        <ele>2291.44</ele>
        <time>2019-11-20T11:57:20Z</time>
      </trkpt>
      <trkpt lat="44.91102" lon="6.73591">
        <ele>2290.96</ele>
        <time>2019-11-20T11:57:37Z</time>
      </trkpt>
      <trkpt lat="44.91104" lon="6.73592">
        <ele>2290.96</ele>
        <time>2019-11-20T11:57:42Z</time>
      </trkpt>
      <trkpt lat="44.91113" lon="6.7358">
        <ele>2287.59</ele>
        <time>2019-11-20T11:57:47Z</time>
      </trkpt>
      <trkpt lat="44.91111" lon="6.73572">
        <ele>2285.67</ele>
        <time>2019-11-20T11:57:49Z</time>
      </trkpt>
      <trkpt lat="44.91111" lon="6.7357">
        <ele>2285.67</ele>
        <time>2019-11-20T11:57:50Z</time>
      </trkpt>
      <trkpt lat="44.91111" lon="6.73557">
        <ele>2284.23</ele>
        <time>2019-11-20T11:57:53Z</time>
      </trkpt>
      <trkpt lat="44.91122" lon="6.73544">
        <ele>2279.9</ele>
        <time>2019-11-20T11:57:57Z</time>
      </trkpt>
      <trkpt lat="44.91137" lon="6.7353">
        <ele>2276.06</ele>
        <time>2019-11-20T11:58:01Z</time>
      </trkpt>
      <trkpt lat="44.91148" lon="6.73519">
        <ele>2272.69</ele>
        <time>2019-11-20T11:58:05Z</time>
      </trkpt>
      <trkpt lat="44.91151" lon="6.73511">
        <ele>2271.73</ele>
        <time>2019-11-20T11:58:07Z</time>
      </trkpt>
      <trkpt lat="44.91155" lon="6.73508">
        <ele>2268.85</ele>
        <time>2019-11-20T11:58:10Z</time>
      </trkpt>
      <trkpt lat="44.91156" lon="6.73508">
        <ele>2268.85</ele>
        <time>2019-11-20T11:58:32Z</time>
      </trkpt>
      <trkpt lat="44.91156" lon="6.7351">
        <ele>2268.85</ele>
        <time>2019-11-20T11:58:58Z</time>
      </trkpt>
      <trkpt lat="44.91156" lon="6.73508">
        <ele>2269.33</ele>
        <time>2019-11-20T11:59:17Z</time>
      </trkpt>
      <trkpt lat="44.9116" lon="6.735">
        <ele>2266.93</ele>
        <time>2019-11-20T11:59:20Z</time>
      </trkpt>
      <trkpt lat="44.91169" lon="6.73493">
        <ele>2262.12</ele>
        <time>2019-11-20T11:59:23Z</time>
      </trkpt>
      <trkpt lat="44.91171" lon="6.73487">
        <ele>2260.68</ele>
        <time>2019-11-20T11:59:24Z</time>
      </trkpt>
      <trkpt lat="44.9118" lon="6.73472">
        <ele>2255.39</ele>
        <time>2019-11-20T11:59:27Z</time>
      </trkpt>
      <trkpt lat="44.91185" lon="6.73461">
        <ele>2251.06</ele>
        <time>2019-11-20T11:59:29Z</time>
      </trkpt>
      <trkpt lat="44.91194" lon="6.73445">
        <ele>2246.74</ele>
        <time>2019-11-20T11:59:32Z</time>
      </trkpt>
      <trkpt lat="44.91206" lon="6.73424">
        <ele>2238.57</ele>
        <time>2019-11-20T11:59:36Z</time>
      </trkpt>
      <trkpt lat="44.9122" lon="6.73409">
        <ele>2233.28</ele>
        <time>2019-11-20T11:59:40Z</time>
      </trkpt>
      <trkpt lat="44.91231" lon="6.73396">
        <ele>2229.92</ele>
        <time>2019-11-20T11:59:43Z</time>
      </trkpt>
      <trkpt lat="44.9124" lon="6.73387">
        <ele>2226.07</ele>
        <time>2019-11-20T11:59:45Z</time>
      </trkpt>
      <trkpt lat="44.91253" lon="6.73369">
        <ele>2221.26</ele>
        <time>2019-11-20T11:59:48Z</time>
      </trkpt>
      <trkpt lat="44.91276" lon="6.73344">
        <ele>2216.46</ele>
        <time>2019-11-20T11:59:53Z</time>
      </trkpt>
      <trkpt lat="44.91279" lon="6.73339">
        <ele>2215.5</ele>
        <time>2019-11-20T11:59:54Z</time>
      </trkpt>
      <trkpt lat="44.91303" lon="6.73306">
        <ele>2209.25</ele>
        <time>2019-11-20T12:00:00Z</time>
      </trkpt>
      <trkpt lat="44.91308" lon="6.73301">
        <ele>2208.29</ele>
        <time>2019-11-20T12:00:01Z</time>
      </trkpt>
      <trkpt lat="44.91321" lon="6.73291">
        <ele>2208.77</ele>
        <time>2019-11-20T12:00:10Z</time>
      </trkpt>
      <trkpt lat="44.91319" lon="6.73293">
        <ele>2208.77</ele>
        <time>2019-11-20T12:00:32Z</time>
      </trkpt>
      <trkpt lat="44.9132" lon="6.73292">
        <ele>2208.77</ele>
        <time>2019-11-20T12:00:34Z</time>
      </trkpt>
      <trkpt lat="44.91324" lon="6.73285">
        <ele>2207.81</ele>
        <time>2019-11-20T12:00:37Z</time>
      </trkpt>
      <trkpt lat="44.91341" lon="6.73267">
        <ele>2203.96</ele>
        <time>2019-11-20T12:00:42Z</time>
      </trkpt>
      <trkpt lat="44.9135" lon="6.7326">
        <ele>2201.08</ele>
        <time>2019-11-20T12:00:44Z</time>
      </trkpt>
      <trkpt lat="44.91368" lon="6.73243">
        <ele>2198.67</ele>
        <time>2019-11-20T12:00:48Z</time>
      </trkpt>
      <trkpt lat="44.9138" lon="6.73231">
        <ele>2195.79</ele>
        <time>2019-11-20T12:00:51Z</time>
      </trkpt>
      <trkpt lat="44.91396" lon="6.73218">
        <ele>2191.94</ele>
        <time>2019-11-20T12:00:55Z</time>
      </trkpt>
      <trkpt lat="44.914" lon="6.73215">
        <ele>2192.42</ele>
        <time>2019-11-20T12:00:56Z</time>
      </trkpt>
      <trkpt lat="44.91411" lon="6.73207">
        <ele>2192.42</ele>
        <time>2019-11-20T12:01:03Z</time>
      </trkpt>
      <trkpt lat="44.9141" lon="6.73205">
        <ele>2191.94</ele>
        <time>2019-11-20T12:01:17Z</time>
      </trkpt>
      <trkpt lat="44.9141" lon="6.73205">
        <ele>2191.94</ele>
        <time>2019-11-20T12:01:40Z</time>
      </trkpt>
      <trkpt lat="44.91411" lon="6.73204">
        <ele>2191.94</ele>
        <time>2019-11-20T12:02:03Z</time>
      </trkpt>
      <trkpt lat="44.91412" lon="6.73203">
        <ele>2192.42</ele>
        <time>2019-11-20T12:02:27Z</time>
      </trkpt>
      <trkpt lat="44.9141" lon="6.73203">
        <ele>2192.42</ele>
        <time>2019-11-20T12:02:49Z</time>
      </trkpt>
      <trkpt lat="44.9141" lon="6.73203">
        <ele>2192.42</ele>
        <time>2019-11-20T12:03:12Z</time>
      </trkpt>
      <trkpt lat="44.91412" lon="6.73204">
        <ele>2192.42</ele>
        <time>2019-11-20T12:03:34Z</time>
      </trkpt>
      <trkpt lat="44.91412" lon="6.73202">
        <ele>2193.87</ele>
        <time>2019-11-20T12:03:45Z</time>
      </trkpt>
      <trkpt lat="44.91416" lon="6.73187">
        <ele>2190.98</ele>
        <time>2019-11-20T12:03:50Z</time>
      </trkpt>
      <trkpt lat="44.91426" lon="6.73149">
        <ele>2186.18</ele>
        <time>2019-11-20T12:03:56Z</time>
      </trkpt>
      <trkpt lat="44.91434" lon="6.73114">
        <ele>2182.33</ele>
        <time>2019-11-20T12:04:02Z</time>
      </trkpt>
      <trkpt lat="44.91449" lon="6.73078">
        <ele>2177.52</ele>
        <time>2019-11-20T12:04:09Z</time>
      </trkpt>
      <trkpt lat="44.91468" lon="6.73065">
        <ele>2173.68</ele>
        <time>2019-11-20T12:04:14Z</time>
      </trkpt>
      <trkpt lat="44.91482" lon="6.73055">
        <ele>2169.83</ele>
        <time>2019-11-20T12:04:17Z</time>
      </trkpt>
      <trkpt lat="44.91488" lon="6.73053">
        <ele>2167.91</ele>
        <time>2019-11-20T12:04:18Z</time>
      </trkpt>
      <trkpt lat="44.91527" lon="6.73037">
        <ele>2164.06</ele>
        <time>2019-11-20T12:04:24Z</time>
      </trkpt>
      <trkpt lat="44.91544" lon="6.7304">
        <ele>2165.03</ele>
        <time>2019-11-20T12:04:31Z</time>
      </trkpt>
      <trkpt lat="44.91543" lon="6.73041">
        <ele>2165.51</ele>
        <time>2019-11-20T12:04:53Z</time>
      </trkpt>
      <trkpt lat="44.91543" lon="6.73041">
        <ele>2165.51</ele>
        <time>2019-11-20T12:05:21Z</time>
      </trkpt>
      <trkpt lat="44.91542" lon="6.73042">
        <ele>2166.95</ele>
        <time>2019-11-20T12:05:47Z</time>
      </trkpt>
      <trkpt lat="44.91544" lon="6.73045">
        <ele>2165.03</ele>
        <time>2019-11-20T12:05:55Z</time>
      </trkpt>
      <trkpt lat="44.91553" lon="6.73048">
        <ele>2162.62</ele>
        <time>2019-11-20T12:05:59Z</time>
      </trkpt>
      <trkpt lat="44.91573" lon="6.73056">
        <ele>2157.82</ele>
        <time>2019-11-20T12:06:03Z</time>
      </trkpt>
      <trkpt lat="44.91605" lon="6.73059">
        <ele>2152.53</ele>
        <time>2019-11-20T12:06:08Z</time>
      </trkpt>
      <trkpt lat="44.91645" lon="6.73058">
        <ele>2149.16</ele>
        <time>2019-11-20T12:06:14Z</time>
      </trkpt>
      <trkpt lat="44.91651" lon="6.73058">
        <ele>2148.68</ele>
        <time>2019-11-20T12:06:15Z</time>
      </trkpt>
      <trkpt lat="44.91707" lon="6.73057">
        <ele>2147.24</ele>
        <time>2019-11-20T12:06:27Z</time>
      </trkpt>
      <trkpt lat="44.91743" lon="6.73056">
        <ele>2145.32</ele>
        <time>2019-11-20T12:06:35Z</time>
      </trkpt>
      <trkpt lat="44.91761" lon="6.7304">
        <ele>2143.4</ele>
        <time>2019-11-20T12:06:41Z</time>
      </trkpt>
      <trkpt lat="44.91766" lon="6.73032">
        <ele>2142.44</ele>
        <time>2019-11-20T12:06:43Z</time>
      </trkpt>
      <trkpt lat="44.91769" lon="6.73028">
        <ele>2142.44</ele>
        <time>2019-11-20T12:06:44Z</time>
      </trkpt>
      <trkpt lat="44.91772" lon="6.73028">
        <ele>2142.44</ele>
        <time>2019-11-20T12:06:56Z</time>
      </trkpt>
      <trkpt lat="44.91771" lon="6.73029">
        <ele>2141.95</ele>
        <time>2019-11-20T12:07:21Z</time>
      </trkpt>
      <trkpt lat="44.91772" lon="6.7303">
        <ele>2142.44</ele>
        <time>2019-11-20T12:07:39Z</time>
      </trkpt>
      <trkpt lat="44.91772" lon="6.73032">
        <ele>2141.95</ele>
        <time>2019-11-20T12:07:57Z</time>
      </trkpt>
      <trkpt lat="44.91775" lon="6.73044">
        <ele>2138.11</ele>
        <time>2019-11-20T12:08:01Z</time>
      </trkpt>
      <trkpt lat="44.91784" lon="6.73044">
        <ele>2135.23</ele>
        <time>2019-11-20T12:08:04Z</time>
      </trkpt>
      <trkpt lat="44.91787" lon="6.73051">
        <ele>2133.3</ele>
        <time>2019-11-20T12:08:06Z</time>
      </trkpt>
      <trkpt lat="44.91803" lon="6.73046">
        <ele>2128.02</ele>
        <time>2019-11-20T12:08:12Z</time>
      </trkpt>
      <trkpt lat="44.91808" lon="6.73056">
        <ele>2124.17</ele>
        <time>2019-11-20T12:08:16Z</time>
      </trkpt>
      <trkpt lat="44.91823" lon="6.73069">
        <ele>2119.36</ele>
        <time>2019-11-20T12:08:22Z</time>
      </trkpt>
      <trkpt lat="44.91827" lon="6.73072">
        <ele>2117.92</ele>
        <time>2019-11-20T12:08:23Z</time>
      </trkpt>
      <trkpt lat="44.9184" lon="6.73076">
        <ele>2116.48</ele>
        <time>2019-11-20T12:08:26Z</time>
      </trkpt>
      <trkpt lat="44.91845" lon="6.7308">
        <ele>2117.92</ele>
        <time>2019-11-20T12:08:28Z</time>
      </trkpt>
      <trkpt lat="44.91845" lon="6.73085">
        <ele>2117.92</ele>
        <time>2019-11-20T12:08:35Z</time>
      </trkpt>
      <trkpt lat="44.91846" lon="6.73085">
        <ele>2117.92</ele>
        <time>2019-11-20T12:08:57Z</time>
      </trkpt>
      <trkpt lat="44.91847" lon="6.73085">
        <ele>2117.44</ele>
        <time>2019-11-20T12:09:25Z</time>
      </trkpt>
      <trkpt lat="44.91847" lon="6.73085">
        <ele>2117.92</ele>
        <time>2019-11-20T12:09:48Z</time>
      </trkpt>
      <trkpt lat="44.91846" lon="6.73087">
        <ele>2117.44</ele>
        <time>2019-11-20T12:10:02Z</time>
      </trkpt>
      <trkpt lat="44.91858" lon="6.73093">
        <ele>2113.6</ele>
        <time>2019-11-20T12:10:06Z</time>
      </trkpt>
      <trkpt lat="44.91869" lon="6.7311">
        <ele>2109.75</ele>
        <time>2019-11-20T12:10:10Z</time>
      </trkpt>
      <trkpt lat="44.91886" lon="6.73113">
        <ele>2106.87</ele>
        <time>2019-11-20T12:10:14Z</time>
      </trkpt>
      <trkpt lat="44.91899" lon="6.73117">
        <ele>2103.5</ele>
        <time>2019-11-20T12:10:17Z</time>
      </trkpt>
      <trkpt lat="44.91918" lon="6.73129">
        <ele>2100.62</ele>
        <time>2019-11-20T12:10:22Z</time>
      </trkpt>
      <trkpt lat="44.91923" lon="6.73141">
        <ele>2103.02</ele>
        <time>2019-11-20T12:10:26Z</time>
      </trkpt>
      <trkpt lat="44.91923" lon="6.73141">
        <ele>2102.54</ele>
        <time>2019-11-20T12:10:32Z</time>
      </trkpt>
      <trkpt lat="44.91932" lon="6.73138">
        <ele>2099.66</ele>
        <time>2019-11-20T12:10:36Z</time>
      </trkpt>
      <trkpt lat="44.91937" lon="6.73129">
        <ele>2098.7</ele>
        <time>2019-11-20T12:10:38Z</time>
      </trkpt>
      <trkpt lat="44.91952" lon="6.73122">
        <ele>2096.29</ele>
        <time>2019-11-20T12:10:43Z</time>
      </trkpt>
      <trkpt lat="44.91955" lon="6.73119">
        <ele>2095.81</ele>
        <time>2019-11-20T12:10:44Z</time>
      </trkpt>
      <trkpt lat="44.91962" lon="6.73118">
        <ele>2094.37</ele>
        <time>2019-11-20T12:10:53Z</time>
      </trkpt>
      <trkpt lat="44.91962" lon="6.7312">
        <ele>2094.37</ele>
        <time>2019-11-20T12:11:13Z</time>
      </trkpt>
      <trkpt lat="44.91973" lon="6.73127">
        <ele>2091</ele>
        <time>2019-11-20T12:11:18Z</time>
      </trkpt>
      <trkpt lat="44.91981" lon="6.73131">
        <ele>2086.68</ele>
        <time>2019-11-20T12:11:21Z</time>
      </trkpt>
      <trkpt lat="44.91987" lon="6.73124">
        <ele>2085.72</ele>
        <time>2019-11-20T12:11:23Z</time>
      </trkpt>
      <trkpt lat="44.91994" lon="6.73131">
        <ele>2081.87</ele>
        <time>2019-11-20T12:11:28Z</time>
      </trkpt>
      <trkpt lat="44.91995" lon="6.73127">
        <ele>2082.35</ele>
        <time>2019-11-20T12:11:37Z</time>
      </trkpt>
      <trkpt lat="44.91995" lon="6.73129">
        <ele>2081.87</ele>
        <time>2019-11-20T12:11:57Z</time>
      </trkpt>
      <trkpt lat="44.92002" lon="6.73138">
        <ele>2078.51</ele>
        <time>2019-11-20T12:12:01Z</time>
      </trkpt>
      <trkpt lat="44.92012" lon="6.7314">
        <ele>2073.7</ele>
        <time>2019-11-20T12:12:04Z</time>
      </trkpt>
      <trkpt lat="44.92023" lon="6.73147">
        <ele>2067.93</ele>
        <time>2019-11-20T12:12:08Z</time>
      </trkpt>
      <trkpt lat="44.92034" lon="6.73151">
        <ele>2062.65</ele>
        <time>2019-11-20T12:12:13Z</time>
      </trkpt>
      <trkpt lat="44.92035" lon="6.73154">
        <ele>2061.2</ele>
        <time>2019-11-20T12:12:14Z</time>
      </trkpt>
      <trkpt lat="44.92037" lon="6.73163">
        <ele>2058.8</ele>
        <time>2019-11-20T12:12:19Z</time>
      </trkpt>
      <trkpt lat="44.92046" lon="6.73166">
        <ele>2054.47</ele>
        <time>2019-11-20T12:12:23Z</time>
      </trkpt>
      <trkpt lat="44.92046" lon="6.73167">
        <ele>2054.47</ele>
        <time>2019-11-20T12:12:24Z</time>
      </trkpt>
      <trkpt lat="44.92046" lon="6.73166">
        <ele>2054.96</ele>
        <time>2019-11-20T12:12:43Z</time>
      </trkpt>
      <trkpt lat="44.92044" lon="6.7317">
        <ele>2054.47</ele>
        <time>2019-11-20T12:13:08Z</time>
      </trkpt>
      <trkpt lat="44.92043" lon="6.73172">
        <ele>2054.47</ele>
        <time>2019-11-20T12:13:39Z</time>
      </trkpt>
      <trkpt lat="44.92044" lon="6.73174">
        <ele>2054.47</ele>
        <time>2019-11-20T12:13:44Z</time>
      </trkpt>
      <trkpt lat="44.92055" lon="6.73162">
        <ele>2050.63</ele>
        <time>2019-11-20T12:13:48Z</time>
      </trkpt>
      <trkpt lat="44.92057" lon="6.7316">
        <ele>2050.63</ele>
        <time>2019-11-20T12:13:49Z</time>
      </trkpt>
      <trkpt lat="44.92063" lon="6.73165">
        <ele>2045.82</ele>
        <time>2019-11-20T12:13:52Z</time>
      </trkpt>
      <trkpt lat="44.9207" lon="6.73163">
        <ele>2041.98</ele>
        <time>2019-11-20T12:13:54Z</time>
      </trkpt>
      <trkpt lat="44.92078" lon="6.73163">
        <ele>2038.61</ele>
        <time>2019-11-20T12:13:56Z</time>
      </trkpt>
      <trkpt lat="44.92085" lon="6.73161">
        <ele>2034.29</ele>
        <time>2019-11-20T12:13:59Z</time>
      </trkpt>
      <trkpt lat="44.92093" lon="6.73163">
        <ele>2030.44</ele>
        <time>2019-11-20T12:14:02Z</time>
      </trkpt>
      <trkpt lat="44.92102" lon="6.73163">
        <ele>2026.6</ele>
        <time>2019-11-20T12:14:06Z</time>
      </trkpt>
      <trkpt lat="44.92109" lon="6.7316">
        <ele>2024.19</ele>
        <time>2019-11-20T12:14:09Z</time>
      </trkpt>
      <trkpt lat="44.92113" lon="6.73165">
        <ele>2021.31</ele>
        <time>2019-11-20T12:14:11Z</time>
      </trkpt>
      <trkpt lat="44.92122" lon="6.73165">
        <ele>2017.46</ele>
        <time>2019-11-20T12:14:14Z</time>
      </trkpt>
      <trkpt lat="44.92124" lon="6.73174">
        <ele>2013.14</ele>
        <time>2019-11-20T12:14:16Z</time>
      </trkpt>
      <trkpt lat="44.92123" lon="6.7318">
        <ele>2013.14</ele>
        <time>2019-11-20T12:14:17Z</time>
      </trkpt>
      <trkpt lat="44.92125" lon="6.73185">
        <ele>2011.7</ele>
        <time>2019-11-20T12:14:18Z</time>
      </trkpt>
      <trkpt lat="44.92134" lon="6.73182">
        <ele>2008.81</ele>
        <time>2019-11-20T12:14:21Z</time>
      </trkpt>
      <trkpt lat="44.92144" lon="6.73184">
        <ele>2005.93</ele>
        <time>2019-11-20T12:14:25Z</time>
      </trkpt>
      <trkpt lat="44.92155" lon="6.73185">
        <ele>2000.64</ele>
        <time>2019-11-20T12:14:29Z</time>
      </trkpt>
      <trkpt lat="44.92165" lon="6.73192">
        <ele>1995.83</ele>
        <time>2019-11-20T12:14:32Z</time>
      </trkpt>
      <trkpt lat="44.92169" lon="6.7319">
        <ele>1995.83</ele>
        <time>2019-11-20T12:14:33Z</time>
      </trkpt>
      <trkpt lat="44.92172" lon="6.73195">
        <ele>1992.95</ele>
        <time>2019-11-20T12:14:35Z</time>
      </trkpt>
      <trkpt lat="44.92175" lon="6.73206">
        <ele>1989.59</ele>
        <time>2019-11-20T12:14:39Z</time>
      </trkpt>
      <trkpt lat="44.92175" lon="6.73208">
        <ele>1989.1</ele>
        <time>2019-11-20T12:14:40Z</time>
      </trkpt>
      <trkpt lat="44.92172" lon="6.7321">
        <ele>1989.1</ele>
        <time>2019-11-20T12:14:56Z</time>
      </trkpt>
      <trkpt lat="44.92175" lon="6.73207">
        <ele>1989.1</ele>
        <time>2019-11-20T12:15:22Z</time>
      </trkpt>
      <trkpt lat="44.92174" lon="6.73208">
        <ele>1988.62</ele>
        <time>2019-11-20T12:15:47Z</time>
      </trkpt>
      <trkpt lat="44.92179" lon="6.73204">
        <ele>1988.62</ele>
        <time>2019-11-20T12:16:09Z</time>
      </trkpt>
      <trkpt lat="44.9218" lon="6.73204">
        <ele>1988.62</ele>
        <time>2019-11-20T12:16:19Z</time>
      </trkpt>
      <trkpt lat="44.92187" lon="6.73202">
        <ele>1985.26</ele>
        <time>2019-11-20T12:16:23Z</time>
      </trkpt>
      <trkpt lat="44.92196" lon="6.732">
        <ele>1981.41</ele>
        <time>2019-11-20T12:16:26Z</time>
      </trkpt>
      <trkpt lat="44.92201" lon="6.73206">
        <ele>1978.05</ele>
        <time>2019-11-20T12:16:28Z</time>
      </trkpt>
      <trkpt lat="44.92205" lon="6.73206">
        <ele>1977.09</ele>
        <time>2019-11-20T12:16:30Z</time>
      </trkpt>
      <trkpt lat="44.92208" lon="6.73208">
        <ele>1974.2</ele>
        <time>2019-11-20T12:16:31Z</time>
      </trkpt>
      <trkpt lat="44.92222" lon="6.7322">
        <ele>1968.92</ele>
        <time>2019-11-20T12:16:36Z</time>
      </trkpt>
      <trkpt lat="44.92233" lon="6.73228">
        <ele>1963.15</ele>
        <time>2019-11-20T12:16:40Z</time>
      </trkpt>
      <trkpt lat="44.92237" lon="6.73227">
        <ele>1963.63</ele>
        <time>2019-11-20T12:16:41Z</time>
      </trkpt>
      <trkpt lat="44.92245" lon="6.73231">
        <ele>1959.3</ele>
        <time>2019-11-20T12:16:43Z</time>
      </trkpt>
      <trkpt lat="44.92252" lon="6.73228">
        <ele>1956.9</ele>
        <time>2019-11-20T12:16:45Z</time>
      </trkpt>
      <trkpt lat="44.92268" lon="6.73231">
        <ele>1951.61</ele>
        <time>2019-11-20T12:16:50Z</time>
      </trkpt>
      <trkpt lat="44.92279" lon="6.7323">
        <ele>1950.17</ele>
        <time>2019-11-20T12:16:56Z</time>
      </trkpt>
      <trkpt lat="44.92278" lon="6.7323">
        <ele>1951.13</ele>
        <time>2019-11-20T12:17:11Z</time>
      </trkpt>
      <trkpt lat="44.92276" lon="6.7323">
        <ele>1950.65</ele>
        <time>2019-11-20T12:17:32Z</time>
      </trkpt>
      <trkpt lat="44.92276" lon="6.73231">
        <ele>1951.13</ele>
        <time>2019-11-20T12:17:58Z</time>
      </trkpt>
      <trkpt lat="44.92276" lon="6.73233">
        <ele>1951.13</ele>
        <time>2019-11-20T12:18:20Z</time>
      </trkpt>
      <trkpt lat="44.92277" lon="6.73232">
        <ele>1951.61</ele>
        <time>2019-11-20T12:18:48Z</time>
      </trkpt>
      <trkpt lat="44.92277" lon="6.73231">
        <ele>1951.61</ele>
        <time>2019-11-20T12:19:10Z</time>
      </trkpt>
      <trkpt lat="44.92277" lon="6.73229">
        <ele>1951.61</ele>
        <time>2019-11-20T12:19:32Z</time>
      </trkpt>
      <trkpt lat="44.92277" lon="6.73226">
        <ele>1953.06</ele>
        <time>2019-11-20T12:19:55Z</time>
      </trkpt>
      <trkpt lat="44.92277" lon="6.73226">
        <ele>1951.61</ele>
        <time>2019-11-20T12:20:15Z</time>
      </trkpt>
      <trkpt lat="44.92277" lon="6.73225">
        <ele>1951.61</ele>
        <time>2019-11-20T12:20:23Z</time>
      </trkpt>
      <trkpt lat="44.9229" lon="6.73229">
        <ele>1947.77</ele>
        <time>2019-11-20T12:20:29Z</time>
      </trkpt>
      <trkpt lat="44.92296" lon="6.73237">
        <ele>1946.33</ele>
        <time>2019-11-20T12:20:31Z</time>
      </trkpt>
      <trkpt lat="44.92308" lon="6.73239">
        <ele>1941.52</ele>
        <time>2019-11-20T12:20:34Z</time>
      </trkpt>
      <trkpt lat="44.92325" lon="6.73238">
        <ele>1940.08</ele>
        <time>2019-11-20T12:20:37Z</time>
      </trkpt>
      <trkpt lat="44.92339" lon="6.73235">
        <ele>1936.23</ele>
        <time>2019-11-20T12:20:40Z</time>
      </trkpt>
      <trkpt lat="44.92344" lon="6.73234">
        <ele>1935.75</ele>
        <time>2019-11-20T12:20:41Z</time>
      </trkpt>
      <trkpt lat="44.92367" lon="6.73237">
        <ele>1931.91</ele>
        <time>2019-11-20T12:20:46Z</time>
      </trkpt>
      <trkpt lat="44.92381" lon="6.73239">
        <ele>1928.54</ele>
        <time>2019-11-20T12:20:49Z</time>
      </trkpt>
      <trkpt lat="44.92394" lon="6.73244">
        <ele>1924.7</ele>
        <time>2019-11-20T12:20:52Z</time>
      </trkpt>
      <trkpt lat="44.92409" lon="6.73246">
        <ele>1922.29</ele>
        <time>2019-11-20T12:20:55Z</time>
      </trkpt>
      <trkpt lat="44.92418" lon="6.73249">
        <ele>1919.89</ele>
        <time>2019-11-20T12:20:57Z</time>
      </trkpt>
      <trkpt lat="44.92434" lon="6.73247">
        <ele>1917.01</ele>
        <time>2019-11-20T12:21:00Z</time>
      </trkpt>
      <trkpt lat="44.92445" lon="6.73247">
        <ele>1915.56</ele>
        <time>2019-11-20T12:21:02Z</time>
      </trkpt>
      <trkpt lat="44.92459" lon="6.73244">
        <ele>1916.53</ele>
        <time>2019-11-20T12:21:05Z</time>
      </trkpt>
      <trkpt lat="44.92471" lon="6.73243">
        <ele>1915.08</ele>
        <time>2019-11-20T12:21:08Z</time>
      </trkpt>
      <trkpt lat="44.92497" lon="6.73245">
        <ele>1911.24</ele>
        <time>2019-11-20T12:21:15Z</time>
      </trkpt>
      <trkpt lat="44.92518" lon="6.73249">
        <ele>1907.87</ele>
        <time>2019-11-20T12:21:19Z</time>
      </trkpt>
      <trkpt lat="44.92525" lon="6.7325">
        <ele>1907.87</ele>
        <time>2019-11-20T12:21:20Z</time>
      </trkpt>
      <trkpt lat="44.9253" lon="6.7325">
        <ele>1907.87</ele>
        <time>2019-11-20T12:21:21Z</time>
      </trkpt>
      <trkpt lat="44.92545" lon="6.7326">
        <ele>1905.95</ele>
        <time>2019-11-20T12:21:24Z</time>
      </trkpt>
      <trkpt lat="44.92566" lon="6.73286">
        <ele>1904.03</ele>
        <time>2019-11-20T12:21:30Z</time>
      </trkpt>
      <trkpt lat="44.92572" lon="6.73286">
        <ele>1905.47</ele>
        <time>2019-11-20T12:21:34Z</time>
      </trkpt>
      <trkpt lat="44.92573" lon="6.73285">
        <ele>1906.91</ele>
        <time>2019-11-20T12:21:56Z</time>
      </trkpt>
      <trkpt lat="44.92571" lon="6.73288">
        <ele>1905.95</ele>
        <time>2019-11-20T12:22:22Z</time>
      </trkpt>
      <trkpt lat="44.92572" lon="6.73287">
        <ele>1905.47</ele>
        <time>2019-11-20T12:22:42Z</time>
      </trkpt>
      <trkpt lat="44.92583" lon="6.7331">
        <ele>1901.14</ele>
        <time>2019-11-20T12:22:49Z</time>
      </trkpt>
      <trkpt lat="44.92587" lon="6.73313">
        <ele>1900.66</ele>
        <time>2019-11-20T12:22:50Z</time>
      </trkpt>
      <trkpt lat="44.92595" lon="6.73318">
        <ele>1900.18</ele>
        <time>2019-11-20T12:22:52Z</time>
      </trkpt>
      <trkpt lat="44.92611" lon="6.73335">
        <ele>1896.34</ele>
        <time>2019-11-20T12:22:56Z</time>
      </trkpt>
      <trkpt lat="44.92615" lon="6.73338">
        <ele>1895.38</ele>
        <time>2019-11-20T12:22:57Z</time>
      </trkpt>
      <trkpt lat="44.92637" lon="6.73358">
        <ele>1892.49</ele>
        <time>2019-11-20T12:23:03Z</time>
      </trkpt>
      <trkpt lat="44.92653" lon="6.73368">
        <ele>1888.65</ele>
        <time>2019-11-20T12:23:06Z</time>
      </trkpt>
      <trkpt lat="44.92665" lon="6.7337">
        <ele>1886.24</ele>
        <time>2019-11-20T12:23:08Z</time>
      </trkpt>
      <trkpt lat="44.92696" lon="6.73377">
        <ele>1881.44</ele>
        <time>2019-11-20T12:23:13Z</time>
      </trkpt>
      <trkpt lat="44.92715" lon="6.73379">
        <ele>1880</ele>
        <time>2019-11-20T12:23:16Z</time>
      </trkpt>
      <trkpt lat="44.92731" lon="6.73383">
        <ele>1882.4</ele>
        <time>2019-11-20T12:23:20Z</time>
      </trkpt>
      <trkpt lat="44.92737" lon="6.73385">
        <ele>1884.32</ele>
        <time>2019-11-20T12:23:29Z</time>
      </trkpt>
      <trkpt lat="44.92737" lon="6.73386">
        <ele>1883.84</ele>
        <time>2019-11-20T12:23:53Z</time>
      </trkpt>
      <trkpt lat="44.92738" lon="6.73383">
        <ele>1883.84</ele>
        <time>2019-11-20T12:24:20Z</time>
      </trkpt>
      <trkpt lat="44.92736" lon="6.73384">
        <ele>1883.84</ele>
        <time>2019-11-20T12:24:47Z</time>
      </trkpt>
      <trkpt lat="44.92736" lon="6.73384">
        <ele>1884.32</ele>
        <time>2019-11-20T12:25:12Z</time>
      </trkpt>
      <trkpt lat="44.92737" lon="6.73384">
        <ele>1883.84</ele>
        <time>2019-11-20T12:25:37Z</time>
      </trkpt>
      <trkpt lat="44.92737" lon="6.73386">
        <ele>1883.84</ele>
        <time>2019-11-20T12:25:44Z</time>
      </trkpt>
      <trkpt lat="44.92745" lon="6.73391">
        <ele>1881.44</ele>
        <time>2019-11-20T12:25:48Z</time>
      </trkpt>
      <trkpt lat="44.92759" lon="6.73404">
        <ele>1876.15</ele>
        <time>2019-11-20T12:25:51Z</time>
      </trkpt>
      <trkpt lat="44.92765" lon="6.73407">
        <ele>1876.15</ele>
        <time>2019-11-20T12:25:52Z</time>
      </trkpt>
      <trkpt lat="44.92771" lon="6.73412">
        <ele>1873.27</ele>
        <time>2019-11-20T12:25:53Z</time>
      </trkpt>
      <trkpt lat="44.928" lon="6.73438">
        <ele>1864.61</ele>
        <time>2019-11-20T12:25:58Z</time>
      </trkpt>
      <trkpt lat="44.92805" lon="6.73444">
        <ele>1862.21</ele>
        <time>2019-11-20T12:25:59Z</time>
      </trkpt>
      <trkpt lat="44.92835" lon="6.73466">
        <ele>1858.37</ele>
        <time>2019-11-20T12:26:05Z</time>
      </trkpt>
      <trkpt lat="44.92842" lon="6.73482">
        <ele>1854.04</ele>
        <time>2019-11-20T12:26:07Z</time>
      </trkpt>
      <trkpt lat="44.92854" lon="6.73506">
        <ele>1850.19</ele>
        <time>2019-11-20T12:26:10Z</time>
      </trkpt>
      <trkpt lat="44.92869" lon="6.73527">
        <ele>1848.75</ele>
        <time>2019-11-20T12:26:13Z</time>
      </trkpt>
      <trkpt lat="44.92911" lon="6.73567">
        <ele>1844.91</ele>
        <time>2019-11-20T12:26:21Z</time>
      </trkpt>
      <trkpt lat="44.92922" lon="6.73576">
        <ele>1842.98</ele>
        <time>2019-11-20T12:26:23Z</time>
      </trkpt>
      <trkpt lat="44.92934" lon="6.73586">
        <ele>1842.02</ele>
        <time>2019-11-20T12:26:25Z</time>
      </trkpt>
      <trkpt lat="44.92939" lon="6.73592">
        <ele>1841.06</ele>
        <time>2019-11-20T12:26:26Z</time>
      </trkpt>
      <trkpt lat="44.92957" lon="6.73607">
        <ele>1838.66</ele>
        <time>2019-11-20T12:26:29Z</time>
      </trkpt>
      <trkpt lat="44.92981" lon="6.73636">
        <ele>1834.33</ele>
        <time>2019-11-20T12:26:34Z</time>
      </trkpt>
      <trkpt lat="44.92985" lon="6.73643">
        <ele>1832.89</ele>
        <time>2019-11-20T12:26:35Z</time>
      </trkpt>
      <trkpt lat="44.92999" lon="6.73667">
        <ele>1830.49</ele>
        <time>2019-11-20T12:26:38Z</time>
      </trkpt>
      <trkpt lat="44.93018" lon="6.73688">
        <ele>1829.53</ele>
        <time>2019-11-20T12:26:42Z</time>
      </trkpt>
      <trkpt lat="44.93036" lon="6.73695">
        <ele>1827.6</ele>
        <time>2019-11-20T12:26:45Z</time>
      </trkpt>
      <trkpt lat="44.93054" lon="6.73701">
        <ele>1828.56</ele>
        <time>2019-11-20T12:26:52Z</time>
      </trkpt>
      <trkpt lat="44.93056" lon="6.73711">
        <ele>1830.01</ele>
        <time>2019-11-20T12:27:06Z</time>
      </trkpt>
      <trkpt lat="44.93055" lon="6.73722">
        <ele>1829.53</ele>
        <time>2019-11-20T12:27:21Z</time>
      </trkpt>
      <trkpt lat="44.93056" lon="6.7372">
        <ele>1830.01</ele>
        <time>2019-11-20T12:27:42Z</time>
      </trkpt>
      <trkpt lat="44.9305" lon="6.73729">
        <ele>1829.53</ele>
        <time>2019-11-20T12:28:10Z</time>
      </trkpt>
      <trkpt lat="44.93053" lon="6.73732">
        <ele>1829.53</ele>
        <time>2019-11-20T12:28:29Z</time>
      </trkpt>
      <trkpt lat="44.93054" lon="6.73734">
        <ele>1829.05</ele>
        <time>2019-11-20T12:28:30Z</time>
      </trkpt>
      <trkpt lat="44.93059" lon="6.73742">
        <ele>1828.56</ele>
        <time>2019-11-20T12:28:35Z</time>
      </trkpt>
      <trkpt lat="44.93087" lon="6.73768">
        <ele>1826.64</ele>
        <time>2019-11-20T12:28:49Z</time>
      </trkpt>
      <trkpt lat="44.93112" lon="6.73789">
        <ele>1825.2</ele>
        <time>2019-11-20T12:29:01Z</time>
      </trkpt>
      <trkpt lat="44.93118" lon="6.73802">
        <ele>1825.2</ele>
        <time>2019-11-20T12:29:15Z</time>
      </trkpt>
      <trkpt lat="44.9312" lon="6.73808">
        <ele>1825.2</ele>
        <time>2019-11-20T12:29:29Z</time>
      </trkpt>
      <trkpt lat="44.93123" lon="6.73813">
        <ele>1825.2</ele>
        <time>2019-11-20T12:29:43Z</time>
      </trkpt>
      <trkpt lat="44.93128" lon="6.73816">
        <ele>1824.72</ele>
        <time>2019-11-20T12:29:53Z</time>
      </trkpt>
      <trkpt lat="44.93134" lon="6.73818">
        <ele>1822.8</ele>
        <time>2019-11-20T12:29:57Z</time>
      </trkpt>
      <trkpt lat="44.93143" lon="6.73822">
        <ele>1821.84</ele>
        <time>2019-11-20T12:29:59Z</time>
      </trkpt>
      <trkpt lat="44.93163" lon="6.73829">
        <ele>1819.43</ele>
        <time>2019-11-20T12:30:04Z</time>
      </trkpt>
      <trkpt lat="44.93168" lon="6.73835">
        <ele>1819.43</ele>
        <time>2019-11-20T12:30:06Z</time>
      </trkpt>
      <trkpt lat="44.93189" lon="6.7387">
        <ele>1815.59</ele>
        <time>2019-11-20T12:30:19Z</time>
      </trkpt>
      <trkpt lat="44.93204" lon="6.73888">
        <ele>1813.66</ele>
        <time>2019-11-20T12:30:24Z</time>
      </trkpt>
      <trkpt lat="44.93222" lon="6.73931">
        <ele>1814.15</ele>
        <time>2019-11-20T12:30:36Z</time>
      </trkpt>
      <trkpt lat="44.93218" lon="6.73943">
        <ele>1815.11</ele>
        <time>2019-11-20T12:30:49Z</time>
      </trkpt>
      <trkpt lat="44.93216" lon="6.73955">
        <ele>1815.59</ele>
        <time>2019-11-20T12:31:03Z</time>
      </trkpt>
      <trkpt lat="44.93214" lon="6.73969">
        <ele>1816.55</ele>
        <time>2019-11-20T12:31:18Z</time>
      </trkpt>
      <trkpt lat="44.93217" lon="6.73984">
        <ele>1816.55</ele>
        <time>2019-11-20T12:31:34Z</time>
      </trkpt>
      <trkpt lat="44.93219" lon="6.73999">
        <ele>1816.07</ele>
        <time>2019-11-20T12:31:47Z</time>
      </trkpt>
      <trkpt lat="44.93215" lon="6.74017">
        <ele>1814.63</ele>
        <time>2019-11-20T12:31:58Z</time>
      </trkpt>
      <trkpt lat="44.93219" lon="6.74037">
        <ele>1814.15</ele>
        <time>2019-11-20T12:32:10Z</time>
      </trkpt>
      <trkpt lat="44.93226" lon="6.74046">
        <ele>1815.11</ele>
        <time>2019-11-20T12:32:22Z</time>
      </trkpt>
      <trkpt lat="44.93229" lon="6.74048">
        <ele>1813.18</ele>
        <time>2019-11-20T12:32:25Z</time>
      </trkpt>
      <trkpt lat="44.93232" lon="6.74056">
        <ele>1813.18</ele>
        <time>2019-11-20T12:32:29Z</time>
      </trkpt>
      <trkpt lat="44.93236" lon="6.74072">
        <ele>1813.66</ele>
        <time>2019-11-20T12:32:44Z</time>
      </trkpt>
      <trkpt lat="44.93238" lon="6.74074">
        <ele>1813.66</ele>
        <time>2019-11-20T12:32:47Z</time>
      </trkpt>
      <trkpt lat="44.93244" lon="6.74083">
        <ele>1812.7</ele>
        <time>2019-11-20T12:32:54Z</time>
      </trkpt>
      <trkpt lat="44.93252" lon="6.74095">
        <ele>1812.22</ele>
        <time>2019-11-20T12:33:07Z</time>
      </trkpt>
      <trkpt lat="44.93259" lon="6.74112">
        <ele>1811.74</ele>
        <time>2019-11-20T12:33:22Z</time>
      </trkpt>
      <trkpt lat="44.93261" lon="6.7411">
        <ele>1811.74</ele>
        <time>2019-11-20T12:33:37Z</time>
      </trkpt>
      <trkpt lat="44.93261" lon="6.74116">
        <ele>1811.74</ele>
        <time>2019-11-20T12:33:53Z</time>
      </trkpt>
      <trkpt lat="44.93264" lon="6.74132">
        <ele>1810.3</ele>
        <time>2019-11-20T12:34:02Z</time>
      </trkpt>
      <trkpt lat="44.9327" lon="6.74149">
        <ele>1806.94</ele>
        <time>2019-11-20T12:34:05Z</time>
      </trkpt>
      <trkpt lat="44.93283" lon="6.74156">
        <ele>1804.53</ele>
        <time>2019-11-20T12:34:08Z</time>
      </trkpt>
      <trkpt lat="44.9331" lon="6.74167">
        <ele>1803.57</ele>
        <time>2019-11-20T12:34:18Z</time>
      </trkpt>
      <trkpt lat="44.93322" lon="6.74178">
        <ele>1802.61</ele>
        <time>2019-11-20T12:34:27Z</time>
      </trkpt>
      <trkpt lat="44.93321" lon="6.74178">
        <ele>1802.61</ele>
        <time>2019-11-20T12:34:54Z</time>
      </trkpt>
      <trkpt lat="44.93321" lon="6.7418">
        <ele>1802.61</ele>
        <time>2019-11-20T12:35:15Z</time>
      </trkpt>
      <trkpt lat="44.93322" lon="6.74181">
        <ele>1803.09</ele>
        <time>2019-11-20T12:35:21Z</time>
      </trkpt>
      <trkpt lat="44.93334" lon="6.7419">
        <ele>1799.24</ele>
        <time>2019-11-20T12:35:27Z</time>
      </trkpt>
      <trkpt lat="44.93343" lon="6.74198">
        <ele>1795.88</ele>
        <time>2019-11-20T12:35:29Z</time>
      </trkpt>
      <trkpt lat="44.93357" lon="6.74208">
        <ele>1796.36</ele>
        <time>2019-11-20T12:35:36Z</time>
      </trkpt>
      <trkpt lat="44.93354" lon="6.74215">
        <ele>1796.84</ele>
        <time>2019-11-20T12:35:51Z</time>
      </trkpt>
      <trkpt lat="44.93355" lon="6.74217">
        <ele>1796.36</ele>
        <time>2019-11-20T12:35:54Z</time>
      </trkpt>
      <trkpt lat="44.9336" lon="6.74227">
        <ele>1795.4</ele>
        <time>2019-11-20T12:35:59Z</time>
      </trkpt>
      <trkpt lat="44.93369" lon="6.74235">
        <ele>1792.52</ele>
        <time>2019-11-20T12:36:02Z</time>
      </trkpt>
      <trkpt lat="44.93373" lon="6.74236">
        <ele>1792.52</ele>
        <time>2019-11-20T12:36:03Z</time>
      </trkpt>
      <trkpt lat="44.93395" lon="6.74249">
        <ele>1793</ele>
        <time>2019-11-20T12:36:15Z</time>
      </trkpt>
      <trkpt lat="44.93405" lon="6.74261">
        <ele>1792.03</ele>
        <time>2019-11-20T12:36:21Z</time>
      </trkpt>
      <trkpt lat="44.93406" lon="6.74263">
        <ele>1792.03</ele>
        <time>2019-11-20T12:36:22Z</time>
      </trkpt>
      <trkpt lat="44.93407" lon="6.74266">
        <ele>1792.03</ele>
        <time>2019-11-20T12:36:23Z</time>
      </trkpt>
      <trkpt lat="44.93425" lon="6.74294">
        <ele>1791.07</ele>
        <time>2019-11-20T12:36:37Z</time>
      </trkpt>
      <trkpt lat="44.93446" lon="6.74318">
        <ele>1789.15</ele>
        <time>2019-11-20T12:36:51Z</time>
      </trkpt>
      <trkpt lat="44.93471" lon="6.74321">
        <ele>1788.19</ele>
        <time>2019-11-20T12:37:05Z</time>
      </trkpt>
      <trkpt lat="44.93486" lon="6.74341">
        <ele>1787.71</ele>
        <time>2019-11-20T12:37:17Z</time>
      </trkpt>
      <trkpt lat="44.93496" lon="6.74364">
        <ele>1787.23</ele>
        <time>2019-11-20T12:37:28Z</time>
      </trkpt>
      <trkpt lat="44.93503" lon="6.7438">
        <ele>1786.75</ele>
        <time>2019-11-20T12:37:41Z</time>
      </trkpt>
      <trkpt lat="44.93508" lon="6.74411">
        <ele>1785.79</ele>
        <time>2019-11-20T12:37:53Z</time>
      </trkpt>
      <trkpt lat="44.93513" lon="6.74433">
        <ele>1785.31</ele>
        <time>2019-11-20T12:38:04Z</time>
      </trkpt>
      <trkpt lat="44.93514" lon="6.74434">
        <ele>1784.82</ele>
        <time>2019-11-20T12:38:05Z</time>
      </trkpt>
      <trkpt lat="44.93515" lon="6.74436">
        <ele>1786.75</ele>
        <time>2019-11-20T12:38:06Z</time>
      </trkpt>
      <trkpt lat="44.93516" lon="6.74436">
        <ele>1784.82</ele>
        <time>2019-11-20T12:38:07Z</time>
      </trkpt>
      <trkpt lat="44.93517" lon="6.74437">
        <ele>1784.34</ele>
        <time>2019-11-20T12:38:08Z</time>
      </trkpt>
      <trkpt lat="44.93518" lon="6.74438">
        <ele>1784.82</ele>
        <time>2019-11-20T12:38:09Z</time>
      </trkpt>
      <trkpt lat="44.9352" lon="6.74439">
        <ele>1784.34</ele>
        <time>2019-11-20T12:38:10Z</time>
      </trkpt>
      <trkpt lat="44.93521" lon="6.7444">
        <ele>1783.86</ele>
        <time>2019-11-20T12:38:11Z</time>
      </trkpt>
      <trkpt lat="44.93522" lon="6.74442">
        <ele>1783.86</ele>
        <time>2019-11-20T12:38:12Z</time>
      </trkpt>
      <trkpt lat="44.93524" lon="6.74445">
        <ele>1783.38</ele>
        <time>2019-11-20T12:38:13Z</time>
      </trkpt>
      <trkpt lat="44.93525" lon="6.74447">
        <ele>1783.38</ele>
        <time>2019-11-20T12:38:14Z</time>
      </trkpt>
      <trkpt lat="44.93527" lon="6.74449">
        <ele>1783.86</ele>
        <time>2019-11-20T12:38:15Z</time>
      </trkpt>
      <trkpt lat="44.93543" lon="6.74466">
        <ele>1782.42</ele>
        <time>2019-11-20T12:38:27Z</time>
      </trkpt>
      <trkpt lat="44.93544" lon="6.74468">
        <ele>1782.9</ele>
        <time>2019-11-20T12:38:28Z</time>
      </trkpt>
      <trkpt lat="44.93544" lon="6.7447">
        <ele>1782.42</ele>
        <time>2019-11-20T12:38:29Z</time>
      </trkpt>
      <trkpt lat="44.93544" lon="6.74472">
        <ele>1783.38</ele>
        <time>2019-11-20T12:38:30Z</time>
      </trkpt>
      <trkpt lat="44.93545" lon="6.74474">
        <ele>1783.38</ele>
        <time>2019-11-20T12:38:31Z</time>
      </trkpt>
      <trkpt lat="44.93545" lon="6.74475">
        <ele>1782.42</ele>
        <time>2019-11-20T12:38:32Z</time>
      </trkpt>
      <trkpt lat="44.93549" lon="6.7449">
        <ele>1782.9</ele>
        <time>2019-11-20T12:38:40Z</time>
      </trkpt>
      <trkpt lat="44.93549" lon="6.74491">
        <ele>1782.42</ele>
        <time>2019-11-20T12:38:41Z</time>
      </trkpt>
      <trkpt lat="44.93552" lon="6.74512">
        <ele>1781.46</ele>
        <time>2019-11-20T12:38:54Z</time>
      </trkpt>
      <trkpt lat="44.93555" lon="6.74518">
        <ele>1781.46</ele>
        <time>2019-11-20T12:38:58Z</time>
      </trkpt>
      <trkpt lat="44.93557" lon="6.74521">
        <ele>1781.46</ele>
        <time>2019-11-20T12:39:01Z</time>
      </trkpt>
      <trkpt lat="44.93558" lon="6.74524">
        <ele>1780.98</ele>
        <time>2019-11-20T12:39:02Z</time>
      </trkpt>
      <trkpt lat="44.93559" lon="6.74526">
        <ele>1780.98</ele>
        <time>2019-11-20T12:39:03Z</time>
      </trkpt>
      <trkpt lat="44.9356" lon="6.74529">
        <ele>1780.98</ele>
        <time>2019-11-20T12:39:04Z</time>
      </trkpt>
      <trkpt lat="44.9356" lon="6.74532">
        <ele>1780.98</ele>
        <time>2019-11-20T12:39:05Z</time>
      </trkpt>
      <trkpt lat="44.9357" lon="6.74558">
        <ele>1779.54</ele>
        <time>2019-11-20T12:39:18Z</time>
      </trkpt>
      <trkpt lat="44.93571" lon="6.74559">
        <ele>1780.02</ele>
        <time>2019-11-20T12:39:19Z</time>
      </trkpt>
      <trkpt lat="44.93572" lon="6.7456">
        <ele>1779.54</ele>
        <time>2019-11-20T12:39:20Z</time>
      </trkpt>
      <trkpt lat="44.93573" lon="6.74561">
        <ele>1779.54</ele>
        <time>2019-11-20T12:39:21Z</time>
      </trkpt>
      <trkpt lat="44.93583" lon="6.74574">
        <ele>1779.54</ele>
        <time>2019-11-20T12:39:34Z</time>
      </trkpt>
      <trkpt lat="44.93586" lon="6.74583">
        <ele>1780.02</ele>
        <time>2019-11-20T12:39:46Z</time>
      </trkpt>
      <trkpt lat="44.93587" lon="6.74587">
        <ele>1779.54</ele>
        <time>2019-11-20T12:39:54Z</time>
      </trkpt>
      <trkpt lat="44.93588" lon="6.74588">
        <ele>1779.06</ele>
        <time>2019-11-20T12:39:55Z</time>
      </trkpt>
      <trkpt lat="44.93588" lon="6.7459">
        <ele>1779.06</ele>
        <time>2019-11-20T12:39:56Z</time>
      </trkpt>
      <trkpt lat="44.93607" lon="6.74608">
        <ele>1777.61</ele>
        <time>2019-11-20T12:40:06Z</time>
      </trkpt>
      <trkpt lat="44.93616" lon="6.74624">
        <ele>1777.61</ele>
        <time>2019-11-20T12:40:21Z</time>
      </trkpt>
      <trkpt lat="44.93622" lon="6.74636">
        <ele>1777.61</ele>
        <time>2019-11-20T12:40:34Z</time>
      </trkpt>
      <trkpt lat="44.93626" lon="6.74652">
        <ele>1777.61</ele>
        <time>2019-11-20T12:40:47Z</time>
      </trkpt>
      <trkpt lat="44.9363" lon="6.74664">
        <ele>1778.1</ele>
        <time>2019-11-20T12:40:59Z</time>
      </trkpt>
      <trkpt lat="44.93635" lon="6.7468">
        <ele>1777.13</ele>
        <time>2019-11-20T12:41:11Z</time>
      </trkpt>
      <trkpt lat="44.93638" lon="6.74684">
        <ele>1777.13</ele>
        <time>2019-11-20T12:41:16Z</time>
      </trkpt>
      <trkpt lat="44.9364" lon="6.74693">
        <ele>1778.1</ele>
        <time>2019-11-20T12:41:27Z</time>
      </trkpt>
      <trkpt lat="44.93646" lon="6.74704">
        <ele>1778.1</ele>
        <time>2019-11-20T12:41:40Z</time>
      </trkpt>
      <trkpt lat="44.93647" lon="6.74712">
        <ele>1778.58</ele>
        <time>2019-11-20T12:41:51Z</time>
      </trkpt>
      <trkpt lat="44.93647" lon="6.74718">
        <ele>1778.58</ele>
        <time>2019-11-20T12:41:57Z</time>
      </trkpt>
      <trkpt lat="44.93647" lon="6.74728">
        <ele>1779.06</ele>
        <time>2019-11-20T12:42:09Z</time>
      </trkpt>
      <trkpt lat="44.93647" lon="6.7473">
        <ele>1778.58</ele>
        <time>2019-11-20T12:42:23Z</time>
      </trkpt>
      <trkpt lat="44.93646" lon="6.74724">
        <ele>1778.58</ele>
        <time>2019-11-20T12:42:41Z</time>
      </trkpt>
      <trkpt lat="44.93648" lon="6.74725">
        <ele>1779.06</ele>
        <time>2019-11-20T12:42:59Z</time>
      </trkpt>
      <trkpt lat="44.93648" lon="6.74727">
        <ele>1779.06</ele>
        <time>2019-11-20T12:43:26Z</time>
      </trkpt>
      <trkpt lat="44.93649" lon="6.74733">
        <ele>1779.06</ele>
        <time>2019-11-20T12:43:49Z</time>
      </trkpt>
      <trkpt lat="44.9366" lon="6.74729">
        <ele>1780.02</ele>
        <time>2019-11-20T12:44:03Z</time>
      </trkpt>
      <trkpt lat="44.93662" lon="6.7473">
        <ele>1780.5</ele>
        <time>2019-11-20T12:44:06Z</time>
      </trkpt>
      <trkpt lat="44.93679" lon="6.74729">
        <ele>1780.98</ele>
        <time>2019-11-20T12:44:23Z</time>
      </trkpt>
      <trkpt lat="44.93682" lon="6.74734">
        <ele>1780.5</ele>
        <time>2019-11-20T12:44:28Z</time>
      </trkpt>
      <trkpt lat="44.93692" lon="6.74758">
        <ele>1778.58</ele>
        <time>2019-11-20T12:44:48Z</time>
      </trkpt>
      <trkpt lat="44.93698" lon="6.7477">
        <ele>1778.1</ele>
        <time>2019-11-20T12:44:58Z</time>
      </trkpt>
      <trkpt lat="44.93703" lon="6.74782">
        <ele>1778.1</ele>
        <time>2019-11-20T12:45:07Z</time>
      </trkpt>
      <trkpt lat="44.9372" lon="6.74796">
        <ele>1778.58</ele>
        <time>2019-11-20T12:45:26Z</time>
      </trkpt>
      <trkpt lat="44.93728" lon="6.74803">
        <ele>1779.06</ele>
        <time>2019-11-20T12:45:36Z</time>
      </trkpt>
      <trkpt lat="44.9373" lon="6.74804">
        <ele>1779.06</ele>
        <time>2019-11-20T12:45:38Z</time>
      </trkpt>
      <trkpt lat="44.93737" lon="6.74801">
        <ele>1779.06</ele>
        <time>2019-11-20T12:45:44Z</time>
      </trkpt>
      <trkpt lat="44.93739" lon="6.74799">
        <ele>1779.06</ele>
        <time>2019-11-20T12:45:46Z</time>
      </trkpt>
      <trkpt lat="44.93748" lon="6.74782">
        <ele>1779.54</ele>
        <time>2019-11-20T12:46:03Z</time>
      </trkpt>
      <trkpt lat="44.93749" lon="6.74767">
        <ele>1780.5</ele>
        <time>2019-11-20T12:46:18Z</time>
      </trkpt>
      <trkpt lat="44.93745" lon="6.74765">
        <ele>1780.02</ele>
        <time>2019-11-20T12:46:30Z</time>
      </trkpt>
      <trkpt lat="44.93744" lon="6.74765">
        <ele>1779.54</ele>
        <time>2019-11-20T12:46:54Z</time>
      </trkpt>
      <trkpt lat="44.93744" lon="6.74767">
        <ele>1779.54</ele>
        <time>2019-11-20T12:47:25Z</time>
      </trkpt>
      <trkpt lat="44.93746" lon="6.74765">
        <ele>1779.54</ele>
        <time>2019-11-20T12:47:58Z</time>
      </trkpt>
      <trkpt lat="44.93745" lon="6.74768">
        <ele>1779.54</ele>
        <time>2019-11-20T12:48:25Z</time>
      </trkpt>
      <trkpt lat="44.93744" lon="6.74764">
        <ele>1780.5</ele>
        <time>2019-11-20T12:48:41Z</time>
      </trkpt>
      <trkpt lat="44.93745" lon="6.74765">
        <ele>1780.5</ele>
        <time>2019-11-20T12:48:57Z</time>
      </trkpt>
    </trkseg>
  </trk>
</gpx>